<?xml version="1.0" encoding="UTF-8" standalone="no" ?>
<gpx xmlns="http://www.topografix.com/GPX/1/1" xmlns:xsi="http://www.w3.org/2001/XMLSchema-instance" xsi:schemaLocation="http://www.topografix.com/GPX/1/1 http://www.topografix.com/GPX/1/1/gpx.xsd" version="1.1" creator="VisuGPX - https://www.visugpx.com">
  <metadata>
    <name>Pégairolles de l'Escalette - tour des falaises</name>
    <desc><![CDATA[2017-05 - Pégairolles de l'Escalette - Pas de l'Escalette - tour des falaises

[b]album[/b] : [url]https://goo.gl/photos/gxyCRjnwaMS279U47[/url]
[img]https://1.bp.blogspot.com/-xmE1WtiteC8/WRscLF6D8UI/AAAAAAAATJk/XlyhJVUmFIciioyK8Dl3MLwlMS3iZhg6wCLcB/s1600/2017-05_pegairolles_escalette_falaises_i.JPG[/img]
[b]Idées de randonnées dans la même région[/b]
Parcours : [url]https://www.visugpx.com/membres/24856/causses/larzac/[/url]
Photos : [url]https://jcvertygo.blogspot.com/p/larzac.html[/url]]]></desc>
  </metadata>
  <trk>
    <name><![CDATA[Pégairolles de l'Escalette - tour des falaises_1]]></name>
    <trkseg>
      <trkpt lat="43.80001" lon="3.32293">
        <ele>296</ele>
        <time>2017-05-16T09:16:40Z</time>
      </trkpt>
      <trkpt lat="43.80004" lon="3.32287">
        <ele>305</ele>
        <time>2017-05-16T09:16:45Z</time>
      </trkpt>
      <trkpt lat="43.80007" lon="3.32287">
        <ele>305</ele>
        <time>2017-05-16T09:17:25Z</time>
      </trkpt>
      <trkpt lat="43.80007" lon="3.32287">
        <ele>305</ele>
        <time>2017-05-16T09:17:30Z</time>
      </trkpt>
      <trkpt lat="43.80016" lon="3.32291">
        <ele>305</ele>
        <time>2017-05-16T09:18:27Z</time>
      </trkpt>
      <trkpt lat="43.80019" lon="3.32292">
        <ele>296</ele>
        <time>2017-05-16T09:18:40Z</time>
      </trkpt>
      <trkpt lat="43.80018" lon="3.32287">
        <ele>305</ele>
        <time>2017-05-16T09:18:50Z</time>
      </trkpt>
      <trkpt lat="43.80018" lon="3.32285">
        <ele>305</ele>
        <time>2017-05-16T09:18:55Z</time>
      </trkpt>
      <trkpt lat="43.80021" lon="3.32293">
        <ele>296</ele>
        <time>2017-05-16T09:19:42Z</time>
      </trkpt>
      <trkpt lat="43.80021" lon="3.32295">
        <ele>296</ele>
        <time>2017-05-16T09:19:45Z</time>
      </trkpt>
      <trkpt lat="43.80028" lon="3.32299">
        <ele>296</ele>
        <time>2017-05-16T09:20:05Z</time>
      </trkpt>
      <trkpt lat="43.80031" lon="3.32301">
        <ele>296</ele>
        <time>2017-05-16T09:20:11Z</time>
      </trkpt>
      <trkpt lat="43.80037" lon="3.32304">
        <ele>296</ele>
        <time>2017-05-16T09:20:21Z</time>
      </trkpt>
      <trkpt lat="43.80038" lon="3.32306">
        <ele>296</ele>
        <time>2017-05-16T09:20:25Z</time>
      </trkpt>
      <trkpt lat="43.80049" lon="3.32314">
        <ele>302</ele>
        <time>2017-05-16T09:20:36Z</time>
      </trkpt>
      <trkpt lat="43.80053" lon="3.32315">
        <ele>302</ele>
        <time>2017-05-16T09:20:41Z</time>
      </trkpt>
      <trkpt lat="43.80061" lon="3.32321">
        <ele>302</ele>
        <time>2017-05-16T09:20:50Z</time>
      </trkpt>
      <trkpt lat="43.80066" lon="3.32323">
        <ele>302</ele>
        <time>2017-05-16T09:20:55Z</time>
      </trkpt>
      <trkpt lat="43.80071" lon="3.32325">
        <ele>302</ele>
        <time>2017-05-16T09:21:00Z</time>
      </trkpt>
      <trkpt lat="43.80074" lon="3.32326">
        <ele>302</ele>
        <time>2017-05-16T09:21:05Z</time>
      </trkpt>
      <trkpt lat="43.80081" lon="3.32326">
        <ele>302</ele>
        <time>2017-05-16T09:21:10Z</time>
      </trkpt>
      <trkpt lat="43.80093" lon="3.3232">
        <ele>302</ele>
        <time>2017-05-16T09:21:15Z</time>
      </trkpt>
      <trkpt lat="43.80097" lon="3.32316">
        <ele>302</ele>
        <time>2017-05-16T09:21:20Z</time>
      </trkpt>
      <trkpt lat="43.80103" lon="3.32313">
        <ele>302</ele>
        <time>2017-05-16T09:21:25Z</time>
      </trkpt>
      <trkpt lat="43.80138" lon="3.32274">
        <ele>308</ele>
        <time>2017-05-16T09:22:04Z</time>
      </trkpt>
      <trkpt lat="43.80143" lon="3.32272">
        <ele>308</ele>
        <time>2017-05-16T09:22:05Z</time>
      </trkpt>
      <trkpt lat="43.80184" lon="3.32292">
        <ele>302</ele>
        <time>2017-05-16T09:22:54Z</time>
      </trkpt>
      <trkpt lat="43.80188" lon="3.32296">
        <ele>302</ele>
        <time>2017-05-16T09:23:20Z</time>
      </trkpt>
      <trkpt lat="43.80197" lon="3.32301">
        <ele>302</ele>
        <time>2017-05-16T09:23:20Z</time>
      </trkpt>
      <trkpt lat="43.80215" lon="3.32313">
        <ele>309</ele>
        <time>2017-05-16T09:23:46Z</time>
      </trkpt>
      <trkpt lat="43.80228" lon="3.32335">
        <ele>309</ele>
        <time>2017-05-16T09:24:00Z</time>
      </trkpt>
      <trkpt lat="43.80229" lon="3.32332">
        <ele>309</ele>
        <time>2017-05-16T09:24:00Z</time>
      </trkpt>
      <trkpt lat="43.80242" lon="3.32329">
        <ele>309</ele>
        <time>2017-05-16T09:25:08Z</time>
      </trkpt>
      <trkpt lat="43.80248" lon="3.32322">
        <ele>309</ele>
        <time>2017-05-16T09:25:23Z</time>
      </trkpt>
      <trkpt lat="43.80245" lon="3.32321">
        <ele>309</ele>
        <time>2017-05-16T09:25:25Z</time>
      </trkpt>
      <trkpt lat="43.80242" lon="3.3232">
        <ele>309</ele>
        <time>2017-05-16T09:26:18Z</time>
      </trkpt>
      <trkpt lat="43.80248" lon="3.32321">
        <ele>309</ele>
        <time>2017-05-16T09:26:25Z</time>
      </trkpt>
      <trkpt lat="43.8025" lon="3.32321">
        <ele>309</ele>
        <time>2017-05-16T09:26:40Z</time>
      </trkpt>
      <trkpt lat="43.8025" lon="3.32328">
        <ele>309</ele>
        <time>2017-05-16T09:26:45Z</time>
      </trkpt>
      <trkpt lat="43.80245" lon="3.32327">
        <ele>309</ele>
        <time>2017-05-16T09:27:08Z</time>
      </trkpt>
      <trkpt lat="43.80247" lon="3.32326">
        <ele>309</ele>
        <time>2017-05-16T09:27:08Z</time>
      </trkpt>
      <trkpt lat="43.80266" lon="3.3229">
        <ele>306</ele>
        <time>2017-05-16T09:28:39Z</time>
      </trkpt>
      <trkpt lat="43.80266" lon="3.3229">
        <ele>306</ele>
        <time>2017-05-16T09:28:43Z</time>
      </trkpt>
      <trkpt lat="43.80303" lon="3.32276">
        <ele>312</ele>
        <time>2017-05-16T09:29:22Z</time>
      </trkpt>
      <trkpt lat="43.80305" lon="3.32271">
        <ele>312</ele>
        <time>2017-05-16T09:29:25Z</time>
      </trkpt>
      <trkpt lat="43.80308" lon="3.32265">
        <ele>312</ele>
        <time>2017-05-16T09:29:30Z</time>
      </trkpt>
      <trkpt lat="43.8034" lon="3.32247">
        <ele>312</ele>
        <time>2017-05-16T09:29:55Z</time>
      </trkpt>
      <trkpt lat="43.80437" lon="3.32227">
        <ele>312</ele>
        <time>2017-05-16T09:31:27Z</time>
      </trkpt>
      <trkpt lat="43.80447" lon="3.32233">
        <ele>312</ele>
        <time>2017-05-16T09:31:43Z</time>
      </trkpt>
      <trkpt lat="43.80453" lon="3.32231">
        <ele>312</ele>
        <time>2017-05-16T09:31:43Z</time>
      </trkpt>
      <trkpt lat="43.80574" lon="3.3226">
        <ele>317</ele>
        <time>2017-05-16T09:33:30Z</time>
      </trkpt>
      <trkpt lat="43.80588" lon="3.32256">
        <ele>317</ele>
        <time>2017-05-16T09:33:44Z</time>
      </trkpt>
      <trkpt lat="43.80589" lon="3.32256">
        <ele>317</ele>
        <time>2017-05-16T09:33:44Z</time>
      </trkpt>
      <trkpt lat="43.80591" lon="3.32256">
        <ele>317</ele>
        <time>2017-05-16T09:33:45Z</time>
      </trkpt>
      <trkpt lat="43.80609" lon="3.32254">
        <ele>317</ele>
        <time>2017-05-16T09:34:04Z</time>
      </trkpt>
      <trkpt lat="43.80637" lon="3.32238">
        <ele>322</ele>
        <time>2017-05-16T09:34:33Z</time>
      </trkpt>
      <trkpt lat="43.8064" lon="3.32235">
        <ele>322</ele>
        <time>2017-05-16T09:34:33Z</time>
      </trkpt>
      <trkpt lat="43.80758" lon="3.32163">
        <ele>325</ele>
        <time>2017-05-16T09:36:44Z</time>
      </trkpt>
      <trkpt lat="43.80821" lon="3.32129">
        <ele>344</ele>
        <time>2017-05-16T09:37:28Z</time>
      </trkpt>
      <trkpt lat="43.80822" lon="3.32129">
        <ele>344</ele>
        <time>2017-05-16T09:37:30Z</time>
      </trkpt>
      <trkpt lat="43.80879" lon="3.32103">
        <ele>340</ele>
        <time>2017-05-16T09:38:25Z</time>
      </trkpt>
      <trkpt lat="43.80917" lon="3.3207">
        <ele>340</ele>
        <time>2017-05-16T09:39:19Z</time>
      </trkpt>
      <trkpt lat="43.80979" lon="3.31971">
        <ele>354</ele>
        <time>2017-05-16T09:40:24Z</time>
      </trkpt>
      <trkpt lat="43.80985" lon="3.3196">
        <ele>354</ele>
        <time>2017-05-16T09:40:25Z</time>
      </trkpt>
      <trkpt lat="43.81027" lon="3.31912">
        <ele>326</ele>
        <time>2017-05-16T09:41:24Z</time>
      </trkpt>
      <trkpt lat="43.81034" lon="3.31902">
        <ele>326</ele>
        <time>2017-05-16T09:41:24Z</time>
      </trkpt>
      <trkpt lat="43.81034" lon="3.31902">
        <ele>326</ele>
        <time>2017-05-16T09:41:25Z</time>
      </trkpt>
      <trkpt lat="43.81042" lon="3.31892">
        <ele>352</ele>
        <time>2017-05-16T09:41:42Z</time>
      </trkpt>
      <trkpt lat="43.8105" lon="3.31886">
        <ele>352</ele>
        <time>2017-05-16T09:41:42Z</time>
      </trkpt>
      <trkpt lat="43.81094" lon="3.31844">
        <ele>325</ele>
        <time>2017-05-16T09:42:35Z</time>
      </trkpt>
      <trkpt lat="43.81189" lon="3.31685">
        <ele>338</ele>
        <time>2017-05-16T09:44:55Z</time>
      </trkpt>
      <trkpt lat="43.81194" lon="3.31681">
        <ele>338</ele>
        <time>2017-05-16T09:45:11Z</time>
      </trkpt>
      <trkpt lat="43.81192" lon="3.31681">
        <ele>338</ele>
        <time>2017-05-16T09:45:25Z</time>
      </trkpt>
      <trkpt lat="43.81198" lon="3.31679">
        <ele>338</ele>
        <time>2017-05-16T09:45:32Z</time>
      </trkpt>
      <trkpt lat="43.81198" lon="3.31681">
        <ele>338</ele>
        <time>2017-05-16T09:45:42Z</time>
      </trkpt>
      <trkpt lat="43.81186" lon="3.31688">
        <ele>338</ele>
        <time>2017-05-16T09:46:00Z</time>
      </trkpt>
      <trkpt lat="43.81188" lon="3.31679">
        <ele>338</ele>
        <time>2017-05-16T09:47:23Z</time>
      </trkpt>
      <trkpt lat="43.81191" lon="3.31678">
        <ele>338</ele>
        <time>2017-05-16T09:48:25Z</time>
      </trkpt>
      <trkpt lat="43.81195" lon="3.31675">
        <ele>338</ele>
        <time>2017-05-16T09:48:25Z</time>
      </trkpt>
      <trkpt lat="43.81191" lon="3.31688">
        <ele>338</ele>
        <time>2017-05-16T09:48:46Z</time>
      </trkpt>
      <trkpt lat="43.81216" lon="3.3167">
        <ele>329</ele>
        <time>2017-05-16T09:49:31Z</time>
      </trkpt>
      <trkpt lat="43.8122" lon="3.3167">
        <ele>329</ele>
        <time>2017-05-16T09:49:31Z</time>
      </trkpt>
      <trkpt lat="43.81235" lon="3.31665">
        <ele>329</ele>
        <time>2017-05-16T09:49:50Z</time>
      </trkpt>
      <trkpt lat="43.81239" lon="3.31656">
        <ele>329</ele>
        <time>2017-05-16T09:49:55Z</time>
      </trkpt>
      <trkpt lat="43.81245" lon="3.31644">
        <ele>329</ele>
        <time>2017-05-16T09:50:12Z</time>
      </trkpt>
      <trkpt lat="43.81373" lon="3.31599">
        <ele>334</ele>
        <time>2017-05-16T09:52:45Z</time>
      </trkpt>
      <trkpt lat="43.81383" lon="3.31599">
        <ele>342</ele>
        <time>2017-05-16T09:52:45Z</time>
      </trkpt>
      <trkpt lat="43.81461" lon="3.31559">
        <ele>365</ele>
        <time>2017-05-16T09:53:50Z</time>
      </trkpt>
      <trkpt lat="43.81465" lon="3.31556">
        <ele>365</ele>
        <time>2017-05-16T09:53:51Z</time>
      </trkpt>
      <trkpt lat="43.81524" lon="3.3151">
        <ele>344</ele>
        <time>2017-05-16T09:55:09Z</time>
      </trkpt>
      <trkpt lat="43.81524" lon="3.31509">
        <ele>344</ele>
        <time>2017-05-16T09:55:09Z</time>
      </trkpt>
      <trkpt lat="43.81528" lon="3.31509">
        <ele>344</ele>
        <time>2017-05-16T09:55:15Z</time>
      </trkpt>
      <trkpt lat="43.81529" lon="3.31509">
        <ele>344</ele>
        <time>2017-05-16T09:55:20Z</time>
      </trkpt>
      <trkpt lat="43.81527" lon="3.31513">
        <ele>344</ele>
        <time>2017-05-16T09:55:35Z</time>
      </trkpt>
      <trkpt lat="43.81528" lon="3.31511">
        <ele>344</ele>
        <time>2017-05-16T09:55:40Z</time>
      </trkpt>
      <trkpt lat="43.81532" lon="3.31509">
        <ele>344</ele>
        <time>2017-05-16T09:55:50Z</time>
      </trkpt>
      <trkpt lat="43.81533" lon="3.31505">
        <ele>344</ele>
        <time>2017-05-16T09:56:26Z</time>
      </trkpt>
      <trkpt lat="43.81593" lon="3.31457">
        <ele>357</ele>
        <time>2017-05-16T09:57:33Z</time>
      </trkpt>
      <trkpt lat="43.816" lon="3.31448">
        <ele>357</ele>
        <time>2017-05-16T09:57:33Z</time>
      </trkpt>
      <trkpt lat="43.81623" lon="3.31443">
        <ele>357</ele>
        <time>2017-05-16T09:57:56Z</time>
      </trkpt>
      <trkpt lat="43.81628" lon="3.31438">
        <ele>356</ele>
        <time>2017-05-16T09:58:13Z</time>
      </trkpt>
      <trkpt lat="43.81627" lon="3.31442">
        <ele>356</ele>
        <time>2017-05-16T09:58:15Z</time>
      </trkpt>
      <trkpt lat="43.81632" lon="3.31442">
        <ele>356</ele>
        <time>2017-05-16T09:58:20Z</time>
      </trkpt>
      <trkpt lat="43.81648" lon="3.31438">
        <ele>356</ele>
        <time>2017-05-16T09:58:32Z</time>
      </trkpt>
      <trkpt lat="43.81651" lon="3.31438">
        <ele>356</ele>
        <time>2017-05-16T09:58:35Z</time>
      </trkpt>
      <trkpt lat="43.81655" lon="3.31435">
        <ele>356</ele>
        <time>2017-05-16T09:58:40Z</time>
      </trkpt>
      <trkpt lat="43.81664" lon="3.31438">
        <ele>356</ele>
        <time>2017-05-16T09:58:50Z</time>
      </trkpt>
      <trkpt lat="43.8167" lon="3.31439">
        <ele>356</ele>
        <time>2017-05-16T09:58:55Z</time>
      </trkpt>
      <trkpt lat="43.8167" lon="3.31439">
        <ele>356</ele>
        <time>2017-05-16T09:59:05Z</time>
      </trkpt>
      <trkpt lat="43.81677" lon="3.31438">
        <ele>356</ele>
        <time>2017-05-16T09:59:10Z</time>
      </trkpt>
      <trkpt lat="43.81682" lon="3.31434">
        <ele>356</ele>
        <time>2017-05-16T09:59:20Z</time>
      </trkpt>
      <trkpt lat="43.81686" lon="3.3143">
        <ele>356</ele>
        <time>2017-05-16T09:59:25Z</time>
      </trkpt>
      <trkpt lat="43.81689" lon="3.3143">
        <ele>356</ele>
        <time>2017-05-16T09:59:53Z</time>
      </trkpt>
      <trkpt lat="43.81709" lon="3.31432">
        <ele>353</ele>
        <time>2017-05-16T09:59:53Z</time>
      </trkpt>
      <trkpt lat="43.81734" lon="3.31453">
        <ele>353</ele>
        <time>2017-05-16T10:01:09Z</time>
      </trkpt>
      <trkpt lat="43.81718" lon="3.31484">
        <ele>357</ele>
        <time>2017-05-16T10:02:15Z</time>
      </trkpt>
      <trkpt lat="43.81713" lon="3.31487">
        <ele>357</ele>
        <time>2017-05-16T10:02:20Z</time>
      </trkpt>
      <trkpt lat="43.81797" lon="3.31492">
        <ele>359</ele>
        <time>2017-05-16T10:03:59Z</time>
      </trkpt>
      <trkpt lat="43.81817" lon="3.31501">
        <ele>359</ele>
        <time>2017-05-16T10:04:28Z</time>
      </trkpt>
      <trkpt lat="43.81819" lon="3.31501">
        <ele>359</ele>
        <time>2017-05-16T10:04:30Z</time>
      </trkpt>
      <trkpt lat="43.81863" lon="3.31508">
        <ele>359</ele>
        <time>2017-05-16T10:05:03Z</time>
      </trkpt>
      <trkpt lat="43.81865" lon="3.31508">
        <ele>359</ele>
        <time>2017-05-16T10:05:05Z</time>
      </trkpt>
      <trkpt lat="43.81864" lon="3.31507">
        <ele>359</ele>
        <time>2017-05-16T10:05:10Z</time>
      </trkpt>
      <trkpt lat="43.81868" lon="3.31508">
        <ele>359</ele>
        <time>2017-05-16T10:05:15Z</time>
      </trkpt>
      <trkpt lat="43.81939" lon="3.31528">
        <ele>356</ele>
        <time>2017-05-16T10:06:21Z</time>
      </trkpt>
      <trkpt lat="43.81954" lon="3.31529">
        <ele>356</ele>
        <time>2017-05-16T10:06:38Z</time>
      </trkpt>
      <trkpt lat="43.81982" lon="3.31526">
        <ele>359</ele>
        <time>2017-05-16T10:07:01Z</time>
      </trkpt>
      <trkpt lat="43.81992" lon="3.31527">
        <ele>359</ele>
        <time>2017-05-16T10:07:01Z</time>
      </trkpt>
      <trkpt lat="43.81994" lon="3.31527">
        <ele>359</ele>
        <time>2017-05-16T10:07:03Z</time>
      </trkpt>
      <trkpt lat="43.82037" lon="3.31528">
        <ele>359</ele>
        <time>2017-05-16T10:07:49Z</time>
      </trkpt>
      <trkpt lat="43.82045" lon="3.31524">
        <ele>365</ele>
        <time>2017-05-16T10:07:49Z</time>
      </trkpt>
      <trkpt lat="43.82057" lon="3.31524">
        <ele>365</ele>
        <time>2017-05-16T10:08:05Z</time>
      </trkpt>
      <trkpt lat="43.82063" lon="3.31525">
        <ele>365</ele>
        <time>2017-05-16T10:08:05Z</time>
      </trkpt>
      <trkpt lat="43.82122" lon="3.31516">
        <ele>365</ele>
        <time>2017-05-16T10:09:08Z</time>
      </trkpt>
      <trkpt lat="43.82134" lon="3.31515">
        <ele>379</ele>
        <time>2017-05-16T10:09:08Z</time>
      </trkpt>
      <trkpt lat="43.82168" lon="3.31457">
        <ele>366</ele>
        <time>2017-05-16T10:10:17Z</time>
      </trkpt>
      <trkpt lat="43.82207" lon="3.3146">
        <ele>379</ele>
        <time>2017-05-16T10:11:23Z</time>
      </trkpt>
      <trkpt lat="43.82236" lon="3.31469">
        <ele>402</ele>
        <time>2017-05-16T10:11:45Z</time>
      </trkpt>
      <trkpt lat="43.8225" lon="3.3147">
        <ele>402</ele>
        <time>2017-05-16T10:12:08Z</time>
      </trkpt>
      <trkpt lat="43.82258" lon="3.31467">
        <ele>402</ele>
        <time>2017-05-16T10:12:16Z</time>
      </trkpt>
      <trkpt lat="43.82267" lon="3.3147">
        <ele>402</ele>
        <time>2017-05-16T10:12:18Z</time>
      </trkpt>
      <trkpt lat="43.82308" lon="3.3147">
        <ele>427</ele>
        <time>2017-05-16T10:13:18Z</time>
      </trkpt>
      <trkpt lat="43.82315" lon="3.31469">
        <ele>427</ele>
        <time>2017-05-16T10:13:41Z</time>
      </trkpt>
      <trkpt lat="43.82318" lon="3.31468">
        <ele>427</ele>
        <time>2017-05-16T10:14:00Z</time>
      </trkpt>
      <trkpt lat="43.82339" lon="3.31454">
        <ele>389</ele>
        <time>2017-05-16T10:14:14Z</time>
      </trkpt>
      <trkpt lat="43.82341" lon="3.31454">
        <ele>389</ele>
        <time>2017-05-16T10:14:15Z</time>
      </trkpt>
      <trkpt lat="43.82374" lon="3.31458">
        <ele>389</ele>
        <time>2017-05-16T10:14:54Z</time>
      </trkpt>
      <trkpt lat="43.8238" lon="3.31454">
        <ele>418</ele>
        <time>2017-05-16T10:15:36Z</time>
      </trkpt>
      <trkpt lat="43.82424" lon="3.31414">
        <ele>418</ele>
        <time>2017-05-16T10:17:26Z</time>
      </trkpt>
      <trkpt lat="43.82445" lon="3.31422">
        <ele>418</ele>
        <time>2017-05-16T10:18:15Z</time>
      </trkpt>
      <trkpt lat="43.82464" lon="3.31421">
        <ele>454</ele>
        <time>2017-05-16T10:18:54Z</time>
      </trkpt>
      <trkpt lat="43.82479" lon="3.3142">
        <ele>454</ele>
        <time>2017-05-16T10:18:54Z</time>
      </trkpt>
      <trkpt lat="43.8248" lon="3.3142">
        <ele>454</ele>
        <time>2017-05-16T10:18:55Z</time>
      </trkpt>
      <trkpt lat="43.82596" lon="3.31367">
        <ele>454</ele>
        <time>2017-05-16T10:22:11Z</time>
      </trkpt>
      <trkpt lat="43.82598" lon="3.31369">
        <ele>454</ele>
        <time>2017-05-16T10:22:15Z</time>
      </trkpt>
      <trkpt lat="43.82622" lon="3.3131">
        <ele>454</ele>
        <time>2017-05-16T10:23:08Z</time>
      </trkpt>
      <trkpt lat="43.82705" lon="3.31253">
        <ele>452</ele>
        <time>2017-05-16T10:26:00Z</time>
      </trkpt>
      <trkpt lat="43.82721" lon="3.3123">
        <ele>495</ele>
        <time>2017-05-16T10:26:15Z</time>
      </trkpt>
      <trkpt lat="43.82733" lon="3.31226">
        <ele>495</ele>
        <time>2017-05-16T10:26:41Z</time>
      </trkpt>
      <trkpt lat="43.82737" lon="3.31224">
        <ele>495</ele>
        <time>2017-05-16T10:26:41Z</time>
      </trkpt>
      <trkpt lat="43.82791" lon="3.31173">
        <ele>471</ele>
        <time>2017-05-16T10:28:30Z</time>
      </trkpt>
      <trkpt lat="43.82812" lon="3.31152">
        <ele>513</ele>
        <time>2017-05-16T10:29:55Z</time>
      </trkpt>
      <trkpt lat="43.82816" lon="3.31139">
        <ele>513</ele>
        <time>2017-05-16T10:30:09Z</time>
      </trkpt>
      <trkpt lat="43.82817" lon="3.31138">
        <ele>513</ele>
        <time>2017-05-16T10:30:10Z</time>
      </trkpt>
      <trkpt lat="43.82845" lon="3.31113">
        <ele>497</ele>
        <time>2017-05-16T10:31:00Z</time>
      </trkpt>
      <trkpt lat="43.82858" lon="3.31096">
        <ele>497</ele>
        <time>2017-05-16T10:31:25Z</time>
      </trkpt>
      <trkpt lat="43.82861" lon="3.31093">
        <ele>497</ele>
        <time>2017-05-16T10:31:25Z</time>
      </trkpt>
      <trkpt lat="43.82889" lon="3.31098">
        <ele>527</ele>
        <time>2017-05-16T10:32:22Z</time>
      </trkpt>
      <trkpt lat="43.82934" lon="3.31148">
        <ele>534</ele>
        <time>2017-05-16T10:34:08Z</time>
      </trkpt>
      <trkpt lat="43.82935" lon="3.31149">
        <ele>534</ele>
        <time>2017-05-16T10:34:10Z</time>
      </trkpt>
      <trkpt lat="43.82963" lon="3.31102">
        <ele>552</ele>
        <time>2017-05-16T10:35:17Z</time>
      </trkpt>
      <trkpt lat="43.83001" lon="3.31017">
        <ele>552</ele>
        <time>2017-05-16T10:36:42Z</time>
      </trkpt>
      <trkpt lat="43.83038" lon="3.30927">
        <ele>551</ele>
        <time>2017-05-16T10:38:08Z</time>
      </trkpt>
      <trkpt lat="43.83038" lon="3.30926">
        <ele>551</ele>
        <time>2017-05-16T10:38:10Z</time>
      </trkpt>
      <trkpt lat="43.83033" lon="3.3091">
        <ele>551</ele>
        <time>2017-05-16T10:39:08Z</time>
      </trkpt>
      <trkpt lat="43.83054" lon="3.30915">
        <ele>600</ele>
        <time>2017-05-16T10:39:56Z</time>
      </trkpt>
      <trkpt lat="43.83056" lon="3.30911">
        <ele>600</ele>
        <time>2017-05-16T10:39:56Z</time>
      </trkpt>
      <trkpt lat="43.83076" lon="3.30855">
        <ele>608</ele>
        <time>2017-05-16T10:41:15Z</time>
      </trkpt>
      <trkpt lat="43.83085" lon="3.30846">
        <ele>608</ele>
        <time>2017-05-16T10:41:45Z</time>
      </trkpt>
      <trkpt lat="43.83099" lon="3.30843">
        <ele>608</ele>
        <time>2017-05-16T10:41:45Z</time>
      </trkpt>
      <trkpt lat="43.83098" lon="3.30768">
        <ele>605</ele>
        <time>2017-05-16T10:41:45Z</time>
      </trkpt>
      <trkpt lat="43.83114" lon="3.30739">
        <ele>605</ele>
        <time>2017-05-16T10:41:45Z</time>
      </trkpt>
      <trkpt lat="43.83143" lon="3.3073">
        <ele>630</ele>
        <time>2017-05-16T10:41:45Z</time>
      </trkpt>
      <trkpt lat="43.83191" lon="3.30725">
        <ele>630</ele>
        <time>2017-05-16T10:41:45Z</time>
      </trkpt>
      <trkpt lat="43.83284" lon="3.30842">
        <ele>631</ele>
        <time>2017-05-16T10:41:45Z</time>
      </trkpt>
      <trkpt lat="43.83257" lon="3.30881">
        <ele>636</ele>
        <time>2017-05-16T10:41:45Z</time>
      </trkpt>
      <trkpt lat="43.83269" lon="3.30925">
        <ele>636</ele>
        <time>2017-05-16T10:41:45Z</time>
      </trkpt>
      <trkpt lat="43.83325" lon="3.30988">
        <ele>639</ele>
        <time>2017-05-16T10:41:45Z</time>
      </trkpt>
      <trkpt lat="43.8333" lon="3.31031">
        <ele>639</ele>
        <time>2017-05-16T10:41:45Z</time>
      </trkpt>
      <trkpt lat="43.83353" lon="3.31085">
        <ele>672</ele>
        <time>2017-05-16T11:04:15Z</time>
      </trkpt>
      <trkpt lat="43.83349" lon="3.31089">
        <ele>672</ele>
        <time>2017-05-16T11:04:20Z</time>
      </trkpt>
      <trkpt lat="43.83336" lon="3.31083">
        <ele>672</ele>
        <time>2017-05-16T11:04:30Z</time>
      </trkpt>
      <trkpt lat="43.83324" lon="3.31085">
        <ele>672</ele>
        <time>2017-05-16T11:04:35Z</time>
      </trkpt>
      <trkpt lat="43.83311" lon="3.3108">
        <ele>672</ele>
        <time>2017-05-16T11:04:50Z</time>
      </trkpt>
      <trkpt lat="43.833" lon="3.31072">
        <ele>672</ele>
        <time>2017-05-16T11:04:55Z</time>
      </trkpt>
      <trkpt lat="43.83296" lon="3.31071">
        <ele>672</ele>
        <time>2017-05-16T11:05:05Z</time>
      </trkpt>
      <trkpt lat="43.83294" lon="3.31072">
        <ele>672</ele>
        <time>2017-05-16T11:05:10Z</time>
      </trkpt>
      <trkpt lat="43.83285" lon="3.31092">
        <ele>697</ele>
        <time>2017-05-16T11:05:27Z</time>
      </trkpt>
      <trkpt lat="43.83278" lon="3.31077">
        <ele>697</ele>
        <time>2017-05-16T11:05:32Z</time>
      </trkpt>
      <trkpt lat="43.83269" lon="3.31081">
        <ele>697</ele>
        <time>2017-05-16T11:06:02Z</time>
      </trkpt>
      <trkpt lat="43.83267" lon="3.31085">
        <ele>697</ele>
        <time>2017-05-16T11:06:12Z</time>
      </trkpt>
      <trkpt lat="43.83265" lon="3.31087">
        <ele>697</ele>
        <time>2017-05-16T11:06:17Z</time>
      </trkpt>
      <trkpt lat="43.83257" lon="3.31094">
        <ele>697</ele>
        <time>2017-05-16T11:06:32Z</time>
      </trkpt>
      <trkpt lat="43.83257" lon="3.31103">
        <ele>697</ele>
        <time>2017-05-16T11:06:37Z</time>
      </trkpt>
      <trkpt lat="43.83255" lon="3.31108">
        <ele>697</ele>
        <time>2017-05-16T11:06:47Z</time>
      </trkpt>
      <trkpt lat="43.83253" lon="3.31109">
        <ele>697</ele>
        <time>2017-05-16T11:06:52Z</time>
      </trkpt>
      <trkpt lat="43.83252" lon="3.31109">
        <ele>697</ele>
        <time>2017-05-16T11:07:02Z</time>
      </trkpt>
      <trkpt lat="43.83247" lon="3.31112">
        <ele>697</ele>
        <time>2017-05-16T11:07:07Z</time>
      </trkpt>
      <trkpt lat="43.83246" lon="3.31113">
        <ele>697</ele>
        <time>2017-05-16T11:07:17Z</time>
      </trkpt>
      <trkpt lat="43.8324" lon="3.31114">
        <ele>697</ele>
        <time>2017-05-16T11:08:02Z</time>
      </trkpt>
      <trkpt lat="43.8324" lon="3.31118">
        <ele>697</ele>
        <time>2017-05-16T11:08:07Z</time>
      </trkpt>
      <trkpt lat="43.8324" lon="3.31126">
        <ele>693</ele>
        <time>2017-05-16T11:08:17Z</time>
      </trkpt>
      <trkpt lat="43.8324" lon="3.31127">
        <ele>693</ele>
        <time>2017-05-16T11:08:22Z</time>
      </trkpt>
      <trkpt lat="43.83242" lon="3.31135">
        <ele>693</ele>
        <time>2017-05-16T11:08:37Z</time>
      </trkpt>
      <trkpt lat="43.83239" lon="3.31138">
        <ele>693</ele>
        <time>2017-05-16T11:08:52Z</time>
      </trkpt>
      <trkpt lat="43.83236" lon="3.31143">
        <ele>693</ele>
        <time>2017-05-16T11:09:07Z</time>
      </trkpt>
      <trkpt lat="43.83229" lon="3.31153">
        <ele>693</ele>
        <time>2017-05-16T11:09:22Z</time>
      </trkpt>
      <trkpt lat="43.83226" lon="3.31155">
        <ele>693</ele>
        <time>2017-05-16T11:09:27Z</time>
      </trkpt>
      <trkpt lat="43.83224" lon="3.31158">
        <ele>693</ele>
        <time>2017-05-16T11:09:37Z</time>
      </trkpt>
      <trkpt lat="43.83216" lon="3.31165">
        <ele>693</ele>
        <time>2017-05-16T11:10:42Z</time>
      </trkpt>
      <trkpt lat="43.83215" lon="3.31165">
        <ele>693</ele>
        <time>2017-05-16T11:10:47Z</time>
      </trkpt>
      <trkpt lat="43.8321" lon="3.31168">
        <ele>693</ele>
        <time>2017-05-16T11:11:02Z</time>
      </trkpt>
      <trkpt lat="43.83206" lon="3.31171">
        <ele>679</ele>
        <time>2017-05-16T11:11:12Z</time>
      </trkpt>
      <trkpt lat="43.83205" lon="3.31173">
        <ele>679</ele>
        <time>2017-05-16T11:11:17Z</time>
      </trkpt>
      <trkpt lat="43.83201" lon="3.31177">
        <ele>679</ele>
        <time>2017-05-16T11:11:27Z</time>
      </trkpt>
      <trkpt lat="43.832" lon="3.3118">
        <ele>679</ele>
        <time>2017-05-16T11:11:32Z</time>
      </trkpt>
      <trkpt lat="43.83192" lon="3.31184">
        <ele>679</ele>
        <time>2017-05-16T11:11:42Z</time>
      </trkpt>
      <trkpt lat="43.83188" lon="3.31185">
        <ele>679</ele>
        <time>2017-05-16T11:11:47Z</time>
      </trkpt>
      <trkpt lat="43.83182" lon="3.3119">
        <ele>679</ele>
        <time>2017-05-16T11:11:57Z</time>
      </trkpt>
      <trkpt lat="43.8318" lon="3.31193">
        <ele>679</ele>
        <time>2017-05-16T11:12:02Z</time>
      </trkpt>
      <trkpt lat="43.83172" lon="3.31199">
        <ele>679</ele>
        <time>2017-05-16T11:12:12Z</time>
      </trkpt>
      <trkpt lat="43.83167" lon="3.31201">
        <ele>679</ele>
        <time>2017-05-16T11:12:17Z</time>
      </trkpt>
      <trkpt lat="43.83154" lon="3.31209">
        <ele>677</ele>
        <time>2017-05-16T11:12:32Z</time>
      </trkpt>
      <trkpt lat="43.8315" lon="3.31212">
        <ele>677</ele>
        <time>2017-05-16T11:12:37Z</time>
      </trkpt>
      <trkpt lat="43.8315" lon="3.31213">
        <ele>677</ele>
        <time>2017-05-16T11:12:47Z</time>
      </trkpt>
      <trkpt lat="43.83158" lon="3.31208">
        <ele>679</ele>
        <time>2017-05-16T11:15:37Z</time>
      </trkpt>
      <trkpt lat="43.8315" lon="3.31215">
        <ele>677</ele>
        <time>2017-05-16T11:15:57Z</time>
      </trkpt>
      <trkpt lat="43.83147" lon="3.31222">
        <ele>677</ele>
        <time>2017-05-16T11:16:02Z</time>
      </trkpt>
      <trkpt lat="43.83143" lon="3.3123">
        <ele>677</ele>
        <time>2017-05-16T11:16:12Z</time>
      </trkpt>
      <trkpt lat="43.83143" lon="3.31232">
        <ele>677</ele>
        <time>2017-05-16T11:16:17Z</time>
      </trkpt>
      <trkpt lat="43.83143" lon="3.31232">
        <ele>677</ele>
        <time>2017-05-16T11:16:27Z</time>
      </trkpt>
      <trkpt lat="43.8314" lon="3.31237">
        <ele>677</ele>
        <time>2017-05-16T11:16:32Z</time>
      </trkpt>
      <trkpt lat="43.83135" lon="3.31244">
        <ele>677</ele>
        <time>2017-05-16T11:17:12Z</time>
      </trkpt>
      <trkpt lat="43.83133" lon="3.31247">
        <ele>677</ele>
        <time>2017-05-16T11:17:17Z</time>
      </trkpt>
      <trkpt lat="43.83129" lon="3.31255">
        <ele>677</ele>
        <time>2017-05-16T11:17:32Z</time>
      </trkpt>
      <trkpt lat="43.83126" lon="3.31258">
        <ele>677</ele>
        <time>2017-05-16T11:17:52Z</time>
      </trkpt>
      <trkpt lat="43.8312" lon="3.31267">
        <ele>660</ele>
        <time>2017-05-16T11:18:02Z</time>
      </trkpt>
      <trkpt lat="43.83118" lon="3.31274">
        <ele>660</ele>
        <time>2017-05-16T11:18:07Z</time>
      </trkpt>
      <trkpt lat="43.83115" lon="3.3129">
        <ele>660</ele>
        <time>2017-05-16T11:18:17Z</time>
      </trkpt>
      <trkpt lat="43.83113" lon="3.31297">
        <ele>678</ele>
        <time>2017-05-16T11:18:22Z</time>
      </trkpt>
      <trkpt lat="43.83109" lon="3.3131">
        <ele>678</ele>
        <time>2017-05-16T11:18:32Z</time>
      </trkpt>
      <trkpt lat="43.83105" lon="3.31314">
        <ele>678</ele>
        <time>2017-05-16T11:18:37Z</time>
      </trkpt>
      <trkpt lat="43.83098" lon="3.3132">
        <ele>678</ele>
        <time>2017-05-16T11:18:47Z</time>
      </trkpt>
      <trkpt lat="43.83095" lon="3.31325">
        <ele>678</ele>
        <time>2017-05-16T11:18:52Z</time>
      </trkpt>
      <trkpt lat="43.83091" lon="3.31338">
        <ele>678</ele>
        <time>2017-05-16T11:19:02Z</time>
      </trkpt>
      <trkpt lat="43.83089" lon="3.31344">
        <ele>678</ele>
        <time>2017-05-16T11:19:07Z</time>
      </trkpt>
      <trkpt lat="43.83085" lon="3.31352">
        <ele>678</ele>
        <time>2017-05-16T11:19:17Z</time>
      </trkpt>
      <trkpt lat="43.83083" lon="3.31358">
        <ele>678</ele>
        <time>2017-05-16T11:19:22Z</time>
      </trkpt>
      <trkpt lat="43.83068" lon="3.31365">
        <ele>678</ele>
        <time>2017-05-16T11:19:37Z</time>
      </trkpt>
      <trkpt lat="43.83062" lon="3.31366">
        <ele>678</ele>
        <time>2017-05-16T11:19:42Z</time>
      </trkpt>
      <trkpt lat="43.83054" lon="3.31372">
        <ele>678</ele>
        <time>2017-05-16T11:19:52Z</time>
      </trkpt>
      <trkpt lat="43.83053" lon="3.31378">
        <ele>684</ele>
        <time>2017-05-16T11:19:57Z</time>
      </trkpt>
      <trkpt lat="43.83051" lon="3.31393">
        <ele>684</ele>
        <time>2017-05-16T11:20:07Z</time>
      </trkpt>
      <trkpt lat="43.83049" lon="3.31401">
        <ele>684</ele>
        <time>2017-05-16T11:20:12Z</time>
      </trkpt>
      <trkpt lat="43.83046" lon="3.31416">
        <ele>684</ele>
        <time>2017-05-16T11:20:22Z</time>
      </trkpt>
      <trkpt lat="43.83042" lon="3.31425">
        <ele>684</ele>
        <time>2017-05-16T11:20:27Z</time>
      </trkpt>
      <trkpt lat="43.8304" lon="3.31441">
        <ele>668</ele>
        <time>2017-05-16T11:20:37Z</time>
      </trkpt>
      <trkpt lat="43.83042" lon="3.31448">
        <ele>684</ele>
        <time>2017-05-16T11:20:42Z</time>
      </trkpt>
      <trkpt lat="43.83046" lon="3.31464">
        <ele>681</ele>
        <time>2017-05-16T11:20:52Z</time>
      </trkpt>
      <trkpt lat="43.8305" lon="3.3147">
        <ele>681</ele>
        <time>2017-05-16T11:20:57Z</time>
      </trkpt>
      <trkpt lat="43.83055" lon="3.31486">
        <ele>681</ele>
        <time>2017-05-16T11:21:12Z</time>
      </trkpt>
      <trkpt lat="43.83055" lon="3.31487">
        <ele>681</ele>
        <time>2017-05-16T11:21:17Z</time>
      </trkpt>
      <trkpt lat="43.83056" lon="3.31498">
        <ele>681</ele>
        <time>2017-05-16T11:21:27Z</time>
      </trkpt>
      <trkpt lat="43.83053" lon="3.31508">
        <ele>681</ele>
        <time>2017-05-16T11:21:32Z</time>
      </trkpt>
      <trkpt lat="43.83047" lon="3.31517">
        <ele>681</ele>
        <time>2017-05-16T11:21:42Z</time>
      </trkpt>
      <trkpt lat="43.83046" lon="3.31515">
        <ele>681</ele>
        <time>2017-05-16T11:21:47Z</time>
      </trkpt>
      <trkpt lat="43.83042" lon="3.3152">
        <ele>674</ele>
        <time>2017-05-16T11:23:27Z</time>
      </trkpt>
      <trkpt lat="43.83038" lon="3.31522">
        <ele>674</ele>
        <time>2017-05-16T11:23:32Z</time>
      </trkpt>
      <trkpt lat="43.83031" lon="3.31524">
        <ele>674</ele>
        <time>2017-05-16T11:23:42Z</time>
      </trkpt>
      <trkpt lat="43.83028" lon="3.31526">
        <ele>674</ele>
        <time>2017-05-16T11:23:47Z</time>
      </trkpt>
      <trkpt lat="43.8302" lon="3.31531">
        <ele>674</ele>
        <time>2017-05-16T11:23:57Z</time>
      </trkpt>
      <trkpt lat="43.83018" lon="3.3153">
        <ele>674</ele>
        <time>2017-05-16T11:24:02Z</time>
      </trkpt>
      <trkpt lat="43.83008" lon="3.31534">
        <ele>674</ele>
        <time>2017-05-16T11:24:12Z</time>
      </trkpt>
      <trkpt lat="43.83006" lon="3.31537">
        <ele>674</ele>
        <time>2017-05-16T11:24:17Z</time>
      </trkpt>
      <trkpt lat="43.8301" lon="3.31548">
        <ele>667</ele>
        <time>2017-05-16T11:24:27Z</time>
      </trkpt>
      <trkpt lat="43.83012" lon="3.31553">
        <ele>667</ele>
        <time>2017-05-16T11:24:32Z</time>
      </trkpt>
      <trkpt lat="43.83017" lon="3.31561">
        <ele>667</ele>
        <time>2017-05-16T11:24:42Z</time>
      </trkpt>
      <trkpt lat="43.8302" lon="3.31565">
        <ele>667</ele>
        <time>2017-05-16T11:24:47Z</time>
      </trkpt>
      <trkpt lat="43.83032" lon="3.31574">
        <ele>667</ele>
        <time>2017-05-16T11:24:57Z</time>
      </trkpt>
      <trkpt lat="43.83036" lon="3.31579">
        <ele>667</ele>
        <time>2017-05-16T11:25:02Z</time>
      </trkpt>
      <trkpt lat="43.83042" lon="3.3159">
        <ele>676</ele>
        <time>2017-05-16T11:25:12Z</time>
      </trkpt>
      <trkpt lat="43.83044" lon="3.31595">
        <ele>676</ele>
        <time>2017-05-16T11:25:17Z</time>
      </trkpt>
      <trkpt lat="43.83042" lon="3.31612">
        <ele>667</ele>
        <time>2017-05-16T11:25:32Z</time>
      </trkpt>
      <trkpt lat="43.83037" lon="3.31615">
        <ele>667</ele>
        <time>2017-05-16T11:25:37Z</time>
      </trkpt>
      <trkpt lat="43.83028" lon="3.31623">
        <ele>667</ele>
        <time>2017-05-16T11:25:47Z</time>
      </trkpt>
      <trkpt lat="43.83023" lon="3.31625">
        <ele>667</ele>
        <time>2017-05-16T11:25:52Z</time>
      </trkpt>
      <trkpt lat="43.83011" lon="3.31631">
        <ele>676</ele>
        <time>2017-05-16T11:26:02Z</time>
      </trkpt>
      <trkpt lat="43.83008" lon="3.31633">
        <ele>676</ele>
        <time>2017-05-16T11:26:07Z</time>
      </trkpt>
      <trkpt lat="43.83" lon="3.31637">
        <ele>676</ele>
        <time>2017-05-16T11:26:17Z</time>
      </trkpt>
      <trkpt lat="43.82995" lon="3.31639">
        <ele>676</ele>
        <time>2017-05-16T11:26:22Z</time>
      </trkpt>
      <trkpt lat="43.82985" lon="3.31645">
        <ele>676</ele>
        <time>2017-05-16T11:26:32Z</time>
      </trkpt>
      <trkpt lat="43.8298" lon="3.31645">
        <ele>676</ele>
        <time>2017-05-16T11:26:37Z</time>
      </trkpt>
      <trkpt lat="43.82971" lon="3.31657">
        <ele>676</ele>
        <time>2017-05-16T11:26:47Z</time>
      </trkpt>
      <trkpt lat="43.8297" lon="3.31668">
        <ele>676</ele>
        <time>2017-05-16T11:26:52Z</time>
      </trkpt>
      <trkpt lat="43.82982" lon="3.31687">
        <ele>676</ele>
        <time>2017-05-16T11:27:07Z</time>
      </trkpt>
      <trkpt lat="43.82986" lon="3.31691">
        <ele>676</ele>
        <time>2017-05-16T11:27:12Z</time>
      </trkpt>
      <trkpt lat="43.82994" lon="3.31696">
        <ele>676</ele>
        <time>2017-05-16T11:27:22Z</time>
      </trkpt>
      <trkpt lat="43.82996" lon="3.31697">
        <ele>676</ele>
        <time>2017-05-16T11:27:27Z</time>
      </trkpt>
      <trkpt lat="43.83008" lon="3.31696">
        <ele>676</ele>
        <time>2017-05-16T11:27:37Z</time>
      </trkpt>
      <trkpt lat="43.8301" lon="3.31698">
        <ele>676</ele>
        <time>2017-05-16T11:27:42Z</time>
      </trkpt>
      <trkpt lat="43.83015" lon="3.31703">
        <ele>676</ele>
        <time>2017-05-16T11:27:52Z</time>
      </trkpt>
      <trkpt lat="43.83019" lon="3.31705">
        <ele>676</ele>
        <time>2017-05-16T11:27:57Z</time>
      </trkpt>
      <trkpt lat="43.83022" lon="3.31713">
        <ele>685</ele>
        <time>2017-05-16T11:28:07Z</time>
      </trkpt>
      <trkpt lat="43.83023" lon="3.31717">
        <ele>685</ele>
        <time>2017-05-16T11:28:12Z</time>
      </trkpt>
      <trkpt lat="43.83023" lon="3.31727">
        <ele>685</ele>
        <time>2017-05-16T11:28:22Z</time>
      </trkpt>
      <trkpt lat="43.83021" lon="3.31732">
        <ele>685</ele>
        <time>2017-05-16T11:28:27Z</time>
      </trkpt>
      <trkpt lat="43.83016" lon="3.31737">
        <ele>685</ele>
        <time>2017-05-16T11:28:37Z</time>
      </trkpt>
      <trkpt lat="43.83014" lon="3.31739">
        <ele>685</ele>
        <time>2017-05-16T11:28:42Z</time>
      </trkpt>
      <trkpt lat="43.8301" lon="3.31741">
        <ele>685</ele>
        <time>2017-05-16T11:28:57Z</time>
      </trkpt>
      <trkpt lat="43.83001" lon="3.31747">
        <ele>685</ele>
        <time>2017-05-16T11:29:12Z</time>
      </trkpt>
      <trkpt lat="43.82998" lon="3.31749">
        <ele>685</ele>
        <time>2017-05-16T11:29:17Z</time>
      </trkpt>
      <trkpt lat="43.8299" lon="3.31755">
        <ele>685</ele>
        <time>2017-05-16T11:29:27Z</time>
      </trkpt>
      <trkpt lat="43.82986" lon="3.31759">
        <ele>685</ele>
        <time>2017-05-16T11:29:32Z</time>
      </trkpt>
      <trkpt lat="43.82978" lon="3.31763">
        <ele>685</ele>
        <time>2017-05-16T11:29:42Z</time>
      </trkpt>
      <trkpt lat="43.82974" lon="3.31765">
        <ele>685</ele>
        <time>2017-05-16T11:29:47Z</time>
      </trkpt>
      <trkpt lat="43.82969" lon="3.3177">
        <ele>685</ele>
        <time>2017-05-16T11:29:57Z</time>
      </trkpt>
      <trkpt lat="43.82965" lon="3.31774">
        <ele>685</ele>
        <time>2017-05-16T11:30:02Z</time>
      </trkpt>
      <trkpt lat="43.82962" lon="3.31786">
        <ele>685</ele>
        <time>2017-05-16T11:30:12Z</time>
      </trkpt>
      <trkpt lat="43.82962" lon="3.3179">
        <ele>685</ele>
        <time>2017-05-16T11:30:17Z</time>
      </trkpt>
      <trkpt lat="43.82964" lon="3.31804">
        <ele>681</ele>
        <time>2017-05-16T11:30:27Z</time>
      </trkpt>
      <trkpt lat="43.82962" lon="3.31813">
        <ele>681</ele>
        <time>2017-05-16T11:30:32Z</time>
      </trkpt>
      <trkpt lat="43.82955" lon="3.31823">
        <ele>679</ele>
        <time>2017-05-16T11:30:42Z</time>
      </trkpt>
      <trkpt lat="43.82955" lon="3.3183">
        <ele>679</ele>
        <time>2017-05-16T11:30:47Z</time>
      </trkpt>
      <trkpt lat="43.82951" lon="3.3185">
        <ele>679</ele>
        <time>2017-05-16T11:31:02Z</time>
      </trkpt>
      <trkpt lat="43.82952" lon="3.31857">
        <ele>679</ele>
        <time>2017-05-16T11:31:07Z</time>
      </trkpt>
      <trkpt lat="43.8295" lon="3.31873">
        <ele>679</ele>
        <time>2017-05-16T11:31:17Z</time>
      </trkpt>
      <trkpt lat="43.82948" lon="3.31881">
        <ele>670</ele>
        <time>2017-05-16T11:31:22Z</time>
      </trkpt>
      <trkpt lat="43.82944" lon="3.31893">
        <ele>670</ele>
        <time>2017-05-16T11:31:32Z</time>
      </trkpt>
      <trkpt lat="43.82944" lon="3.31899">
        <ele>670</ele>
        <time>2017-05-16T11:31:37Z</time>
      </trkpt>
      <trkpt lat="43.82939" lon="3.31907">
        <ele>670</ele>
        <time>2017-05-16T11:31:47Z</time>
      </trkpt>
      <trkpt lat="43.82936" lon="3.31914">
        <ele>670</ele>
        <time>2017-05-16T11:31:52Z</time>
      </trkpt>
      <trkpt lat="43.82934" lon="3.31927">
        <ele>670</ele>
        <time>2017-05-16T11:32:02Z</time>
      </trkpt>
      <trkpt lat="43.82935" lon="3.31932">
        <ele>670</ele>
        <time>2017-05-16T11:32:07Z</time>
      </trkpt>
      <trkpt lat="43.82939" lon="3.31945">
        <ele>670</ele>
        <time>2017-05-16T11:32:17Z</time>
      </trkpt>
      <trkpt lat="43.8294" lon="3.31953">
        <ele>670</ele>
        <time>2017-05-16T11:32:22Z</time>
      </trkpt>
      <trkpt lat="43.82943" lon="3.31971">
        <ele>671</ele>
        <time>2017-05-16T11:32:32Z</time>
      </trkpt>
      <trkpt lat="43.82945" lon="3.31978">
        <ele>671</ele>
        <time>2017-05-16T11:32:37Z</time>
      </trkpt>
      <trkpt lat="43.82946" lon="3.31999">
        <ele>671</ele>
        <time>2017-05-16T11:32:52Z</time>
      </trkpt>
      <trkpt lat="43.82946" lon="3.32006">
        <ele>671</ele>
        <time>2017-05-16T11:32:57Z</time>
      </trkpt>
      <trkpt lat="43.82941" lon="3.3202">
        <ele>671</ele>
        <time>2017-05-16T11:33:07Z</time>
      </trkpt>
      <trkpt lat="43.82937" lon="3.32024">
        <ele>671</ele>
        <time>2017-05-16T11:33:12Z</time>
      </trkpt>
      <trkpt lat="43.8293" lon="3.32038">
        <ele>671</ele>
        <time>2017-05-16T11:33:27Z</time>
      </trkpt>
      <trkpt lat="43.82926" lon="3.32043">
        <ele>682</ele>
        <time>2017-05-16T11:33:32Z</time>
      </trkpt>
      <trkpt lat="43.82916" lon="3.32052">
        <ele>682</ele>
        <time>2017-05-16T11:33:42Z</time>
      </trkpt>
      <trkpt lat="43.82912" lon="3.32058">
        <ele>682</ele>
        <time>2017-05-16T11:33:47Z</time>
      </trkpt>
      <trkpt lat="43.82903" lon="3.3207">
        <ele>682</ele>
        <time>2017-05-16T11:33:57Z</time>
      </trkpt>
      <trkpt lat="43.82898" lon="3.32078">
        <ele>682</ele>
        <time>2017-05-16T11:34:02Z</time>
      </trkpt>
      <trkpt lat="43.82892" lon="3.32091">
        <ele>682</ele>
        <time>2017-05-16T11:34:12Z</time>
      </trkpt>
      <trkpt lat="43.82888" lon="3.32095">
        <ele>682</ele>
        <time>2017-05-16T11:34:17Z</time>
      </trkpt>
      <trkpt lat="43.82876" lon="3.32103">
        <ele>682</ele>
        <time>2017-05-16T11:34:27Z</time>
      </trkpt>
      <trkpt lat="43.82869" lon="3.32107">
        <ele>668</ele>
        <time>2017-05-16T11:34:32Z</time>
      </trkpt>
      <trkpt lat="43.82857" lon="3.32115">
        <ele>668</ele>
        <time>2017-05-16T11:34:42Z</time>
      </trkpt>
      <trkpt lat="43.82853" lon="3.32118">
        <ele>668</ele>
        <time>2017-05-16T11:34:47Z</time>
      </trkpt>
      <trkpt lat="43.82842" lon="3.32122">
        <ele>668</ele>
        <time>2017-05-16T11:34:57Z</time>
      </trkpt>
      <trkpt lat="43.82839" lon="3.32126">
        <ele>680</ele>
        <time>2017-05-16T11:35:02Z</time>
      </trkpt>
      <trkpt lat="43.82827" lon="3.32133">
        <ele>680</ele>
        <time>2017-05-16T11:35:12Z</time>
      </trkpt>
      <trkpt lat="43.82823" lon="3.32137">
        <ele>680</ele>
        <time>2017-05-16T11:35:17Z</time>
      </trkpt>
      <trkpt lat="43.82812" lon="3.32154">
        <ele>680</ele>
        <time>2017-05-16T11:35:32Z</time>
      </trkpt>
      <trkpt lat="43.82807" lon="3.32161">
        <ele>680</ele>
        <time>2017-05-16T11:35:37Z</time>
      </trkpt>
      <trkpt lat="43.82802" lon="3.32171">
        <ele>680</ele>
        <time>2017-05-16T11:35:47Z</time>
      </trkpt>
      <trkpt lat="43.828" lon="3.32176">
        <ele>680</ele>
        <time>2017-05-16T11:35:52Z</time>
      </trkpt>
      <trkpt lat="43.82799" lon="3.32184">
        <ele>680</ele>
        <time>2017-05-16T11:36:02Z</time>
      </trkpt>
      <trkpt lat="43.82797" lon="3.32189">
        <ele>680</ele>
        <time>2017-05-16T11:36:07Z</time>
      </trkpt>
      <trkpt lat="43.82791" lon="3.32196">
        <ele>669</ele>
        <time>2017-05-16T11:36:17Z</time>
      </trkpt>
      <trkpt lat="43.82791" lon="3.32203">
        <ele>669</ele>
        <time>2017-05-16T11:36:22Z</time>
      </trkpt>
      <trkpt lat="43.82782" lon="3.32217">
        <ele>677</ele>
        <time>2017-05-16T11:36:32Z</time>
      </trkpt>
      <trkpt lat="43.8278" lon="3.32222">
        <ele>677</ele>
        <time>2017-05-16T11:36:37Z</time>
      </trkpt>
      <trkpt lat="43.82777" lon="3.32237">
        <ele>677</ele>
        <time>2017-05-16T11:36:47Z</time>
      </trkpt>
      <trkpt lat="43.82773" lon="3.32242">
        <ele>677</ele>
        <time>2017-05-16T11:36:52Z</time>
      </trkpt>
      <trkpt lat="43.82766" lon="3.32256">
        <ele>677</ele>
        <time>2017-05-16T11:37:02Z</time>
      </trkpt>
      <trkpt lat="43.82764" lon="3.32264">
        <ele>677</ele>
        <time>2017-05-16T11:37:07Z</time>
      </trkpt>
      <trkpt lat="43.82757" lon="3.32285">
        <ele>677</ele>
        <time>2017-05-16T11:37:22Z</time>
      </trkpt>
      <trkpt lat="43.82754" lon="3.32293">
        <ele>688</ele>
        <time>2017-05-16T11:37:27Z</time>
      </trkpt>
      <trkpt lat="43.82751" lon="3.32306">
        <ele>688</ele>
        <time>2017-05-16T11:37:37Z</time>
      </trkpt>
      <trkpt lat="43.82747" lon="3.32312">
        <ele>688</ele>
        <time>2017-05-16T11:37:42Z</time>
      </trkpt>
      <trkpt lat="43.82743" lon="3.32324">
        <ele>688</ele>
        <time>2017-05-16T11:37:52Z</time>
      </trkpt>
      <trkpt lat="43.82743" lon="3.32328">
        <ele>688</ele>
        <time>2017-05-16T11:37:57Z</time>
      </trkpt>
      <trkpt lat="43.82743" lon="3.32338">
        <ele>688</ele>
        <time>2017-05-16T11:39:22Z</time>
      </trkpt>
      <trkpt lat="43.8274" lon="3.32341">
        <ele>688</ele>
        <time>2017-05-16T11:39:27Z</time>
      </trkpt>
      <trkpt lat="43.82737" lon="3.32345">
        <ele>688</ele>
        <time>2017-05-16T11:39:32Z</time>
      </trkpt>
      <trkpt lat="43.82735" lon="3.32349">
        <ele>688</ele>
        <time>2017-05-16T11:39:37Z</time>
      </trkpt>
      <trkpt lat="43.82733" lon="3.32354">
        <ele>688</ele>
        <time>2017-05-16T11:39:42Z</time>
      </trkpt>
      <trkpt lat="43.8273" lon="3.3236">
        <ele>688</ele>
        <time>2017-05-16T11:39:47Z</time>
      </trkpt>
      <trkpt lat="43.82724" lon="3.32372">
        <ele>688</ele>
        <time>2017-05-16T11:39:57Z</time>
      </trkpt>
      <trkpt lat="43.82723" lon="3.32379">
        <ele>691</ele>
        <time>2017-05-16T11:40:02Z</time>
      </trkpt>
      <trkpt lat="43.82721" lon="3.32392">
        <ele>691</ele>
        <time>2017-05-16T11:40:12Z</time>
      </trkpt>
      <trkpt lat="43.82722" lon="3.32399">
        <ele>691</ele>
        <time>2017-05-16T11:40:17Z</time>
      </trkpt>
      <trkpt lat="43.82717" lon="3.3241">
        <ele>691</ele>
        <time>2017-05-16T11:40:27Z</time>
      </trkpt>
      <trkpt lat="43.82719" lon="3.32419">
        <ele>691</ele>
        <time>2017-05-16T11:40:32Z</time>
      </trkpt>
      <trkpt lat="43.82719" lon="3.32437">
        <ele>691</ele>
        <time>2017-05-16T11:40:42Z</time>
      </trkpt>
      <trkpt lat="43.82716" lon="3.32444">
        <ele>691</ele>
        <time>2017-05-16T11:40:47Z</time>
      </trkpt>
      <trkpt lat="43.82711" lon="3.3246">
        <ele>696</ele>
        <time>2017-05-16T11:41:02Z</time>
      </trkpt>
      <trkpt lat="43.82709" lon="3.32466">
        <ele>696</ele>
        <time>2017-05-16T11:41:07Z</time>
      </trkpt>
      <trkpt lat="43.82703" lon="3.32486">
        <ele>688</ele>
        <time>2017-05-16T11:41:17Z</time>
      </trkpt>
      <trkpt lat="43.82702" lon="3.32492">
        <ele>688</ele>
        <time>2017-05-16T11:41:22Z</time>
      </trkpt>
      <trkpt lat="43.82697" lon="3.32507">
        <ele>688</ele>
        <time>2017-05-16T11:41:32Z</time>
      </trkpt>
      <trkpt lat="43.82694" lon="3.32516">
        <ele>688</ele>
        <time>2017-05-16T11:41:37Z</time>
      </trkpt>
      <trkpt lat="43.82687" lon="3.32533">
        <ele>688</ele>
        <time>2017-05-16T11:41:47Z</time>
      </trkpt>
      <trkpt lat="43.82685" lon="3.3254">
        <ele>688</ele>
        <time>2017-05-16T11:41:52Z</time>
      </trkpt>
      <trkpt lat="43.82684" lon="3.32549">
        <ele>692</ele>
        <time>2017-05-16T11:42:02Z</time>
      </trkpt>
      <trkpt lat="43.82683" lon="3.32553">
        <ele>692</ele>
        <time>2017-05-16T11:42:07Z</time>
      </trkpt>
      <trkpt lat="43.82679" lon="3.32562">
        <ele>692</ele>
        <time>2017-05-16T11:42:17Z</time>
      </trkpt>
      <trkpt lat="43.82682" lon="3.32568">
        <ele>692</ele>
        <time>2017-05-16T11:42:22Z</time>
      </trkpt>
      <trkpt lat="43.82679" lon="3.32577">
        <ele>692</ele>
        <time>2017-05-16T11:42:37Z</time>
      </trkpt>
      <trkpt lat="43.82677" lon="3.32579">
        <ele>692</ele>
        <time>2017-05-16T11:42:42Z</time>
      </trkpt>
      <trkpt lat="43.82682" lon="3.32593">
        <ele>692</ele>
        <time>2017-05-16T11:42:52Z</time>
      </trkpt>
      <trkpt lat="43.82686" lon="3.32596">
        <ele>692</ele>
        <time>2017-05-16T11:42:57Z</time>
      </trkpt>
      <trkpt lat="43.82696" lon="3.32604">
        <ele>692</ele>
        <time>2017-05-16T11:43:07Z</time>
      </trkpt>
      <trkpt lat="43.82696" lon="3.32611">
        <ele>692</ele>
        <time>2017-05-16T11:43:12Z</time>
      </trkpt>
      <trkpt lat="43.82694" lon="3.32619">
        <ele>692</ele>
        <time>2017-05-16T11:43:22Z</time>
      </trkpt>
      <trkpt lat="43.82693" lon="3.3262">
        <ele>692</ele>
        <time>2017-05-16T11:43:27Z</time>
      </trkpt>
      <trkpt lat="43.82686" lon="3.32626">
        <ele>701</ele>
        <time>2017-05-16T11:43:37Z</time>
      </trkpt>
      <trkpt lat="43.82682" lon="3.32628">
        <ele>701</ele>
        <time>2017-05-16T11:43:42Z</time>
      </trkpt>
      <trkpt lat="43.82674" lon="3.32636">
        <ele>701</ele>
        <time>2017-05-16T11:43:52Z</time>
      </trkpt>
      <trkpt lat="43.82672" lon="3.32639">
        <ele>701</ele>
        <time>2017-05-16T11:43:57Z</time>
      </trkpt>
      <trkpt lat="43.82669" lon="3.32646">
        <ele>701</ele>
        <time>2017-05-16T11:44:07Z</time>
      </trkpt>
      <trkpt lat="43.82665" lon="3.32651">
        <ele>701</ele>
        <time>2017-05-16T11:44:12Z</time>
      </trkpt>
      <trkpt lat="43.82664" lon="3.32659">
        <ele>701</ele>
        <time>2017-05-16T11:44:22Z</time>
      </trkpt>
      <trkpt lat="43.82664" lon="3.32661">
        <ele>701</ele>
        <time>2017-05-16T11:44:27Z</time>
      </trkpt>
      <trkpt lat="43.8268" lon="3.32675">
        <ele>701</ele>
        <time>2017-05-16T11:44:42Z</time>
      </trkpt>
      <trkpt lat="43.82684" lon="3.32684">
        <ele>701</ele>
        <time>2017-05-16T11:44:47Z</time>
      </trkpt>
      <trkpt lat="43.82687" lon="3.32692">
        <ele>701</ele>
        <time>2017-05-16T11:44:57Z</time>
      </trkpt>
      <trkpt lat="43.82687" lon="3.32696">
        <ele>701</ele>
        <time>2017-05-16T11:45:02Z</time>
      </trkpt>
      <trkpt lat="43.8269" lon="3.32702">
        <ele>701</ele>
        <time>2017-05-16T11:45:12Z</time>
      </trkpt>
      <trkpt lat="43.82696" lon="3.32709">
        <ele>710</ele>
        <time>2017-05-16T11:45:37Z</time>
      </trkpt>
      <trkpt lat="43.82697" lon="3.32714">
        <ele>710</ele>
        <time>2017-05-16T11:45:42Z</time>
      </trkpt>
      <trkpt lat="43.82696" lon="3.32723">
        <ele>710</ele>
        <time>2017-05-16T11:45:52Z</time>
      </trkpt>
      <trkpt lat="43.82699" lon="3.32726">
        <ele>710</ele>
        <time>2017-05-16T11:45:57Z</time>
      </trkpt>
      <trkpt lat="43.82699" lon="3.32729">
        <ele>710</ele>
        <time>2017-05-16T11:46:07Z</time>
      </trkpt>
      <trkpt lat="43.82702" lon="3.3274">
        <ele>710</ele>
        <time>2017-05-16T11:46:22Z</time>
      </trkpt>
      <trkpt lat="43.82702" lon="3.32745">
        <ele>710</ele>
        <time>2017-05-16T11:46:27Z</time>
      </trkpt>
      <trkpt lat="43.82707" lon="3.32764">
        <ele>710</ele>
        <time>2017-05-16T11:46:42Z</time>
      </trkpt>
      <trkpt lat="43.82708" lon="3.32771">
        <ele>710</ele>
        <time>2017-05-16T11:46:47Z</time>
      </trkpt>
      <trkpt lat="43.8271" lon="3.32777">
        <ele>716</ele>
        <time>2017-05-16T11:46:57Z</time>
      </trkpt>
      <trkpt lat="43.8271" lon="3.32778">
        <ele>716</ele>
        <time>2017-05-16T11:47:02Z</time>
      </trkpt>
      <trkpt lat="43.8271" lon="3.32782">
        <ele>716</ele>
        <time>2017-05-16T11:47:12Z</time>
      </trkpt>
      <trkpt lat="43.82708" lon="3.32787">
        <ele>710</ele>
        <time>2017-05-16T11:48:47Z</time>
      </trkpt>
      <trkpt lat="43.82703" lon="3.32788">
        <ele>710</ele>
        <time>2017-05-16T11:48:52Z</time>
      </trkpt>
      <trkpt lat="43.82705" lon="3.32799">
        <ele>713</ele>
        <time>2017-05-16T11:49:02Z</time>
      </trkpt>
      <trkpt lat="43.82705" lon="3.32804">
        <ele>713</ele>
        <time>2017-05-16T11:49:07Z</time>
      </trkpt>
      <trkpt lat="43.82709" lon="3.32815">
        <ele>718</ele>
        <time>2017-05-16T11:49:17Z</time>
      </trkpt>
      <trkpt lat="43.82712" lon="3.3282">
        <ele>718</ele>
        <time>2017-05-16T11:49:22Z</time>
      </trkpt>
      <trkpt lat="43.82714" lon="3.3283">
        <ele>718</ele>
        <time>2017-05-16T11:49:32Z</time>
      </trkpt>
      <trkpt lat="43.82712" lon="3.32836">
        <ele>718</ele>
        <time>2017-05-16T11:49:37Z</time>
      </trkpt>
      <trkpt lat="43.82705" lon="3.32844">
        <ele>713</ele>
        <time>2017-05-16T11:49:47Z</time>
      </trkpt>
      <trkpt lat="43.827" lon="3.32848">
        <ele>713</ele>
        <time>2017-05-16T11:49:52Z</time>
      </trkpt>
      <trkpt lat="43.82692" lon="3.3285">
        <ele>713</ele>
        <time>2017-05-16T11:50:02Z</time>
      </trkpt>
      <trkpt lat="43.82688" lon="3.32851">
        <ele>713</ele>
        <time>2017-05-16T11:50:07Z</time>
      </trkpt>
      <trkpt lat="43.82678" lon="3.32855">
        <ele>713</ele>
        <time>2017-05-16T11:50:17Z</time>
      </trkpt>
      <trkpt lat="43.82672" lon="3.3286">
        <ele>713</ele>
        <time>2017-05-16T11:50:22Z</time>
      </trkpt>
      <trkpt lat="43.82663" lon="3.32862">
        <ele>713</ele>
        <time>2017-05-16T11:50:37Z</time>
      </trkpt>
      <trkpt lat="43.82662" lon="3.32865">
        <ele>713</ele>
        <time>2017-05-16T11:50:57Z</time>
      </trkpt>
      <trkpt lat="43.82652" lon="3.32871">
        <ele>713</ele>
        <time>2017-05-16T11:51:07Z</time>
      </trkpt>
      <trkpt lat="43.82647" lon="3.32875">
        <ele>721</ele>
        <time>2017-05-16T11:51:12Z</time>
      </trkpt>
      <trkpt lat="43.82636" lon="3.32878">
        <ele>721</ele>
        <time>2017-05-16T11:51:22Z</time>
      </trkpt>
      <trkpt lat="43.82631" lon="3.32879">
        <ele>721</ele>
        <time>2017-05-16T11:51:27Z</time>
      </trkpt>
      <trkpt lat="43.82621" lon="3.32886">
        <ele>713</ele>
        <time>2017-05-16T11:51:37Z</time>
      </trkpt>
      <trkpt lat="43.82616" lon="3.32891">
        <ele>713</ele>
        <time>2017-05-16T11:51:42Z</time>
      </trkpt>
      <trkpt lat="43.82605" lon="3.32895">
        <ele>713</ele>
        <time>2017-05-16T11:51:52Z</time>
      </trkpt>
      <trkpt lat="43.82599" lon="3.329">
        <ele>713</ele>
        <time>2017-05-16T11:51:57Z</time>
      </trkpt>
      <trkpt lat="43.82588" lon="3.32906">
        <ele>713</ele>
        <time>2017-05-16T11:52:07Z</time>
      </trkpt>
      <trkpt lat="43.82584" lon="3.32904">
        <ele>713</ele>
        <time>2017-05-16T11:52:12Z</time>
      </trkpt>
      <trkpt lat="43.82574" lon="3.32907">
        <ele>713</ele>
        <time>2017-05-16T11:52:22Z</time>
      </trkpt>
      <trkpt lat="43.82568" lon="3.3291">
        <ele>713</ele>
        <time>2017-05-16T11:52:27Z</time>
      </trkpt>
      <trkpt lat="43.82562" lon="3.3292">
        <ele>713</ele>
        <time>2017-05-16T11:52:37Z</time>
      </trkpt>
      <trkpt lat="43.82559" lon="3.32925">
        <ele>713</ele>
        <time>2017-05-16T11:52:42Z</time>
      </trkpt>
      <trkpt lat="43.82549" lon="3.32945">
        <ele>713</ele>
        <time>2017-05-16T11:52:57Z</time>
      </trkpt>
      <trkpt lat="43.82547" lon="3.32952">
        <ele>713</ele>
        <time>2017-05-16T11:53:02Z</time>
      </trkpt>
      <trkpt lat="43.82541" lon="3.32966">
        <ele>711</ele>
        <time>2017-05-16T11:53:12Z</time>
      </trkpt>
      <trkpt lat="43.82538" lon="3.32972">
        <ele>711</ele>
        <time>2017-05-16T11:53:17Z</time>
      </trkpt>
      <trkpt lat="43.82536" lon="3.32977">
        <ele>711</ele>
        <time>2017-05-16T11:53:27Z</time>
      </trkpt>
      <trkpt lat="43.82536" lon="3.32981">
        <ele>711</ele>
        <time>2017-05-16T11:53:32Z</time>
      </trkpt>
      <trkpt lat="43.82529" lon="3.32987">
        <ele>711</ele>
        <time>2017-05-16T11:53:42Z</time>
      </trkpt>
      <trkpt lat="43.82526" lon="3.32992">
        <ele>711</ele>
        <time>2017-05-16T11:53:47Z</time>
      </trkpt>
      <trkpt lat="43.82521" lon="3.33002">
        <ele>711</ele>
        <time>2017-05-16T11:53:57Z</time>
      </trkpt>
      <trkpt lat="43.8252" lon="3.33006">
        <ele>711</ele>
        <time>2017-05-16T11:54:02Z</time>
      </trkpt>
      <trkpt lat="43.82517" lon="3.33018">
        <ele>711</ele>
        <time>2017-05-16T11:54:12Z</time>
      </trkpt>
      <trkpt lat="43.82516" lon="3.33024">
        <ele>711</ele>
        <time>2017-05-16T11:54:17Z</time>
      </trkpt>
      <trkpt lat="43.82511" lon="3.33032">
        <ele>711</ele>
        <time>2017-05-16T11:54:27Z</time>
      </trkpt>
      <trkpt lat="43.82507" lon="3.33036">
        <ele>711</ele>
        <time>2017-05-16T11:54:32Z</time>
      </trkpt>
      <trkpt lat="43.82505" lon="3.33044">
        <ele>709</ele>
        <time>2017-05-16T11:54:42Z</time>
      </trkpt>
      <trkpt lat="43.82505" lon="3.33051">
        <ele>709</ele>
        <time>2017-05-16T11:55:02Z</time>
      </trkpt>
      <trkpt lat="43.82503" lon="3.33056">
        <ele>709</ele>
        <time>2017-05-16T11:55:07Z</time>
      </trkpt>
      <trkpt lat="43.82501" lon="3.33058">
        <ele>709</ele>
        <time>2017-05-16T11:55:12Z</time>
      </trkpt>
      <trkpt lat="43.82497" lon="3.33063">
        <ele>709</ele>
        <time>2017-05-16T11:55:17Z</time>
      </trkpt>
      <trkpt lat="43.82494" lon="3.33064">
        <ele>709</ele>
        <time>2017-05-16T11:55:22Z</time>
      </trkpt>
      <trkpt lat="43.82491" lon="3.33068">
        <ele>709</ele>
        <time>2017-05-16T11:55:27Z</time>
      </trkpt>
      <trkpt lat="43.82488" lon="3.33074">
        <ele>709</ele>
        <time>2017-05-16T11:55:32Z</time>
      </trkpt>
      <trkpt lat="43.82484" lon="3.33078">
        <ele>709</ele>
        <time>2017-05-16T11:55:37Z</time>
      </trkpt>
      <trkpt lat="43.8248" lon="3.33079">
        <ele>709</ele>
        <time>2017-05-16T11:55:42Z</time>
      </trkpt>
      <trkpt lat="43.82476" lon="3.33081">
        <ele>709</ele>
        <time>2017-05-16T11:55:57Z</time>
      </trkpt>
      <trkpt lat="43.82469" lon="3.33086">
        <ele>709</ele>
        <time>2017-05-16T11:56:12Z</time>
      </trkpt>
      <trkpt lat="43.82463" lon="3.33086">
        <ele>709</ele>
        <time>2017-05-16T11:56:17Z</time>
      </trkpt>
      <trkpt lat="43.82455" lon="3.33092">
        <ele>703</ele>
        <time>2017-05-16T11:56:27Z</time>
      </trkpt>
      <trkpt lat="43.82451" lon="3.33092">
        <ele>703</ele>
        <time>2017-05-16T11:56:32Z</time>
      </trkpt>
      <trkpt lat="43.8244" lon="3.33099">
        <ele>703</ele>
        <time>2017-05-16T11:56:42Z</time>
      </trkpt>
      <trkpt lat="43.82435" lon="3.33109">
        <ele>703</ele>
        <time>2017-05-16T11:56:47Z</time>
      </trkpt>
      <trkpt lat="43.82431" lon="3.33119">
        <ele>703</ele>
        <time>2017-05-16T11:56:57Z</time>
      </trkpt>
      <trkpt lat="43.82428" lon="3.33121">
        <ele>703</ele>
        <time>2017-05-16T11:57:02Z</time>
      </trkpt>
      <trkpt lat="43.8242" lon="3.33129">
        <ele>705</ele>
        <time>2017-05-16T11:57:12Z</time>
      </trkpt>
      <trkpt lat="43.82417" lon="3.33136">
        <ele>705</ele>
        <time>2017-05-16T11:57:17Z</time>
      </trkpt>
      <trkpt lat="43.82408" lon="3.33155">
        <ele>705</ele>
        <time>2017-05-16T11:57:32Z</time>
      </trkpt>
      <trkpt lat="43.82404" lon="3.33159">
        <ele>705</ele>
        <time>2017-05-16T11:57:37Z</time>
      </trkpt>
      <trkpt lat="43.82395" lon="3.33167">
        <ele>705</ele>
        <time>2017-05-16T11:57:47Z</time>
      </trkpt>
      <trkpt lat="43.8239" lon="3.33171">
        <ele>705</ele>
        <time>2017-05-16T11:57:52Z</time>
      </trkpt>
      <trkpt lat="43.82379" lon="3.33177">
        <ele>705</ele>
        <time>2017-05-16T11:58:02Z</time>
      </trkpt>
      <trkpt lat="43.82373" lon="3.33182">
        <ele>706</ele>
        <time>2017-05-16T11:58:07Z</time>
      </trkpt>
      <trkpt lat="43.82362" lon="3.33183">
        <ele>706</ele>
        <time>2017-05-16T11:58:17Z</time>
      </trkpt>
      <trkpt lat="43.82359" lon="3.33186">
        <ele>706</ele>
        <time>2017-05-16T11:58:22Z</time>
      </trkpt>
      <trkpt lat="43.82348" lon="3.33191">
        <ele>706</ele>
        <time>2017-05-16T11:58:32Z</time>
      </trkpt>
      <trkpt lat="43.82343" lon="3.33195">
        <ele>706</ele>
        <time>2017-05-16T11:58:37Z</time>
      </trkpt>
      <trkpt lat="43.82336" lon="3.33208">
        <ele>706</ele>
        <time>2017-05-16T11:58:47Z</time>
      </trkpt>
      <trkpt lat="43.82332" lon="3.33212">
        <ele>706</ele>
        <time>2017-05-16T11:58:52Z</time>
      </trkpt>
      <trkpt lat="43.82321" lon="3.33217">
        <ele>706</ele>
        <time>2017-05-16T11:59:02Z</time>
      </trkpt>
      <trkpt lat="43.82317" lon="3.3322">
        <ele>706</ele>
        <time>2017-05-16T11:59:07Z</time>
      </trkpt>
      <trkpt lat="43.82303" lon="3.33229">
        <ele>706</ele>
        <time>2017-05-16T11:59:22Z</time>
      </trkpt>
      <trkpt lat="43.82297" lon="3.33236">
        <ele>706</ele>
        <time>2017-05-16T11:59:27Z</time>
      </trkpt>
      <trkpt lat="43.82288" lon="3.3324">
        <ele>707</ele>
        <time>2017-05-16T11:59:37Z</time>
      </trkpt>
      <trkpt lat="43.82283" lon="3.33242">
        <ele>707</ele>
        <time>2017-05-16T11:59:42Z</time>
      </trkpt>
      <trkpt lat="43.82272" lon="3.33242">
        <ele>707</ele>
        <time>2017-05-16T11:59:52Z</time>
      </trkpt>
      <trkpt lat="43.82265" lon="3.33245">
        <ele>707</ele>
        <time>2017-05-16T11:59:57Z</time>
      </trkpt>
      <trkpt lat="43.82254" lon="3.33247">
        <ele>707</ele>
        <time>2017-05-16T12:00:07Z</time>
      </trkpt>
      <trkpt lat="43.82249" lon="3.3325">
        <ele>707</ele>
        <time>2017-05-16T12:00:12Z</time>
      </trkpt>
      <trkpt lat="43.8224" lon="3.33258">
        <ele>707</ele>
        <time>2017-05-16T12:00:22Z</time>
      </trkpt>
      <trkpt lat="43.82235" lon="3.33265">
        <ele>707</ele>
        <time>2017-05-16T12:00:27Z</time>
      </trkpt>
      <trkpt lat="43.82228" lon="3.33282">
        <ele>707</ele>
        <time>2017-05-16T12:00:42Z</time>
      </trkpt>
      <trkpt lat="43.82229" lon="3.3329">
        <ele>707</ele>
        <time>2017-05-16T12:00:47Z</time>
      </trkpt>
      <trkpt lat="43.82231" lon="3.33306">
        <ele>708</ele>
        <time>2017-05-16T12:00:57Z</time>
      </trkpt>
      <trkpt lat="43.82234" lon="3.3331">
        <ele>708</ele>
        <time>2017-05-16T12:01:02Z</time>
      </trkpt>
      <trkpt lat="43.82233" lon="3.33325">
        <ele>708</ele>
        <time>2017-05-16T12:01:12Z</time>
      </trkpt>
      <trkpt lat="43.8223" lon="3.33331">
        <ele>708</ele>
        <time>2017-05-16T12:01:17Z</time>
      </trkpt>
      <trkpt lat="43.82223" lon="3.33337">
        <ele>708</ele>
        <time>2017-05-16T12:01:27Z</time>
      </trkpt>
      <trkpt lat="43.82215" lon="3.3334">
        <ele>708</ele>
        <time>2017-05-16T12:01:32Z</time>
      </trkpt>
      <trkpt lat="43.82204" lon="3.33345">
        <ele>708</ele>
        <time>2017-05-16T12:01:42Z</time>
      </trkpt>
      <trkpt lat="43.82199" lon="3.33346">
        <ele>708</ele>
        <time>2017-05-16T12:01:47Z</time>
      </trkpt>
      <trkpt lat="43.82189" lon="3.33349">
        <ele>708</ele>
        <time>2017-05-16T12:01:57Z</time>
      </trkpt>
      <trkpt lat="43.82184" lon="3.33353">
        <ele>708</ele>
        <time>2017-05-16T12:02:02Z</time>
      </trkpt>
      <trkpt lat="43.82172" lon="3.33365">
        <ele>708</ele>
        <time>2017-05-16T12:02:12Z</time>
      </trkpt>
      <trkpt lat="43.82168" lon="3.33368">
        <ele>708</ele>
        <time>2017-05-16T12:02:17Z</time>
      </trkpt>
      <trkpt lat="43.82153" lon="3.33371">
        <ele>708</ele>
        <time>2017-05-16T12:02:32Z</time>
      </trkpt>
      <trkpt lat="43.82148" lon="3.33374">
        <ele>708</ele>
        <time>2017-05-16T12:02:37Z</time>
      </trkpt>
      <trkpt lat="43.82139" lon="3.33374">
        <ele>708</ele>
        <time>2017-05-16T12:02:47Z</time>
      </trkpt>
      <trkpt lat="43.82134" lon="3.33375">
        <ele>713</ele>
        <time>2017-05-16T12:02:52Z</time>
      </trkpt>
      <trkpt lat="43.82126" lon="3.33379">
        <ele>713</ele>
        <time>2017-05-16T12:03:02Z</time>
      </trkpt>
      <trkpt lat="43.82123" lon="3.33386">
        <ele>715</ele>
        <time>2017-05-16T12:03:07Z</time>
      </trkpt>
      <trkpt lat="43.82114" lon="3.33394">
        <ele>715</ele>
        <time>2017-05-16T12:03:17Z</time>
      </trkpt>
      <trkpt lat="43.82109" lon="3.33398">
        <ele>715</ele>
        <time>2017-05-16T12:03:22Z</time>
      </trkpt>
      <trkpt lat="43.82099" lon="3.33404">
        <ele>715</ele>
        <time>2017-05-16T12:03:32Z</time>
      </trkpt>
      <trkpt lat="43.82093" lon="3.33406">
        <ele>715</ele>
        <time>2017-05-16T12:03:37Z</time>
      </trkpt>
      <trkpt lat="43.82077" lon="3.33416">
        <ele>715</ele>
        <time>2017-05-16T12:03:52Z</time>
      </trkpt>
      <trkpt lat="43.82073" lon="3.33417">
        <ele>715</ele>
        <time>2017-05-16T12:03:57Z</time>
      </trkpt>
      <trkpt lat="43.82063" lon="3.33415">
        <ele>715</ele>
        <time>2017-05-16T12:04:07Z</time>
      </trkpt>
      <trkpt lat="43.82058" lon="3.33416">
        <ele>715</ele>
        <time>2017-05-16T12:04:12Z</time>
      </trkpt>
      <trkpt lat="43.82048" lon="3.33416">
        <ele>715</ele>
        <time>2017-05-16T12:04:22Z</time>
      </trkpt>
      <trkpt lat="43.82042" lon="3.33415">
        <ele>718</ele>
        <time>2017-05-16T12:04:27Z</time>
      </trkpt>
      <trkpt lat="43.82034" lon="3.33415">
        <ele>718</ele>
        <time>2017-05-16T12:04:37Z</time>
      </trkpt>
      <trkpt lat="43.82032" lon="3.33411">
        <ele>718</ele>
        <time>2017-05-16T12:04:42Z</time>
      </trkpt>
      <trkpt lat="43.82022" lon="3.3341">
        <ele>718</ele>
        <time>2017-05-16T12:04:52Z</time>
      </trkpt>
      <trkpt lat="43.82018" lon="3.3341">
        <ele>718</ele>
        <time>2017-05-16T12:04:57Z</time>
      </trkpt>
      <trkpt lat="43.82001" lon="3.33418">
        <ele>718</ele>
        <time>2017-05-16T12:05:12Z</time>
      </trkpt>
      <trkpt lat="43.81997" lon="3.33418">
        <ele>718</ele>
        <time>2017-05-16T12:05:17Z</time>
      </trkpt>
      <trkpt lat="43.81985" lon="3.33417">
        <ele>718</ele>
        <time>2017-05-16T12:05:27Z</time>
      </trkpt>
      <trkpt lat="43.81978" lon="3.33421">
        <ele>718</ele>
        <time>2017-05-16T12:05:32Z</time>
      </trkpt>
      <trkpt lat="43.81966" lon="3.33429">
        <ele>718</ele>
        <time>2017-05-16T12:05:42Z</time>
      </trkpt>
      <trkpt lat="43.8196" lon="3.33432">
        <ele>718</ele>
        <time>2017-05-16T12:05:47Z</time>
      </trkpt>
      <trkpt lat="43.81949" lon="3.33432">
        <ele>722</ele>
        <time>2017-05-16T12:05:57Z</time>
      </trkpt>
      <trkpt lat="43.81944" lon="3.33431">
        <ele>722</ele>
        <time>2017-05-16T12:06:02Z</time>
      </trkpt>
      <trkpt lat="43.81942" lon="3.33429">
        <ele>722</ele>
        <time>2017-05-16T12:06:12Z</time>
      </trkpt>
      <trkpt lat="43.81936" lon="3.33433">
        <ele>722</ele>
        <time>2017-05-16T12:06:27Z</time>
      </trkpt>
      <trkpt lat="43.81933" lon="3.33434">
        <ele>722</ele>
        <time>2017-05-16T12:06:32Z</time>
      </trkpt>
      <trkpt lat="43.81922" lon="3.33435">
        <ele>722</ele>
        <time>2017-05-16T12:06:42Z</time>
      </trkpt>
      <trkpt lat="43.8192" lon="3.33436">
        <ele>722</ele>
        <time>2017-05-16T12:06:47Z</time>
      </trkpt>
      <trkpt lat="43.81908" lon="3.33428">
        <ele>722</ele>
        <time>2017-05-16T12:07:02Z</time>
      </trkpt>
      <trkpt lat="43.81906" lon="3.33427">
        <ele>722</ele>
        <time>2017-05-16T12:07:07Z</time>
      </trkpt>
      <trkpt lat="43.81902" lon="3.33422">
        <ele>722</ele>
        <time>2017-05-16T12:07:17Z</time>
      </trkpt>
      <trkpt lat="43.81901" lon="3.33416">
        <ele>722</ele>
        <time>2017-05-16T12:07:22Z</time>
      </trkpt>
      <trkpt lat="43.81893" lon="3.3341">
        <ele>722</ele>
        <time>2017-05-16T12:07:32Z</time>
      </trkpt>
      <trkpt lat="43.8189" lon="3.33408">
        <ele>722</ele>
        <time>2017-05-16T12:07:37Z</time>
      </trkpt>
      <trkpt lat="43.8188" lon="3.33407">
        <ele>722</ele>
        <time>2017-05-16T12:07:47Z</time>
      </trkpt>
      <trkpt lat="43.8188" lon="3.33406">
        <ele>722</ele>
        <time>2017-05-16T12:07:52Z</time>
      </trkpt>
      <trkpt lat="43.81868" lon="3.33399">
        <ele>724</ele>
        <time>2017-05-16T12:08:02Z</time>
      </trkpt>
      <trkpt lat="43.81864" lon="3.33393">
        <ele>724</ele>
        <time>2017-05-16T12:08:07Z</time>
      </trkpt>
      <trkpt lat="43.81851" lon="3.3338">
        <ele>724</ele>
        <time>2017-05-16T12:08:22Z</time>
      </trkpt>
      <trkpt lat="43.81852" lon="3.33373">
        <ele>723</ele>
        <time>2017-05-16T12:08:27Z</time>
      </trkpt>
      <trkpt lat="43.81849" lon="3.33361">
        <ele>723</ele>
        <time>2017-05-16T12:08:37Z</time>
      </trkpt>
      <trkpt lat="43.81849" lon="3.33355">
        <ele>723</ele>
        <time>2017-05-16T12:08:42Z</time>
      </trkpt>
      <trkpt lat="43.81851" lon="3.33342">
        <ele>723</ele>
        <time>2017-05-16T12:08:52Z</time>
      </trkpt>
      <trkpt lat="43.8185" lon="3.33338">
        <ele>723</ele>
        <time>2017-05-16T12:08:57Z</time>
      </trkpt>
      <trkpt lat="43.81851" lon="3.33328">
        <ele>723</ele>
        <time>2017-05-16T12:09:07Z</time>
      </trkpt>
      <trkpt lat="43.8185" lon="3.33324">
        <ele>723</ele>
        <time>2017-05-16T12:09:12Z</time>
      </trkpt>
      <trkpt lat="43.81857" lon="3.33312">
        <ele>723</ele>
        <time>2017-05-16T12:09:22Z</time>
      </trkpt>
      <trkpt lat="43.81858" lon="3.33307">
        <ele>723</ele>
        <time>2017-05-16T12:09:27Z</time>
      </trkpt>
      <trkpt lat="43.81866" lon="3.33298">
        <ele>723</ele>
        <time>2017-05-16T12:09:37Z</time>
      </trkpt>
      <trkpt lat="43.81864" lon="3.33294">
        <ele>723</ele>
        <time>2017-05-16T12:09:42Z</time>
      </trkpt>
      <trkpt lat="43.81858" lon="3.33291">
        <ele>716</ele>
        <time>2017-05-16T12:09:57Z</time>
      </trkpt>
      <trkpt lat="43.81854" lon="3.33295">
        <ele>723</ele>
        <time>2017-05-16T12:10:02Z</time>
      </trkpt>
      <trkpt lat="43.81845" lon="3.33301">
        <ele>723</ele>
        <time>2017-05-16T12:10:12Z</time>
      </trkpt>
      <trkpt lat="43.81842" lon="3.33305">
        <ele>723</ele>
        <time>2017-05-16T12:10:17Z</time>
      </trkpt>
      <trkpt lat="43.81839" lon="3.33304">
        <ele>723</ele>
        <time>2017-05-16T12:10:27Z</time>
      </trkpt>
      <trkpt lat="43.81837" lon="3.33305">
        <ele>723</ele>
        <time>2017-05-16T12:10:42Z</time>
      </trkpt>
      <trkpt lat="43.81839" lon="3.333">
        <ele>723</ele>
        <time>2017-05-16T12:10:47Z</time>
      </trkpt>
      <trkpt lat="43.81836" lon="3.33293">
        <ele>723</ele>
        <time>2017-05-16T12:10:57Z</time>
      </trkpt>
      <trkpt lat="43.81837" lon="3.3329">
        <ele>716</ele>
        <time>2017-05-16T12:11:02Z</time>
      </trkpt>
      <trkpt lat="43.81844" lon="3.33283">
        <ele>716</ele>
        <time>2017-05-16T12:11:12Z</time>
      </trkpt>
      <trkpt lat="43.81846" lon="3.33279">
        <ele>716</ele>
        <time>2017-05-16T12:11:17Z</time>
      </trkpt>
      <trkpt lat="43.81847" lon="3.33271">
        <ele>716</ele>
        <time>2017-05-16T12:11:27Z</time>
      </trkpt>
      <trkpt lat="43.81846" lon="3.33271">
        <ele>716</ele>
        <time>2017-05-16T12:11:32Z</time>
      </trkpt>
      <trkpt lat="43.81852" lon="3.33261">
        <ele>716</ele>
        <time>2017-05-16T12:11:42Z</time>
      </trkpt>
      <trkpt lat="43.81856" lon="3.33256">
        <ele>716</ele>
        <time>2017-05-16T12:11:47Z</time>
      </trkpt>
      <trkpt lat="43.81862" lon="3.33246">
        <ele>716</ele>
        <time>2017-05-16T12:12:02Z</time>
      </trkpt>
      <trkpt lat="43.81862" lon="3.3324">
        <ele>716</ele>
        <time>2017-05-16T12:12:07Z</time>
      </trkpt>
      <trkpt lat="43.81861" lon="3.33225">
        <ele>716</ele>
        <time>2017-05-16T12:12:17Z</time>
      </trkpt>
      <trkpt lat="43.81856" lon="3.33219">
        <ele>716</ele>
        <time>2017-05-16T12:12:22Z</time>
      </trkpt>
      <trkpt lat="43.81851" lon="3.33209">
        <ele>716</ele>
        <time>2017-05-16T12:12:32Z</time>
      </trkpt>
      <trkpt lat="43.81849" lon="3.33202">
        <ele>711</ele>
        <time>2017-05-16T12:12:37Z</time>
      </trkpt>
      <trkpt lat="43.81846" lon="3.33189">
        <ele>711</ele>
        <time>2017-05-16T12:12:47Z</time>
      </trkpt>
      <trkpt lat="43.81843" lon="3.33181">
        <ele>711</ele>
        <time>2017-05-16T12:12:52Z</time>
      </trkpt>
      <trkpt lat="43.81839" lon="3.33167">
        <ele>711</ele>
        <time>2017-05-16T12:13:02Z</time>
      </trkpt>
      <trkpt lat="43.81839" lon="3.3316">
        <ele>711</ele>
        <time>2017-05-16T12:13:07Z</time>
      </trkpt>
      <trkpt lat="43.81835" lon="3.33149">
        <ele>711</ele>
        <time>2017-05-16T12:13:17Z</time>
      </trkpt>
      <trkpt lat="43.8183" lon="3.3315">
        <ele>711</ele>
        <time>2017-05-16T12:13:22Z</time>
      </trkpt>
      <trkpt lat="43.81823" lon="3.33152">
        <ele>711</ele>
        <time>2017-05-16T12:13:32Z</time>
      </trkpt>
      <trkpt lat="43.8182" lon="3.33153">
        <ele>711</ele>
        <time>2017-05-16T12:13:37Z</time>
      </trkpt>
      <trkpt lat="43.81819" lon="3.33154">
        <ele>711</ele>
        <time>2017-05-16T12:13:52Z</time>
      </trkpt>
      <trkpt lat="43.8182" lon="3.33147">
        <ele>711</ele>
        <time>2017-05-16T12:13:57Z</time>
      </trkpt>
      <trkpt lat="43.81824" lon="3.33139">
        <ele>711</ele>
        <time>2017-05-16T12:14:07Z</time>
      </trkpt>
      <trkpt lat="43.81827" lon="3.33135">
        <ele>711</ele>
        <time>2017-05-16T12:14:12Z</time>
      </trkpt>
      <trkpt lat="43.81826" lon="3.33125">
        <ele>716</ele>
        <time>2017-05-16T12:14:22Z</time>
      </trkpt>
      <trkpt lat="43.81821" lon="3.33126">
        <ele>711</ele>
        <time>2017-05-16T12:14:27Z</time>
      </trkpt>
      <trkpt lat="43.8181" lon="3.33125">
        <ele>711</ele>
        <time>2017-05-16T12:14:37Z</time>
      </trkpt>
      <trkpt lat="43.81804" lon="3.33123">
        <ele>716</ele>
        <time>2017-05-16T12:14:42Z</time>
      </trkpt>
      <trkpt lat="43.81799" lon="3.33113">
        <ele>716</ele>
        <time>2017-05-16T12:14:52Z</time>
      </trkpt>
      <trkpt lat="43.818" lon="3.33106">
        <ele>716</ele>
        <time>2017-05-16T12:14:57Z</time>
      </trkpt>
      <trkpt lat="43.818" lon="3.33101">
        <ele>716</ele>
        <time>2017-05-16T12:15:12Z</time>
      </trkpt>
      <trkpt lat="43.81803" lon="3.33087">
        <ele>716</ele>
        <time>2017-05-16T12:15:27Z</time>
      </trkpt>
      <trkpt lat="43.81802" lon="3.33082">
        <ele>716</ele>
        <time>2017-05-16T12:15:32Z</time>
      </trkpt>
      <trkpt lat="43.81804" lon="3.33071">
        <ele>716</ele>
        <time>2017-05-16T12:15:42Z</time>
      </trkpt>
      <trkpt lat="43.81801" lon="3.33069">
        <ele>716</ele>
        <time>2017-05-16T12:15:47Z</time>
      </trkpt>
      <trkpt lat="43.81798" lon="3.3306">
        <ele>716</ele>
        <time>2017-05-16T12:15:57Z</time>
      </trkpt>
      <trkpt lat="43.81797" lon="3.33059">
        <ele>716</ele>
        <time>2017-05-16T12:16:02Z</time>
      </trkpt>
      <trkpt lat="43.81796" lon="3.3305">
        <ele>716</ele>
        <time>2017-05-16T12:16:12Z</time>
      </trkpt>
      <trkpt lat="43.81792" lon="3.33049">
        <ele>716</ele>
        <time>2017-05-16T12:16:17Z</time>
      </trkpt>
      <trkpt lat="43.81787" lon="3.33052">
        <ele>713</ele>
        <time>2017-05-16T12:16:27Z</time>
      </trkpt>
      <trkpt lat="43.81787" lon="3.33054">
        <ele>713</ele>
        <time>2017-05-16T12:16:32Z</time>
      </trkpt>
      <trkpt lat="43.81783" lon="3.3306">
        <ele>713</ele>
        <time>2017-05-16T12:16:42Z</time>
      </trkpt>
      <trkpt lat="43.81779" lon="3.33062">
        <ele>713</ele>
        <time>2017-05-16T12:16:47Z</time>
      </trkpt>
      <trkpt lat="43.81767" lon="3.33071">
        <ele>713</ele>
        <time>2017-05-16T12:17:02Z</time>
      </trkpt>
      <trkpt lat="43.81764" lon="3.33074">
        <ele>713</ele>
        <time>2017-05-16T12:17:07Z</time>
      </trkpt>
      <trkpt lat="43.81758" lon="3.3308">
        <ele>713</ele>
        <time>2017-05-16T12:17:17Z</time>
      </trkpt>
      <trkpt lat="43.81754" lon="3.33084">
        <ele>713</ele>
        <time>2017-05-16T12:17:22Z</time>
      </trkpt>
      <trkpt lat="43.81746" lon="3.33089">
        <ele>713</ele>
        <time>2017-05-16T12:17:32Z</time>
      </trkpt>
      <trkpt lat="43.81745" lon="3.33094">
        <ele>713</ele>
        <time>2017-05-16T12:17:37Z</time>
      </trkpt>
      <trkpt lat="43.81741" lon="3.33093">
        <ele>713</ele>
        <time>2017-05-16T12:17:47Z</time>
      </trkpt>
      <trkpt lat="43.81739" lon="3.33094">
        <ele>713</ele>
        <time>2017-05-16T12:17:52Z</time>
      </trkpt>
      <trkpt lat="43.81737" lon="3.33094">
        <ele>713</ele>
        <time>2017-05-16T12:18:02Z</time>
      </trkpt>
      <trkpt lat="43.81735" lon="3.331">
        <ele>713</ele>
        <time>2017-05-16T12:18:07Z</time>
      </trkpt>
      <trkpt lat="43.81732" lon="3.33112">
        <ele>713</ele>
        <time>2017-05-16T12:18:22Z</time>
      </trkpt>
      <trkpt lat="43.81731" lon="3.33116">
        <ele>713</ele>
        <time>2017-05-16T12:18:27Z</time>
      </trkpt>
      <trkpt lat="43.81728" lon="3.33119">
        <ele>713</ele>
        <time>2017-05-16T12:18:37Z</time>
      </trkpt>
      <trkpt lat="43.8172" lon="3.33125">
        <ele>708</ele>
        <time>2017-05-16T12:18:52Z</time>
      </trkpt>
      <trkpt lat="43.81718" lon="3.33123">
        <ele>713</ele>
        <time>2017-05-16T12:18:57Z</time>
      </trkpt>
      <trkpt lat="43.81715" lon="3.33131">
        <ele>708</ele>
        <time>2017-05-16T12:19:07Z</time>
      </trkpt>
      <trkpt lat="43.81713" lon="3.33135">
        <ele>708</ele>
        <time>2017-05-16T12:19:12Z</time>
      </trkpt>
      <trkpt lat="43.81713" lon="3.33137">
        <ele>708</ele>
        <time>2017-05-16T12:19:22Z</time>
      </trkpt>
      <trkpt lat="43.81712" lon="3.33123">
        <ele>713</ele>
        <time>2017-05-16T12:19:42Z</time>
      </trkpt>
      <trkpt lat="43.81708" lon="3.33123">
        <ele>717</ele>
        <time>2017-05-16T12:19:47Z</time>
      </trkpt>
      <trkpt lat="43.81696" lon="3.33127">
        <ele>701</ele>
        <time>2017-05-16T12:19:57Z</time>
      </trkpt>
      <trkpt lat="43.81692" lon="3.33126">
        <ele>701</ele>
        <time>2017-05-16T12:20:02Z</time>
      </trkpt>
      <trkpt lat="43.81686" lon="3.33131">
        <ele>701</ele>
        <time>2017-05-16T12:20:12Z</time>
      </trkpt>
      <trkpt lat="43.81682" lon="3.33133">
        <ele>701</ele>
        <time>2017-05-16T12:20:17Z</time>
      </trkpt>
      <trkpt lat="43.81675" lon="3.33144">
        <ele>701</ele>
        <time>2017-05-16T12:20:27Z</time>
      </trkpt>
      <trkpt lat="43.81674" lon="3.33146">
        <ele>701</ele>
        <time>2017-05-16T12:20:32Z</time>
      </trkpt>
      <trkpt lat="43.8167" lon="3.33151">
        <ele>701</ele>
        <time>2017-05-16T12:20:42Z</time>
      </trkpt>
      <trkpt lat="43.81665" lon="3.33152">
        <ele>701</ele>
        <time>2017-05-16T12:20:47Z</time>
      </trkpt>
      <trkpt lat="43.81649" lon="3.33151">
        <ele>701</ele>
        <time>2017-05-16T12:21:02Z</time>
      </trkpt>
      <trkpt lat="43.81645" lon="3.33152">
        <ele>701</ele>
        <time>2017-05-16T12:21:07Z</time>
      </trkpt>
      <trkpt lat="43.81634" lon="3.33152">
        <ele>701</ele>
        <time>2017-05-16T12:21:17Z</time>
      </trkpt>
      <trkpt lat="43.81632" lon="3.33149">
        <ele>701</ele>
        <time>2017-05-16T12:21:22Z</time>
      </trkpt>
      <trkpt lat="43.81623" lon="3.3316">
        <ele>693</ele>
        <time>2017-05-16T12:21:32Z</time>
      </trkpt>
      <trkpt lat="43.81618" lon="3.3316">
        <ele>693</ele>
        <time>2017-05-16T12:21:37Z</time>
      </trkpt>
      <trkpt lat="43.81616" lon="3.3315">
        <ele>693</ele>
        <time>2017-05-16T12:21:47Z</time>
      </trkpt>
      <trkpt lat="43.81615" lon="3.33153">
        <ele>693</ele>
        <time>2017-05-16T12:21:52Z</time>
      </trkpt>
      <trkpt lat="43.81612" lon="3.33148">
        <ele>693</ele>
        <time>2017-05-16T12:22:02Z</time>
      </trkpt>
      <trkpt lat="43.81614" lon="3.33153">
        <ele>693</ele>
        <time>2017-05-16T12:22:17Z</time>
      </trkpt>
      <trkpt lat="43.8161" lon="3.33157">
        <ele>693</ele>
        <time>2017-05-16T12:22:37Z</time>
      </trkpt>
      <trkpt lat="43.81615" lon="3.33154">
        <ele>693</ele>
        <time>2017-05-16T12:22:57Z</time>
      </trkpt>
      <trkpt lat="43.81618" lon="3.3316">
        <ele>693</ele>
        <time>2017-05-16T12:23:07Z</time>
      </trkpt>
      <trkpt lat="43.81618" lon="3.33159">
        <ele>693</ele>
        <time>2017-05-16T12:23:12Z</time>
      </trkpt>
      <trkpt lat="43.81618" lon="3.33154">
        <ele>693</ele>
        <time>2017-05-16T12:23:27Z</time>
      </trkpt>
      <trkpt lat="43.81618" lon="3.33153">
        <ele>693</ele>
        <time>2017-05-16T12:23:32Z</time>
      </trkpt>
      <trkpt lat="43.81612" lon="3.33164">
        <ele>693</ele>
        <time>2017-05-16T12:26:27Z</time>
      </trkpt>
      <trkpt lat="43.81619" lon="3.33159">
        <ele>693</ele>
        <time>2017-05-16T12:27:52Z</time>
      </trkpt>
      <trkpt lat="43.81626" lon="3.33148">
        <ele>701</ele>
        <time>2017-05-16T12:29:12Z</time>
      </trkpt>
      <trkpt lat="43.81619" lon="3.33157">
        <ele>693</ele>
        <time>2017-05-16T12:30:42Z</time>
      </trkpt>
      <trkpt lat="43.81619" lon="3.3317">
        <ele>693</ele>
        <time>2017-05-16T12:30:47Z</time>
      </trkpt>
      <trkpt lat="43.81618" lon="3.33174">
        <ele>693</ele>
        <time>2017-05-16T12:30:57Z</time>
      </trkpt>
      <trkpt lat="43.81625" lon="3.33145">
        <ele>693</ele>
        <time>2017-05-16T12:32:12Z</time>
      </trkpt>
      <trkpt lat="43.81619" lon="3.33153">
        <ele>693</ele>
        <time>2017-05-16T12:34:17Z</time>
      </trkpt>
      <trkpt lat="43.81617" lon="3.33158">
        <ele>693</ele>
        <time>2017-05-16T12:34:37Z</time>
      </trkpt>
      <trkpt lat="43.81615" lon="3.33161">
        <ele>693</ele>
        <time>2017-05-16T12:34:47Z</time>
      </trkpt>
      <trkpt lat="43.81617" lon="3.33157">
        <ele>693</ele>
        <time>2017-05-16T12:34:52Z</time>
      </trkpt>
      <trkpt lat="43.81612" lon="3.3316">
        <ele>693</ele>
        <time>2017-05-16T12:35:02Z</time>
      </trkpt>
      <trkpt lat="43.81613" lon="3.33161">
        <ele>693</ele>
        <time>2017-05-16T12:35:07Z</time>
      </trkpt>
      <trkpt lat="43.81613" lon="3.3316">
        <ele>693</ele>
        <time>2017-05-16T12:35:22Z</time>
      </trkpt>
      <trkpt lat="43.81615" lon="3.3315">
        <ele>693</ele>
        <time>2017-05-16T12:35:52Z</time>
      </trkpt>
      <trkpt lat="43.81614" lon="3.33151">
        <ele>693</ele>
        <time>2017-05-16T12:35:57Z</time>
      </trkpt>
      <trkpt lat="43.81618" lon="3.33148">
        <ele>693</ele>
        <time>2017-05-16T12:36:07Z</time>
      </trkpt>
      <trkpt lat="43.81623" lon="3.33149">
        <ele>693</ele>
        <time>2017-05-16T12:36:42Z</time>
      </trkpt>
      <trkpt lat="43.81624" lon="3.33149">
        <ele>693</ele>
        <time>2017-05-16T12:36:47Z</time>
      </trkpt>
      <trkpt lat="43.81624" lon="3.33149">
        <ele>693</ele>
        <time>2017-05-16T12:36:57Z</time>
      </trkpt>
      <trkpt lat="43.81621" lon="3.33159">
        <ele>693</ele>
        <time>2017-05-16T12:37:47Z</time>
      </trkpt>
      <trkpt lat="43.81621" lon="3.33159">
        <ele>693</ele>
        <time>2017-05-16T12:37:57Z</time>
      </trkpt>
      <trkpt lat="43.81615" lon="3.33159">
        <ele>693</ele>
        <time>2017-05-16T12:38:17Z</time>
      </trkpt>
      <trkpt lat="43.81615" lon="3.33158">
        <ele>693</ele>
        <time>2017-05-16T12:38:27Z</time>
      </trkpt>
      <trkpt lat="43.81619" lon="3.33159">
        <ele>693</ele>
        <time>2017-05-16T12:38:32Z</time>
      </trkpt>
      <trkpt lat="43.81625" lon="3.33158">
        <ele>693</ele>
        <time>2017-05-16T12:38:47Z</time>
      </trkpt>
      <trkpt lat="43.81624" lon="3.33158">
        <ele>693</ele>
        <time>2017-05-16T12:38:52Z</time>
      </trkpt>
      <trkpt lat="43.81631" lon="3.33156">
        <ele>701</ele>
        <time>2017-05-16T12:39:32Z</time>
      </trkpt>
      <trkpt lat="43.81626" lon="3.33159">
        <ele>701</ele>
        <time>2017-05-16T12:39:37Z</time>
      </trkpt>
      <trkpt lat="43.81623" lon="3.3316">
        <ele>693</ele>
        <time>2017-05-16T12:39:47Z</time>
      </trkpt>
      <trkpt lat="43.81623" lon="3.33162">
        <ele>693</ele>
        <time>2017-05-16T12:39:52Z</time>
      </trkpt>
      <trkpt lat="43.81618" lon="3.33163">
        <ele>693</ele>
        <time>2017-05-16T12:40:17Z</time>
      </trkpt>
      <trkpt lat="43.81618" lon="3.33158">
        <ele>693</ele>
        <time>2017-05-16T12:40:22Z</time>
      </trkpt>
      <trkpt lat="43.81616" lon="3.33149">
        <ele>693</ele>
        <time>2017-05-16T12:40:37Z</time>
      </trkpt>
      <trkpt lat="43.81616" lon="3.33147">
        <ele>693</ele>
        <time>2017-05-16T12:40:42Z</time>
      </trkpt>
      <trkpt lat="43.81618" lon="3.33147">
        <ele>693</ele>
        <time>2017-05-16T12:40:52Z</time>
      </trkpt>
      <trkpt lat="43.81618" lon="3.33151">
        <ele>693</ele>
        <time>2017-05-16T12:41:12Z</time>
      </trkpt>
      <trkpt lat="43.81621" lon="3.3315">
        <ele>693</ele>
        <time>2017-05-16T12:41:27Z</time>
      </trkpt>
      <trkpt lat="43.81631" lon="3.33139">
        <ele>701</ele>
        <time>2017-05-16T12:41:42Z</time>
      </trkpt>
      <trkpt lat="43.81631" lon="3.33139">
        <ele>701</ele>
        <time>2017-05-16T12:41:47Z</time>
      </trkpt>
      <trkpt lat="43.81629" lon="3.33147">
        <ele>701</ele>
        <time>2017-05-16T12:42:27Z</time>
      </trkpt>
      <trkpt lat="43.81629" lon="3.33145">
        <ele>701</ele>
        <time>2017-05-16T12:42:42Z</time>
      </trkpt>
      <trkpt lat="43.81627" lon="3.33146">
        <ele>701</ele>
        <time>2017-05-16T12:42:47Z</time>
      </trkpt>
      <trkpt lat="43.81624" lon="3.33151">
        <ele>693</ele>
        <time>2017-05-16T12:42:57Z</time>
      </trkpt>
      <trkpt lat="43.81623" lon="3.33153">
        <ele>693</ele>
        <time>2017-05-16T12:43:02Z</time>
      </trkpt>
      <trkpt lat="43.81622" lon="3.33149">
        <ele>693</ele>
        <time>2017-05-16T12:43:32Z</time>
      </trkpt>
      <trkpt lat="43.81618" lon="3.33135">
        <ele>693</ele>
        <time>2017-05-16T12:44:22Z</time>
      </trkpt>
      <trkpt lat="43.81609" lon="3.3314">
        <ele>693</ele>
        <time>2017-05-16T12:44:37Z</time>
      </trkpt>
      <trkpt lat="43.81606" lon="3.3314">
        <ele>693</ele>
        <time>2017-05-16T12:44:42Z</time>
      </trkpt>
      <trkpt lat="43.81598" lon="3.33147">
        <ele>693</ele>
        <time>2017-05-16T12:44:52Z</time>
      </trkpt>
      <trkpt lat="43.81594" lon="3.33152">
        <ele>693</ele>
        <time>2017-05-16T12:44:57Z</time>
      </trkpt>
      <trkpt lat="43.81585" lon="3.33172">
        <ele>693</ele>
        <time>2017-05-16T12:45:07Z</time>
      </trkpt>
      <trkpt lat="43.81583" lon="3.33178">
        <ele>693</ele>
        <time>2017-05-16T12:45:12Z</time>
      </trkpt>
      <trkpt lat="43.81573" lon="3.33186">
        <ele>693</ele>
        <time>2017-05-16T12:45:22Z</time>
      </trkpt>
      <trkpt lat="43.81567" lon="3.33192">
        <ele>693</ele>
        <time>2017-05-16T12:45:27Z</time>
      </trkpt>
      <trkpt lat="43.8156" lon="3.33203">
        <ele>693</ele>
        <time>2017-05-16T12:45:37Z</time>
      </trkpt>
      <trkpt lat="43.81557" lon="3.33207">
        <ele>693</ele>
        <time>2017-05-16T12:45:42Z</time>
      </trkpt>
      <trkpt lat="43.81544" lon="3.33218">
        <ele>689</ele>
        <time>2017-05-16T12:45:57Z</time>
      </trkpt>
      <trkpt lat="43.8154" lon="3.33221">
        <ele>686</ele>
        <time>2017-05-16T12:46:02Z</time>
      </trkpt>
      <trkpt lat="43.81533" lon="3.33228">
        <ele>686</ele>
        <time>2017-05-16T12:46:12Z</time>
      </trkpt>
      <trkpt lat="43.8153" lon="3.3323">
        <ele>686</ele>
        <time>2017-05-16T12:46:17Z</time>
      </trkpt>
      <trkpt lat="43.81528" lon="3.33238">
        <ele>686</ele>
        <time>2017-05-16T12:46:27Z</time>
      </trkpt>
      <trkpt lat="43.81525" lon="3.33245">
        <ele>686</ele>
        <time>2017-05-16T12:46:32Z</time>
      </trkpt>
      <trkpt lat="43.81521" lon="3.33249">
        <ele>686</ele>
        <time>2017-05-16T12:46:42Z</time>
      </trkpt>
      <trkpt lat="43.81518" lon="3.33252">
        <ele>686</ele>
        <time>2017-05-16T12:46:47Z</time>
      </trkpt>
      <trkpt lat="43.81513" lon="3.33257">
        <ele>686</ele>
        <time>2017-05-16T12:46:57Z</time>
      </trkpt>
      <trkpt lat="43.81507" lon="3.33266">
        <ele>686</ele>
        <time>2017-05-16T12:47:12Z</time>
      </trkpt>
      <trkpt lat="43.81504" lon="3.3327">
        <ele>686</ele>
        <time>2017-05-16T12:47:17Z</time>
      </trkpt>
      <trkpt lat="43.81492" lon="3.33278">
        <ele>686</ele>
        <time>2017-05-16T12:47:32Z</time>
      </trkpt>
      <trkpt lat="43.81486" lon="3.33278">
        <ele>686</ele>
        <time>2017-05-16T12:47:37Z</time>
      </trkpt>
      <trkpt lat="43.81479" lon="3.33276">
        <ele>686</ele>
        <time>2017-05-16T12:47:47Z</time>
      </trkpt>
      <trkpt lat="43.81477" lon="3.33277">
        <ele>686</ele>
        <time>2017-05-16T12:47:52Z</time>
      </trkpt>
      <trkpt lat="43.81476" lon="3.33279">
        <ele>686</ele>
        <time>2017-05-16T12:48:02Z</time>
      </trkpt>
      <trkpt lat="43.81476" lon="3.33279">
        <ele>686</ele>
        <time>2017-05-16T12:48:07Z</time>
      </trkpt>
      <trkpt lat="43.81461" lon="3.33281">
        <ele>686</ele>
        <time>2017-05-16T12:48:32Z</time>
      </trkpt>
      <trkpt lat="43.81457" lon="3.33281">
        <ele>694</ele>
        <time>2017-05-16T12:48:37Z</time>
      </trkpt>
      <trkpt lat="43.81457" lon="3.33278">
        <ele>694</ele>
        <time>2017-05-16T12:48:47Z</time>
      </trkpt>
      <trkpt lat="43.81457" lon="3.33273">
        <ele>694</ele>
        <time>2017-05-16T12:48:52Z</time>
      </trkpt>
      <trkpt lat="43.81454" lon="3.33273">
        <ele>694</ele>
        <time>2017-05-16T12:49:02Z</time>
      </trkpt>
      <trkpt lat="43.81453" lon="3.33273">
        <ele>694</ele>
        <time>2017-05-16T12:49:07Z</time>
      </trkpt>
      <trkpt lat="43.8145" lon="3.33271">
        <ele>694</ele>
        <time>2017-05-16T12:49:17Z</time>
      </trkpt>
      <trkpt lat="43.81445" lon="3.33283">
        <ele>694</ele>
        <time>2017-05-16T12:49:22Z</time>
      </trkpt>
      <trkpt lat="43.8144" lon="3.33291">
        <ele>694</ele>
        <time>2017-05-16T12:49:32Z</time>
      </trkpt>
      <trkpt lat="43.81439" lon="3.33292">
        <ele>704</ele>
        <time>2017-05-16T12:49:37Z</time>
      </trkpt>
      <trkpt lat="43.81432" lon="3.33302">
        <ele>704</ele>
        <time>2017-05-16T12:49:52Z</time>
      </trkpt>
      <trkpt lat="43.81424" lon="3.33294">
        <ele>704</ele>
        <time>2017-05-16T12:50:07Z</time>
      </trkpt>
      <trkpt lat="43.81421" lon="3.33294">
        <ele>704</ele>
        <time>2017-05-16T12:50:12Z</time>
      </trkpt>
      <trkpt lat="43.81417" lon="3.33292">
        <ele>704</ele>
        <time>2017-05-16T12:50:22Z</time>
      </trkpt>
      <trkpt lat="43.81414" lon="3.3329">
        <ele>694</ele>
        <time>2017-05-16T12:50:27Z</time>
      </trkpt>
      <trkpt lat="43.81408" lon="3.33285">
        <ele>694</ele>
        <time>2017-05-16T12:50:37Z</time>
      </trkpt>
      <trkpt lat="43.81407" lon="3.33284">
        <ele>694</ele>
        <time>2017-05-16T12:50:42Z</time>
      </trkpt>
      <trkpt lat="43.81402" lon="3.33273">
        <ele>694</ele>
        <time>2017-05-16T12:50:52Z</time>
      </trkpt>
      <trkpt lat="43.814" lon="3.33272">
        <ele>694</ele>
        <time>2017-05-16T12:50:57Z</time>
      </trkpt>
      <trkpt lat="43.81388" lon="3.33272">
        <ele>694</ele>
        <time>2017-05-16T12:51:12Z</time>
      </trkpt>
      <trkpt lat="43.81384" lon="3.3327">
        <ele>694</ele>
        <time>2017-05-16T12:51:17Z</time>
      </trkpt>
      <trkpt lat="43.8137" lon="3.33265">
        <ele>697</ele>
        <time>2017-05-16T12:51:27Z</time>
      </trkpt>
      <trkpt lat="43.81365" lon="3.3326">
        <ele>697</ele>
        <time>2017-05-16T12:51:32Z</time>
      </trkpt>
      <trkpt lat="43.81356" lon="3.33258">
        <ele>697</ele>
        <time>2017-05-16T12:51:42Z</time>
      </trkpt>
      <trkpt lat="43.81353" lon="3.33258">
        <ele>697</ele>
        <time>2017-05-16T12:51:47Z</time>
      </trkpt>
      <trkpt lat="43.81349" lon="3.33256">
        <ele>697</ele>
        <time>2017-05-16T12:51:57Z</time>
      </trkpt>
      <trkpt lat="43.81343" lon="3.33259">
        <ele>697</ele>
        <time>2017-05-16T12:52:27Z</time>
      </trkpt>
      <trkpt lat="43.8134" lon="3.33261">
        <ele>697</ele>
        <time>2017-05-16T12:52:32Z</time>
      </trkpt>
      <trkpt lat="43.81332" lon="3.3326">
        <ele>697</ele>
        <time>2017-05-16T12:52:42Z</time>
      </trkpt>
      <trkpt lat="43.81329" lon="3.33261">
        <ele>697</ele>
        <time>2017-05-16T12:52:47Z</time>
      </trkpt>
      <trkpt lat="43.81323" lon="3.33258">
        <ele>697</ele>
        <time>2017-05-16T12:52:57Z</time>
      </trkpt>
      <trkpt lat="43.81319" lon="3.33257">
        <ele>697</ele>
        <time>2017-05-16T12:53:02Z</time>
      </trkpt>
      <trkpt lat="43.81311" lon="3.33253">
        <ele>697</ele>
        <time>2017-05-16T12:53:12Z</time>
      </trkpt>
      <trkpt lat="43.81309" lon="3.33251">
        <ele>697</ele>
        <time>2017-05-16T12:53:17Z</time>
      </trkpt>
      <trkpt lat="43.81308" lon="3.33251">
        <ele>697</ele>
        <time>2017-05-16T12:53:32Z</time>
      </trkpt>
      <trkpt lat="43.81299" lon="3.33259">
        <ele>697</ele>
        <time>2017-05-16T12:54:52Z</time>
      </trkpt>
      <trkpt lat="43.81295" lon="3.33263">
        <ele>697</ele>
        <time>2017-05-16T12:54:57Z</time>
      </trkpt>
      <trkpt lat="43.81288" lon="3.33257">
        <ele>677</ele>
        <time>2017-05-16T12:55:07Z</time>
      </trkpt>
      <trkpt lat="43.81287" lon="3.33256">
        <ele>677</ele>
        <time>2017-05-16T12:55:12Z</time>
      </trkpt>
      <trkpt lat="43.81288" lon="3.33256">
        <ele>677</ele>
        <time>2017-05-16T12:55:22Z</time>
      </trkpt>
      <trkpt lat="43.81291" lon="3.33259">
        <ele>677</ele>
        <time>2017-05-16T12:55:52Z</time>
      </trkpt>
      <trkpt lat="43.81288" lon="3.33263">
        <ele>677</ele>
        <time>2017-05-16T12:55:57Z</time>
      </trkpt>
      <trkpt lat="43.81285" lon="3.33265">
        <ele>677</ele>
        <time>2017-05-16T12:56:12Z</time>
      </trkpt>
      <trkpt lat="43.81275" lon="3.33262">
        <ele>677</ele>
        <time>2017-05-16T12:56:47Z</time>
      </trkpt>
      <trkpt lat="43.81273" lon="3.33271">
        <ele>677</ele>
        <time>2017-05-16T12:56:57Z</time>
      </trkpt>
      <trkpt lat="43.81272" lon="3.33275">
        <ele>677</ele>
        <time>2017-05-16T12:57:02Z</time>
      </trkpt>
      <trkpt lat="43.81269" lon="3.33289">
        <ele>677</ele>
        <time>2017-05-16T12:57:12Z</time>
      </trkpt>
      <trkpt lat="43.81268" lon="3.33293">
        <ele>687</ele>
        <time>2017-05-16T12:57:17Z</time>
      </trkpt>
      <trkpt lat="43.81264" lon="3.33299">
        <ele>687</ele>
        <time>2017-05-16T12:57:32Z</time>
      </trkpt>
      <trkpt lat="43.81259" lon="3.33307">
        <ele>687</ele>
        <time>2017-05-16T12:57:47Z</time>
      </trkpt>
      <trkpt lat="43.81256" lon="3.33304">
        <ele>687</ele>
        <time>2017-05-16T12:57:52Z</time>
      </trkpt>
      <trkpt lat="43.8125" lon="3.33305">
        <ele>687</ele>
        <time>2017-05-16T12:58:02Z</time>
      </trkpt>
      <trkpt lat="43.81247" lon="3.33307">
        <ele>687</ele>
        <time>2017-05-16T12:58:07Z</time>
      </trkpt>
      <trkpt lat="43.81242" lon="3.33316">
        <ele>687</ele>
        <time>2017-05-16T12:58:17Z</time>
      </trkpt>
      <trkpt lat="43.81241" lon="3.33321">
        <ele>687</ele>
        <time>2017-05-16T12:58:22Z</time>
      </trkpt>
      <trkpt lat="43.81238" lon="3.33328">
        <ele>687</ele>
        <time>2017-05-16T12:58:32Z</time>
      </trkpt>
      <trkpt lat="43.81238" lon="3.33328">
        <ele>687</ele>
        <time>2017-05-16T12:58:37Z</time>
      </trkpt>
      <trkpt lat="43.81233" lon="3.33333">
        <ele>687</ele>
        <time>2017-05-16T12:58:52Z</time>
      </trkpt>
      <trkpt lat="43.8123" lon="3.33334">
        <ele>687</ele>
        <time>2017-05-16T12:58:57Z</time>
      </trkpt>
      <trkpt lat="43.81223" lon="3.33336">
        <ele>687</ele>
        <time>2017-05-16T12:59:07Z</time>
      </trkpt>
      <trkpt lat="43.8122" lon="3.33339">
        <ele>687</ele>
        <time>2017-05-16T12:59:12Z</time>
      </trkpt>
      <trkpt lat="43.81215" lon="3.3333">
        <ele>687</ele>
        <time>2017-05-16T12:59:22Z</time>
      </trkpt>
      <trkpt lat="43.81211" lon="3.33329">
        <ele>687</ele>
        <time>2017-05-16T12:59:27Z</time>
      </trkpt>
      <trkpt lat="43.8121" lon="3.3332">
        <ele>687</ele>
        <time>2017-05-16T12:59:37Z</time>
      </trkpt>
      <trkpt lat="43.81206" lon="3.33317">
        <ele>674</ele>
        <time>2017-05-16T12:59:42Z</time>
      </trkpt>
      <trkpt lat="43.8119" lon="3.33321">
        <ele>674</ele>
        <time>2017-05-16T12:59:52Z</time>
      </trkpt>
      <trkpt lat="43.81184" lon="3.33323">
        <ele>674</ele>
        <time>2017-05-16T12:59:57Z</time>
      </trkpt>
      <trkpt lat="43.81165" lon="3.33326">
        <ele>674</ele>
        <time>2017-05-16T13:00:12Z</time>
      </trkpt>
      <trkpt lat="43.81158" lon="3.33327">
        <ele>674</ele>
        <time>2017-05-16T13:00:17Z</time>
      </trkpt>
      <trkpt lat="43.81146" lon="3.33329">
        <ele>674</ele>
        <time>2017-05-16T13:00:27Z</time>
      </trkpt>
      <trkpt lat="43.81143" lon="3.33334">
        <ele>674</ele>
        <time>2017-05-16T13:00:32Z</time>
      </trkpt>
      <trkpt lat="43.81137" lon="3.33332">
        <ele>674</ele>
        <time>2017-05-16T13:00:42Z</time>
      </trkpt>
      <trkpt lat="43.81134" lon="3.33331">
        <ele>674</ele>
        <time>2017-05-16T13:00:47Z</time>
      </trkpt>
      <trkpt lat="43.81127" lon="3.33326">
        <ele>674</ele>
        <time>2017-05-16T13:00:57Z</time>
      </trkpt>
      <trkpt lat="43.81127" lon="3.33325">
        <ele>674</ele>
        <time>2017-05-16T13:01:02Z</time>
      </trkpt>
      <trkpt lat="43.81125" lon="3.33328">
        <ele>674</ele>
        <time>2017-05-16T13:02:32Z</time>
      </trkpt>
      <trkpt lat="43.81121" lon="3.33325">
        <ele>661</ele>
        <time>2017-05-16T13:02:52Z</time>
      </trkpt>
      <trkpt lat="43.81112" lon="3.33318">
        <ele>661</ele>
        <time>2017-05-16T13:03:12Z</time>
      </trkpt>
      <trkpt lat="43.81103" lon="3.33326">
        <ele>661</ele>
        <time>2017-05-16T13:03:22Z</time>
      </trkpt>
      <trkpt lat="43.811" lon="3.33323">
        <ele>661</ele>
        <time>2017-05-16T13:03:27Z</time>
      </trkpt>
      <trkpt lat="43.81095" lon="3.33316">
        <ele>661</ele>
        <time>2017-05-16T13:03:37Z</time>
      </trkpt>
      <trkpt lat="43.8109" lon="3.33313">
        <ele>661</ele>
        <time>2017-05-16T13:03:42Z</time>
      </trkpt>
      <trkpt lat="43.81079" lon="3.33309">
        <ele>661</ele>
        <time>2017-05-16T13:03:52Z</time>
      </trkpt>
      <trkpt lat="43.81077" lon="3.33305">
        <ele>661</ele>
        <time>2017-05-16T13:03:57Z</time>
      </trkpt>
      <trkpt lat="43.81067" lon="3.33299">
        <ele>661</ele>
        <time>2017-05-16T13:04:07Z</time>
      </trkpt>
      <trkpt lat="43.81063" lon="3.33298">
        <ele>661</ele>
        <time>2017-05-16T13:04:12Z</time>
      </trkpt>
      <trkpt lat="43.81054" lon="3.33303">
        <ele>661</ele>
        <time>2017-05-16T13:04:27Z</time>
      </trkpt>
      <trkpt lat="43.8105" lon="3.33303">
        <ele>661</ele>
        <time>2017-05-16T13:04:32Z</time>
      </trkpt>
      <trkpt lat="43.81049" lon="3.33304">
        <ele>661</ele>
        <time>2017-05-16T13:04:42Z</time>
      </trkpt>
      <trkpt lat="43.81041" lon="3.33307">
        <ele>630</ele>
        <time>2017-05-16T13:05:02Z</time>
      </trkpt>
      <trkpt lat="43.81031" lon="3.33306">
        <ele>630</ele>
        <time>2017-05-16T13:05:12Z</time>
      </trkpt>
      <trkpt lat="43.8103" lon="3.33305">
        <ele>630</ele>
        <time>2017-05-16T13:05:17Z</time>
      </trkpt>
      <trkpt lat="43.81028" lon="3.33303">
        <ele>630</ele>
        <time>2017-05-16T13:05:27Z</time>
      </trkpt>
      <trkpt lat="43.81023" lon="3.33304">
        <ele>630</ele>
        <time>2017-05-16T13:06:02Z</time>
      </trkpt>
      <trkpt lat="43.8102" lon="3.33307">
        <ele>630</ele>
        <time>2017-05-16T13:06:07Z</time>
      </trkpt>
      <trkpt lat="43.81017" lon="3.33311">
        <ele>630</ele>
        <time>2017-05-16T13:06:17Z</time>
      </trkpt>
      <trkpt lat="43.81013" lon="3.33317">
        <ele>630</ele>
        <time>2017-05-16T13:06:22Z</time>
      </trkpt>
      <trkpt lat="43.81012" lon="3.33319">
        <ele>630</ele>
        <time>2017-05-16T13:06:32Z</time>
      </trkpt>
      <trkpt lat="43.81007" lon="3.33324">
        <ele>630</ele>
        <time>2017-05-16T13:06:52Z</time>
      </trkpt>
      <trkpt lat="43.81" lon="3.33326">
        <ele>630</ele>
        <time>2017-05-16T13:07:02Z</time>
      </trkpt>
      <trkpt lat="43.80996" lon="3.3333">
        <ele>630</ele>
        <time>2017-05-16T13:07:07Z</time>
      </trkpt>
      <trkpt lat="43.8099" lon="3.33346">
        <ele>630</ele>
        <time>2017-05-16T13:07:17Z</time>
      </trkpt>
      <trkpt lat="43.80988" lon="3.3335">
        <ele>630</ele>
        <time>2017-05-16T13:07:22Z</time>
      </trkpt>
      <trkpt lat="43.80984" lon="3.33362">
        <ele>630</ele>
        <time>2017-05-16T13:07:32Z</time>
      </trkpt>
      <trkpt lat="43.80983" lon="3.33369">
        <ele>630</ele>
        <time>2017-05-16T13:07:37Z</time>
      </trkpt>
      <trkpt lat="43.80975" lon="3.33388">
        <ele>656</ele>
        <time>2017-05-16T13:07:52Z</time>
      </trkpt>
      <trkpt lat="43.80972" lon="3.33391">
        <ele>656</ele>
        <time>2017-05-16T13:07:57Z</time>
      </trkpt>
      <trkpt lat="43.80966" lon="3.33394">
        <ele>656</ele>
        <time>2017-05-16T13:08:07Z</time>
      </trkpt>
      <trkpt lat="43.80963" lon="3.33396">
        <ele>656</ele>
        <time>2017-05-16T13:08:12Z</time>
      </trkpt>
      <trkpt lat="43.80957" lon="3.33405">
        <ele>636</ele>
        <time>2017-05-16T13:08:22Z</time>
      </trkpt>
      <trkpt lat="43.80955" lon="3.33409">
        <ele>636</ele>
        <time>2017-05-16T13:08:27Z</time>
      </trkpt>
      <trkpt lat="43.8095" lon="3.33412">
        <ele>636</ele>
        <time>2017-05-16T13:08:37Z</time>
      </trkpt>
      <trkpt lat="43.80947" lon="3.33415">
        <ele>636</ele>
        <time>2017-05-16T13:08:42Z</time>
      </trkpt>
      <trkpt lat="43.80941" lon="3.33418">
        <ele>636</ele>
        <time>2017-05-16T13:08:52Z</time>
      </trkpt>
      <trkpt lat="43.80937" lon="3.33419">
        <ele>636</ele>
        <time>2017-05-16T13:08:57Z</time>
      </trkpt>
      <trkpt lat="43.80927" lon="3.33424">
        <ele>636</ele>
        <time>2017-05-16T13:09:12Z</time>
      </trkpt>
      <trkpt lat="43.80921" lon="3.33427">
        <ele>636</ele>
        <time>2017-05-16T13:09:17Z</time>
      </trkpt>
      <trkpt lat="43.80904" lon="3.33434">
        <ele>636</ele>
        <time>2017-05-16T13:09:27Z</time>
      </trkpt>
      <trkpt lat="43.80899" lon="3.33438">
        <ele>636</ele>
        <time>2017-05-16T13:09:32Z</time>
      </trkpt>
      <trkpt lat="43.80892" lon="3.33447">
        <ele>636</ele>
        <time>2017-05-16T13:09:42Z</time>
      </trkpt>
      <trkpt lat="43.80889" lon="3.3345">
        <ele>636</ele>
        <time>2017-05-16T13:09:47Z</time>
      </trkpt>
      <trkpt lat="43.80884" lon="3.33455">
        <ele>636</ele>
        <time>2017-05-16T13:09:57Z</time>
      </trkpt>
      <trkpt lat="43.80882" lon="3.33459">
        <ele>656</ele>
        <time>2017-05-16T13:10:02Z</time>
      </trkpt>
      <trkpt lat="43.80878" lon="3.33468">
        <ele>656</ele>
        <time>2017-05-16T13:10:12Z</time>
      </trkpt>
      <trkpt lat="43.80876" lon="3.33474">
        <ele>656</ele>
        <time>2017-05-16T13:10:17Z</time>
      </trkpt>
      <trkpt lat="43.80869" lon="3.33488">
        <ele>656</ele>
        <time>2017-05-16T13:10:32Z</time>
      </trkpt>
      <trkpt lat="43.80866" lon="3.33493">
        <ele>656</ele>
        <time>2017-05-16T13:10:37Z</time>
      </trkpt>
      <trkpt lat="43.80867" lon="3.33506">
        <ele>656</ele>
        <time>2017-05-16T13:10:47Z</time>
      </trkpt>
      <trkpt lat="43.80867" lon="3.33511">
        <ele>656</ele>
        <time>2017-05-16T13:10:52Z</time>
      </trkpt>
      <trkpt lat="43.80868" lon="3.33526">
        <ele>656</ele>
        <time>2017-05-16T13:11:02Z</time>
      </trkpt>
      <trkpt lat="43.80867" lon="3.33532">
        <ele>656</ele>
        <time>2017-05-16T13:11:07Z</time>
      </trkpt>
      <trkpt lat="43.80861" lon="3.33528">
        <ele>656</ele>
        <time>2017-05-16T13:11:22Z</time>
      </trkpt>
      <trkpt lat="43.80857" lon="3.33527">
        <ele>656</ele>
        <time>2017-05-16T13:11:27Z</time>
      </trkpt>
      <trkpt lat="43.80849" lon="3.33528">
        <ele>656</ele>
        <time>2017-05-16T13:11:37Z</time>
      </trkpt>
      <trkpt lat="43.80844" lon="3.3353">
        <ele>656</ele>
        <time>2017-05-16T13:11:42Z</time>
      </trkpt>
      <trkpt lat="43.80836" lon="3.33536">
        <ele>656</ele>
        <time>2017-05-16T13:11:52Z</time>
      </trkpt>
      <trkpt lat="43.80837" lon="3.33538">
        <ele>656</ele>
        <time>2017-05-16T13:11:57Z</time>
      </trkpt>
      <trkpt lat="43.80828" lon="3.33541">
        <ele>656</ele>
        <time>2017-05-16T13:12:07Z</time>
      </trkpt>
      <trkpt lat="43.80822" lon="3.33542">
        <ele>662</ele>
        <time>2017-05-16T13:12:12Z</time>
      </trkpt>
      <trkpt lat="43.80814" lon="3.33544">
        <ele>662</ele>
        <time>2017-05-16T13:12:22Z</time>
      </trkpt>
      <trkpt lat="43.80811" lon="3.33547">
        <ele>662</ele>
        <time>2017-05-16T13:12:27Z</time>
      </trkpt>
      <trkpt lat="43.80803" lon="3.33554">
        <ele>662</ele>
        <time>2017-05-16T13:12:37Z</time>
      </trkpt>
      <trkpt lat="43.80796" lon="3.33557">
        <ele>662</ele>
        <time>2017-05-16T13:12:42Z</time>
      </trkpt>
      <trkpt lat="43.80788" lon="3.33559">
        <ele>668</ele>
        <time>2017-05-16T13:12:52Z</time>
      </trkpt>
      <trkpt lat="43.80784" lon="3.33561">
        <ele>668</ele>
        <time>2017-05-16T13:12:57Z</time>
      </trkpt>
      <trkpt lat="43.80773" lon="3.3356">
        <ele>668</ele>
        <time>2017-05-16T13:13:12Z</time>
      </trkpt>
      <trkpt lat="43.80769" lon="3.33564">
        <ele>668</ele>
        <time>2017-05-16T13:13:17Z</time>
      </trkpt>
      <trkpt lat="43.80759" lon="3.33573">
        <ele>668</ele>
        <time>2017-05-16T13:13:32Z</time>
      </trkpt>
      <trkpt lat="43.80755" lon="3.33571">
        <ele>668</ele>
        <time>2017-05-16T13:13:37Z</time>
      </trkpt>
      <trkpt lat="43.80748" lon="3.33581">
        <ele>668</ele>
        <time>2017-05-16T13:13:47Z</time>
      </trkpt>
      <trkpt lat="43.80747" lon="3.33582">
        <ele>668</ele>
        <time>2017-05-16T13:13:52Z</time>
      </trkpt>
      <trkpt lat="43.80736" lon="3.3358">
        <ele>668</ele>
        <time>2017-05-16T13:14:02Z</time>
      </trkpt>
      <trkpt lat="43.80735" lon="3.33579">
        <ele>668</ele>
        <time>2017-05-16T13:14:07Z</time>
      </trkpt>
      <trkpt lat="43.80726" lon="3.33574">
        <ele>668</ele>
        <time>2017-05-16T13:14:17Z</time>
      </trkpt>
      <trkpt lat="43.80721" lon="3.33575">
        <ele>668</ele>
        <time>2017-05-16T13:14:22Z</time>
      </trkpt>
      <trkpt lat="43.80709" lon="3.33579">
        <ele>668</ele>
        <time>2017-05-16T13:14:32Z</time>
      </trkpt>
      <trkpt lat="43.80706" lon="3.3358">
        <ele>684</ele>
        <time>2017-05-16T13:14:37Z</time>
      </trkpt>
      <trkpt lat="43.80692" lon="3.33582">
        <ele>684</ele>
        <time>2017-05-16T13:14:47Z</time>
      </trkpt>
      <trkpt lat="43.80685" lon="3.33583">
        <ele>684</ele>
        <time>2017-05-16T13:14:52Z</time>
      </trkpt>
      <trkpt lat="43.80677" lon="3.33587">
        <ele>684</ele>
        <time>2017-05-16T13:15:02Z</time>
      </trkpt>
      <trkpt lat="43.80676" lon="3.33589">
        <ele>684</ele>
        <time>2017-05-16T13:15:07Z</time>
      </trkpt>
      <trkpt lat="43.80666" lon="3.33597">
        <ele>684</ele>
        <time>2017-05-16T13:15:22Z</time>
      </trkpt>
      <trkpt lat="43.80668" lon="3.33602">
        <ele>684</ele>
        <time>2017-05-16T13:15:27Z</time>
      </trkpt>
      <trkpt lat="43.80662" lon="3.33606">
        <ele>684</ele>
        <time>2017-05-16T13:15:37Z</time>
      </trkpt>
      <trkpt lat="43.8066" lon="3.33608">
        <ele>684</ele>
        <time>2017-05-16T13:15:42Z</time>
      </trkpt>
      <trkpt lat="43.80658" lon="3.33609">
        <ele>684</ele>
        <time>2017-05-16T13:15:52Z</time>
      </trkpt>
      <trkpt lat="43.80656" lon="3.3361">
        <ele>684</ele>
        <time>2017-05-16T13:15:57Z</time>
      </trkpt>
      <trkpt lat="43.80648" lon="3.33608">
        <ele>684</ele>
        <time>2017-05-16T13:16:07Z</time>
      </trkpt>
      <trkpt lat="43.80646" lon="3.33608">
        <ele>684</ele>
        <time>2017-05-16T13:16:12Z</time>
      </trkpt>
      <trkpt lat="43.80641" lon="3.33612">
        <ele>684</ele>
        <time>2017-05-16T13:16:22Z</time>
      </trkpt>
      <trkpt lat="43.80636" lon="3.3362">
        <ele>684</ele>
        <time>2017-05-16T13:16:27Z</time>
      </trkpt>
      <trkpt lat="43.80627" lon="3.33627">
        <ele>699</ele>
        <time>2017-05-16T13:16:37Z</time>
      </trkpt>
      <trkpt lat="43.80625" lon="3.33628">
        <ele>689</ele>
        <time>2017-05-16T13:16:42Z</time>
      </trkpt>
      <trkpt lat="43.80618" lon="3.33628">
        <ele>689</ele>
        <time>2017-05-16T13:16:57Z</time>
      </trkpt>
      <trkpt lat="43.80614" lon="3.33625">
        <ele>689</ele>
        <time>2017-05-16T13:17:02Z</time>
      </trkpt>
      <trkpt lat="43.80609" lon="3.33623">
        <ele>679</ele>
        <time>2017-05-16T13:17:12Z</time>
      </trkpt>
      <trkpt lat="43.80606" lon="3.33625">
        <ele>679</ele>
        <time>2017-05-16T13:17:17Z</time>
      </trkpt>
      <trkpt lat="43.806" lon="3.33615">
        <ele>679</ele>
        <time>2017-05-16T13:17:27Z</time>
      </trkpt>
      <trkpt lat="43.80596" lon="3.33611">
        <ele>679</ele>
        <time>2017-05-16T13:17:32Z</time>
      </trkpt>
      <trkpt lat="43.80587" lon="3.3361">
        <ele>679</ele>
        <time>2017-05-16T13:17:42Z</time>
      </trkpt>
      <trkpt lat="43.80584" lon="3.33615">
        <ele>679</ele>
        <time>2017-05-16T13:17:47Z</time>
      </trkpt>
      <trkpt lat="43.80576" lon="3.33621">
        <ele>679</ele>
        <time>2017-05-16T13:17:57Z</time>
      </trkpt>
      <trkpt lat="43.8057" lon="3.33622">
        <ele>679</ele>
        <time>2017-05-16T13:18:02Z</time>
      </trkpt>
      <trkpt lat="43.80562" lon="3.33623">
        <ele>679</ele>
        <time>2017-05-16T13:18:12Z</time>
      </trkpt>
      <trkpt lat="43.80558" lon="3.33624">
        <ele>679</ele>
        <time>2017-05-16T13:18:17Z</time>
      </trkpt>
      <trkpt lat="43.80537" lon="3.3363">
        <ele>674</ele>
        <time>2017-05-16T13:18:32Z</time>
      </trkpt>
      <trkpt lat="43.80531" lon="3.33633">
        <ele>674</ele>
        <time>2017-05-16T13:18:37Z</time>
      </trkpt>
      <trkpt lat="43.80522" lon="3.33639">
        <ele>674</ele>
        <time>2017-05-16T13:18:47Z</time>
      </trkpt>
      <trkpt lat="43.80519" lon="3.33639">
        <ele>674</ele>
        <time>2017-05-16T13:18:52Z</time>
      </trkpt>
      <trkpt lat="43.80508" lon="3.3364">
        <ele>674</ele>
        <time>2017-05-16T13:19:02Z</time>
      </trkpt>
      <trkpt lat="43.80502" lon="3.33644">
        <ele>674</ele>
        <time>2017-05-16T13:19:07Z</time>
      </trkpt>
      <trkpt lat="43.8049" lon="3.33657">
        <ele>674</ele>
        <time>2017-05-16T13:19:22Z</time>
      </trkpt>
      <trkpt lat="43.80487" lon="3.33661">
        <ele>674</ele>
        <time>2017-05-16T13:19:27Z</time>
      </trkpt>
      <trkpt lat="43.80477" lon="3.33667">
        <ele>674</ele>
        <time>2017-05-16T13:19:37Z</time>
      </trkpt>
      <trkpt lat="43.80472" lon="3.33673">
        <ele>674</ele>
        <time>2017-05-16T13:19:42Z</time>
      </trkpt>
      <trkpt lat="43.80467" lon="3.33679">
        <ele>674</ele>
        <time>2017-05-16T13:19:52Z</time>
      </trkpt>
      <trkpt lat="43.80465" lon="3.33686">
        <ele>674</ele>
        <time>2017-05-16T13:19:57Z</time>
      </trkpt>
      <trkpt lat="43.80455" lon="3.33697">
        <ele>660</ele>
        <time>2017-05-16T13:20:07Z</time>
      </trkpt>
      <trkpt lat="43.80451" lon="3.337">
        <ele>660</ele>
        <time>2017-05-16T13:20:12Z</time>
      </trkpt>
      <trkpt lat="43.80442" lon="3.33706">
        <ele>660</ele>
        <time>2017-05-16T13:20:22Z</time>
      </trkpt>
      <trkpt lat="43.80436" lon="3.33707">
        <ele>660</ele>
        <time>2017-05-16T13:20:27Z</time>
      </trkpt>
      <trkpt lat="43.80427" lon="3.33702">
        <ele>660</ele>
        <time>2017-05-16T13:20:37Z</time>
      </trkpt>
      <trkpt lat="43.80422" lon="3.33701">
        <ele>660</ele>
        <time>2017-05-16T13:20:42Z</time>
      </trkpt>
      <trkpt lat="43.80411" lon="3.33696">
        <ele>660</ele>
        <time>2017-05-16T13:20:57Z</time>
      </trkpt>
      <trkpt lat="43.80407" lon="3.337">
        <ele>660</ele>
        <time>2017-05-16T13:21:02Z</time>
      </trkpt>
      <trkpt lat="43.80398" lon="3.33707">
        <ele>660</ele>
        <time>2017-05-16T13:21:12Z</time>
      </trkpt>
      <trkpt lat="43.80392" lon="3.33711">
        <ele>670</ele>
        <time>2017-05-16T13:21:17Z</time>
      </trkpt>
      <trkpt lat="43.80381" lon="3.33718">
        <ele>670</ele>
        <time>2017-05-16T13:21:27Z</time>
      </trkpt>
      <trkpt lat="43.80377" lon="3.3372">
        <ele>670</ele>
        <time>2017-05-16T13:21:32Z</time>
      </trkpt>
      <trkpt lat="43.80367" lon="3.3373">
        <ele>655</ele>
        <time>2017-05-16T13:21:42Z</time>
      </trkpt>
      <trkpt lat="43.80362" lon="3.33735">
        <ele>655</ele>
        <time>2017-05-16T13:21:47Z</time>
      </trkpt>
      <trkpt lat="43.80354" lon="3.33749">
        <ele>655</ele>
        <time>2017-05-16T13:21:57Z</time>
      </trkpt>
      <trkpt lat="43.80352" lon="3.33755">
        <ele>655</ele>
        <time>2017-05-16T13:22:02Z</time>
      </trkpt>
      <trkpt lat="43.80351" lon="3.33764">
        <ele>655</ele>
        <time>2017-05-16T13:22:12Z</time>
      </trkpt>
      <trkpt lat="43.8035" lon="3.33771">
        <ele>655</ele>
        <time>2017-05-16T13:22:17Z</time>
      </trkpt>
      <trkpt lat="43.80345" lon="3.33791">
        <ele>655</ele>
        <time>2017-05-16T13:22:32Z</time>
      </trkpt>
      <trkpt lat="43.80349" lon="3.338">
        <ele>661</ele>
        <time>2017-05-16T13:22:37Z</time>
      </trkpt>
      <trkpt lat="43.80355" lon="3.33823">
        <ele>661</ele>
        <time>2017-05-16T13:22:47Z</time>
      </trkpt>
      <trkpt lat="43.80357" lon="3.33829">
        <ele>661</ele>
        <time>2017-05-16T13:22:52Z</time>
      </trkpt>
      <trkpt lat="43.80359" lon="3.33837">
        <ele>661</ele>
        <time>2017-05-16T13:23:02Z</time>
      </trkpt>
      <trkpt lat="43.80361" lon="3.33843">
        <ele>661</ele>
        <time>2017-05-16T13:23:07Z</time>
      </trkpt>
      <trkpt lat="43.80359" lon="3.33857">
        <ele>661</ele>
        <time>2017-05-16T13:23:17Z</time>
      </trkpt>
      <trkpt lat="43.80357" lon="3.33865">
        <ele>661</ele>
        <time>2017-05-16T13:23:22Z</time>
      </trkpt>
      <trkpt lat="43.80356" lon="3.33888">
        <ele>665</ele>
        <time>2017-05-16T13:23:37Z</time>
      </trkpt>
      <trkpt lat="43.80357" lon="3.33894">
        <ele>665</ele>
        <time>2017-05-16T13:23:42Z</time>
      </trkpt>
      <trkpt lat="43.80355" lon="3.33907">
        <ele>665</ele>
        <time>2017-05-16T13:23:52Z</time>
      </trkpt>
      <trkpt lat="43.80356" lon="3.33916">
        <ele>665</ele>
        <time>2017-05-16T13:23:57Z</time>
      </trkpt>
      <trkpt lat="43.80358" lon="3.33929">
        <ele>665</ele>
        <time>2017-05-16T13:24:07Z</time>
      </trkpt>
      <trkpt lat="43.80357" lon="3.33936">
        <ele>665</ele>
        <time>2017-05-16T13:24:12Z</time>
      </trkpt>
      <trkpt lat="43.80353" lon="3.33951">
        <ele>665</ele>
        <time>2017-05-16T13:24:22Z</time>
      </trkpt>
      <trkpt lat="43.80352" lon="3.33959">
        <ele>674</ele>
        <time>2017-05-16T13:24:27Z</time>
      </trkpt>
      <trkpt lat="43.80347" lon="3.33969">
        <ele>674</ele>
        <time>2017-05-16T13:24:37Z</time>
      </trkpt>
      <trkpt lat="43.80343" lon="3.33974">
        <ele>674</ele>
        <time>2017-05-16T13:24:42Z</time>
      </trkpt>
      <trkpt lat="43.80333" lon="3.33985">
        <ele>674</ele>
        <time>2017-05-16T13:24:52Z</time>
      </trkpt>
      <trkpt lat="43.8033" lon="3.33987">
        <ele>674</ele>
        <time>2017-05-16T13:24:57Z</time>
      </trkpt>
      <trkpt lat="43.80313" lon="3.33986">
        <ele>674</ele>
        <time>2017-05-16T13:25:12Z</time>
      </trkpt>
      <trkpt lat="43.80306" lon="3.33987">
        <ele>674</ele>
        <time>2017-05-16T13:25:17Z</time>
      </trkpt>
      <trkpt lat="43.80293" lon="3.33984">
        <ele>674</ele>
        <time>2017-05-16T13:25:27Z</time>
      </trkpt>
      <trkpt lat="43.80286" lon="3.33982">
        <ele>672</ele>
        <time>2017-05-16T13:25:32Z</time>
      </trkpt>
      <trkpt lat="43.80276" lon="3.33981">
        <ele>672</ele>
        <time>2017-05-16T13:25:42Z</time>
      </trkpt>
      <trkpt lat="43.80271" lon="3.33979">
        <ele>672</ele>
        <time>2017-05-16T13:25:47Z</time>
      </trkpt>
      <trkpt lat="43.80261" lon="3.33972">
        <ele>672</ele>
        <time>2017-05-16T13:25:57Z</time>
      </trkpt>
      <trkpt lat="43.80256" lon="3.3397">
        <ele>672</ele>
        <time>2017-05-16T13:26:02Z</time>
      </trkpt>
      <trkpt lat="43.8025" lon="3.33969">
        <ele>672</ele>
        <time>2017-05-16T13:26:12Z</time>
      </trkpt>
      <trkpt lat="43.80247" lon="3.33968">
        <ele>672</ele>
        <time>2017-05-16T13:26:17Z</time>
      </trkpt>
      <trkpt lat="43.80229" lon="3.33962">
        <ele>672</ele>
        <time>2017-05-16T13:26:32Z</time>
      </trkpt>
      <trkpt lat="43.80223" lon="3.33962">
        <ele>672</ele>
        <time>2017-05-16T13:26:37Z</time>
      </trkpt>
      <trkpt lat="43.80215" lon="3.33959">
        <ele>672</ele>
        <time>2017-05-16T13:26:47Z</time>
      </trkpt>
      <trkpt lat="43.80206" lon="3.33956">
        <ele>663</ele>
        <time>2017-05-16T13:26:52Z</time>
      </trkpt>
      <trkpt lat="43.80193" lon="3.33953">
        <ele>663</ele>
        <time>2017-05-16T13:27:02Z</time>
      </trkpt>
      <trkpt lat="43.80189" lon="3.33953">
        <ele>663</ele>
        <time>2017-05-16T13:27:07Z</time>
      </trkpt>
      <trkpt lat="43.80177" lon="3.33952">
        <ele>663</ele>
        <time>2017-05-16T13:27:17Z</time>
      </trkpt>
      <trkpt lat="43.80172" lon="3.3395">
        <ele>663</ele>
        <time>2017-05-16T13:27:22Z</time>
      </trkpt>
      <trkpt lat="43.80161" lon="3.33942">
        <ele>663</ele>
        <time>2017-05-16T13:27:37Z</time>
      </trkpt>
      <trkpt lat="43.80158" lon="3.33934">
        <ele>663</ele>
        <time>2017-05-16T13:27:42Z</time>
      </trkpt>
      <trkpt lat="43.80151" lon="3.33922">
        <ele>663</ele>
        <time>2017-05-16T13:27:52Z</time>
      </trkpt>
      <trkpt lat="43.80149" lon="3.33917">
        <ele>663</ele>
        <time>2017-05-16T13:27:57Z</time>
      </trkpt>
      <trkpt lat="43.80142" lon="3.33907">
        <ele>663</ele>
        <time>2017-05-16T13:28:07Z</time>
      </trkpt>
      <trkpt lat="43.80134" lon="3.33901">
        <ele>663</ele>
        <time>2017-05-16T13:28:12Z</time>
      </trkpt>
      <trkpt lat="43.80125" lon="3.33892">
        <ele>666</ele>
        <time>2017-05-16T13:28:22Z</time>
      </trkpt>
      <trkpt lat="43.8012" lon="3.33889">
        <ele>666</ele>
        <time>2017-05-16T13:28:27Z</time>
      </trkpt>
      <trkpt lat="43.8011" lon="3.33887">
        <ele>666</ele>
        <time>2017-05-16T13:28:37Z</time>
      </trkpt>
      <trkpt lat="43.80105" lon="3.33886">
        <ele>666</ele>
        <time>2017-05-16T13:28:42Z</time>
      </trkpt>
      <trkpt lat="43.80097" lon="3.33888">
        <ele>666</ele>
        <time>2017-05-16T13:28:52Z</time>
      </trkpt>
      <trkpt lat="43.80092" lon="3.33891">
        <ele>666</ele>
        <time>2017-05-16T13:28:57Z</time>
      </trkpt>
      <trkpt lat="43.80083" lon="3.33893">
        <ele>666</ele>
        <time>2017-05-16T13:29:07Z</time>
      </trkpt>
      <trkpt lat="43.80078" lon="3.33895">
        <ele>666</ele>
        <time>2017-05-16T13:29:12Z</time>
      </trkpt>
      <trkpt lat="43.8007" lon="3.33895">
        <ele>666</ele>
        <time>2017-05-16T13:29:22Z</time>
      </trkpt>
      <trkpt lat="43.80067" lon="3.33901">
        <ele>666</ele>
        <time>2017-05-16T13:29:27Z</time>
      </trkpt>
      <trkpt lat="43.80061" lon="3.33906">
        <ele>666</ele>
        <time>2017-05-16T13:29:37Z</time>
      </trkpt>
      <trkpt lat="43.80058" lon="3.33907">
        <ele>666</ele>
        <time>2017-05-16T13:29:42Z</time>
      </trkpt>
      <trkpt lat="43.80044" lon="3.33908">
        <ele>666</ele>
        <time>2017-05-16T13:29:57Z</time>
      </trkpt>
      <trkpt lat="43.80038" lon="3.3391">
        <ele>673</ele>
        <time>2017-05-16T13:30:02Z</time>
      </trkpt>
      <trkpt lat="43.80024" lon="3.33914">
        <ele>673</ele>
        <time>2017-05-16T13:30:12Z</time>
      </trkpt>
      <trkpt lat="43.80021" lon="3.33916">
        <ele>673</ele>
        <time>2017-05-16T13:30:17Z</time>
      </trkpt>
      <trkpt lat="43.80004" lon="3.33913">
        <ele>673</ele>
        <time>2017-05-16T13:30:27Z</time>
      </trkpt>
      <trkpt lat="43.79998" lon="3.33912">
        <ele>673</ele>
        <time>2017-05-16T13:30:32Z</time>
      </trkpt>
      <trkpt lat="43.79992" lon="3.3391">
        <ele>673</ele>
        <time>2017-05-16T13:30:42Z</time>
      </trkpt>
      <trkpt lat="43.79991" lon="3.33905">
        <ele>673</ele>
        <time>2017-05-16T13:30:47Z</time>
      </trkpt>
      <trkpt lat="43.79982" lon="3.33897">
        <ele>673</ele>
        <time>2017-05-16T13:30:57Z</time>
      </trkpt>
      <trkpt lat="43.7998" lon="3.33894">
        <ele>673</ele>
        <time>2017-05-16T13:31:02Z</time>
      </trkpt>
      <trkpt lat="43.79967" lon="3.33881">
        <ele>673</ele>
        <time>2017-05-16T13:31:17Z</time>
      </trkpt>
      <trkpt lat="43.79964" lon="3.33879">
        <ele>673</ele>
        <time>2017-05-16T13:31:22Z</time>
      </trkpt>
      <trkpt lat="43.7996" lon="3.3387">
        <ele>649</ele>
        <time>2017-05-16T13:31:32Z</time>
      </trkpt>
      <trkpt lat="43.79957" lon="3.33866">
        <ele>668</ele>
        <time>2017-05-16T13:31:37Z</time>
      </trkpt>
      <trkpt lat="43.79955" lon="3.33859">
        <ele>668</ele>
        <time>2017-05-16T13:31:47Z</time>
      </trkpt>
      <trkpt lat="43.79942" lon="3.33859">
        <ele>668</ele>
        <time>2017-05-16T13:32:02Z</time>
      </trkpt>
      <trkpt lat="43.79939" lon="3.3386">
        <ele>668</ele>
        <time>2017-05-16T13:32:07Z</time>
      </trkpt>
      <trkpt lat="43.7993" lon="3.33862">
        <ele>668</ele>
        <time>2017-05-16T13:32:17Z</time>
      </trkpt>
      <trkpt lat="43.79921" lon="3.33861">
        <ele>668</ele>
        <time>2017-05-16T13:32:22Z</time>
      </trkpt>
      <trkpt lat="43.79914" lon="3.33857">
        <ele>668</ele>
        <time>2017-05-16T13:32:32Z</time>
      </trkpt>
      <trkpt lat="43.79907" lon="3.33859">
        <ele>668</ele>
        <time>2017-05-16T13:32:37Z</time>
      </trkpt>
      <trkpt lat="43.79895" lon="3.33856">
        <ele>668</ele>
        <time>2017-05-16T13:32:57Z</time>
      </trkpt>
      <trkpt lat="43.79887" lon="3.3385">
        <ele>668</ele>
        <time>2017-05-16T13:33:02Z</time>
      </trkpt>
      <trkpt lat="43.7988" lon="3.33847">
        <ele>668</ele>
        <time>2017-05-16T13:33:12Z</time>
      </trkpt>
      <trkpt lat="43.79862" lon="3.33828">
        <ele>677</ele>
        <time>2017-05-16T13:33:27Z</time>
      </trkpt>
      <trkpt lat="43.79859" lon="3.3382">
        <ele>677</ele>
        <time>2017-05-16T13:33:32Z</time>
      </trkpt>
      <trkpt lat="43.79867" lon="3.33818">
        <ele>677</ele>
        <time>2017-05-16T13:33:42Z</time>
      </trkpt>
      <trkpt lat="43.7987" lon="3.33814">
        <ele>677</ele>
        <time>2017-05-16T13:33:47Z</time>
      </trkpt>
      <trkpt lat="43.79878" lon="3.33804">
        <ele>668</ele>
        <time>2017-05-16T13:34:02Z</time>
      </trkpt>
      <trkpt lat="43.79873" lon="3.33799">
        <ele>677</ele>
        <time>2017-05-16T13:34:07Z</time>
      </trkpt>
      <trkpt lat="43.79875" lon="3.33794">
        <ele>668</ele>
        <time>2017-05-16T13:34:17Z</time>
      </trkpt>
      <trkpt lat="43.79877" lon="3.33787">
        <ele>651</ele>
        <time>2017-05-16T13:34:22Z</time>
      </trkpt>
      <trkpt lat="43.79886" lon="3.3378">
        <ele>651</ele>
        <time>2017-05-16T13:34:32Z</time>
      </trkpt>
      <trkpt lat="43.79889" lon="3.33775">
        <ele>651</ele>
        <time>2017-05-16T13:34:37Z</time>
      </trkpt>
      <trkpt lat="43.79894" lon="3.33769">
        <ele>651</ele>
        <time>2017-05-16T13:34:47Z</time>
      </trkpt>
      <trkpt lat="43.79898" lon="3.33768">
        <ele>651</ele>
        <time>2017-05-16T13:34:52Z</time>
      </trkpt>
      <trkpt lat="43.799" lon="3.33759">
        <ele>651</ele>
        <time>2017-05-16T13:35:02Z</time>
      </trkpt>
      <trkpt lat="43.79902" lon="3.33758">
        <ele>651</ele>
        <time>2017-05-16T13:35:07Z</time>
      </trkpt>
      <trkpt lat="43.79902" lon="3.3375">
        <ele>651</ele>
        <time>2017-05-16T13:35:17Z</time>
      </trkpt>
      <trkpt lat="43.79904" lon="3.33744">
        <ele>651</ele>
        <time>2017-05-16T13:35:22Z</time>
      </trkpt>
      <trkpt lat="43.79909" lon="3.33737">
        <ele>651</ele>
        <time>2017-05-16T13:35:32Z</time>
      </trkpt>
      <trkpt lat="43.79909" lon="3.33732">
        <ele>651</ele>
        <time>2017-05-16T13:35:37Z</time>
      </trkpt>
      <trkpt lat="43.79914" lon="3.33726">
        <ele>651</ele>
        <time>2017-05-16T13:35:47Z</time>
      </trkpt>
      <trkpt lat="43.79912" lon="3.33731">
        <ele>651</ele>
        <time>2017-05-16T13:35:52Z</time>
      </trkpt>
      <trkpt lat="43.7991" lon="3.33741">
        <ele>651</ele>
        <time>2017-05-16T13:36:02Z</time>
      </trkpt>
      <trkpt lat="43.79916" lon="3.33745">
        <ele>651</ele>
        <time>2017-05-16T13:36:07Z</time>
      </trkpt>
      <trkpt lat="43.79919" lon="3.33746">
        <ele>651</ele>
        <time>2017-05-16T13:36:22Z</time>
      </trkpt>
      <trkpt lat="43.7992" lon="3.33748">
        <ele>651</ele>
        <time>2017-05-16T13:36:27Z</time>
      </trkpt>
      <trkpt lat="43.79928" lon="3.33757">
        <ele>651</ele>
        <time>2017-05-16T13:36:37Z</time>
      </trkpt>
      <trkpt lat="43.7993" lon="3.33758">
        <ele>651</ele>
        <time>2017-05-16T13:36:42Z</time>
      </trkpt>
      <trkpt lat="43.79936" lon="3.33763">
        <ele>651</ele>
        <time>2017-05-16T13:36:52Z</time>
      </trkpt>
      <trkpt lat="43.79936" lon="3.33766">
        <ele>651</ele>
        <time>2017-05-16T13:36:57Z</time>
      </trkpt>
      <trkpt lat="43.79939" lon="3.3377">
        <ele>651</ele>
        <time>2017-05-16T13:37:07Z</time>
      </trkpt>
      <trkpt lat="43.79941" lon="3.33773">
        <ele>651</ele>
        <time>2017-05-16T13:37:12Z</time>
      </trkpt>
      <trkpt lat="43.79949" lon="3.33776">
        <ele>651</ele>
        <time>2017-05-16T13:37:22Z</time>
      </trkpt>
      <trkpt lat="43.79955" lon="3.3378">
        <ele>651</ele>
        <time>2017-05-16T13:37:27Z</time>
      </trkpt>
      <trkpt lat="43.79972" lon="3.33782">
        <ele>622</ele>
        <time>2017-05-16T13:37:37Z</time>
      </trkpt>
      <trkpt lat="43.79975" lon="3.33783">
        <ele>622</ele>
        <time>2017-05-16T13:37:42Z</time>
      </trkpt>
      <trkpt lat="43.79983" lon="3.33783">
        <ele>622</ele>
        <time>2017-05-16T13:37:52Z</time>
      </trkpt>
      <trkpt lat="43.79981" lon="3.33785">
        <ele>622</ele>
        <time>2017-05-16T13:37:57Z</time>
      </trkpt>
      <trkpt lat="43.79992" lon="3.33796">
        <ele>649</ele>
        <time>2017-05-16T13:38:12Z</time>
      </trkpt>
      <trkpt lat="43.79997" lon="3.338">
        <ele>649</ele>
        <time>2017-05-16T13:38:17Z</time>
      </trkpt>
      <trkpt lat="43.79999" lon="3.338">
        <ele>649</ele>
        <time>2017-05-16T13:38:27Z</time>
      </trkpt>
      <trkpt lat="43.80005" lon="3.33794">
        <ele>649</ele>
        <time>2017-05-16T13:38:32Z</time>
      </trkpt>
      <trkpt lat="43.80009" lon="3.33783">
        <ele>622</ele>
        <time>2017-05-16T13:38:42Z</time>
      </trkpt>
      <trkpt lat="43.80008" lon="3.33776">
        <ele>622</ele>
        <time>2017-05-16T13:38:47Z</time>
      </trkpt>
      <trkpt lat="43.80015" lon="3.33764">
        <ele>622</ele>
        <time>2017-05-16T13:38:57Z</time>
      </trkpt>
      <trkpt lat="43.80021" lon="3.33761">
        <ele>622</ele>
        <time>2017-05-16T13:39:02Z</time>
      </trkpt>
      <trkpt lat="43.80023" lon="3.33763">
        <ele>622</ele>
        <time>2017-05-16T13:39:12Z</time>
      </trkpt>
      <trkpt lat="43.80028" lon="3.33765">
        <ele>622</ele>
        <time>2017-05-16T13:39:17Z</time>
      </trkpt>
      <trkpt lat="43.80039" lon="3.33772">
        <ele>622</ele>
        <time>2017-05-16T13:39:32Z</time>
      </trkpt>
      <trkpt lat="43.8004" lon="3.3377">
        <ele>622</ele>
        <time>2017-05-16T13:39:37Z</time>
      </trkpt>
      <trkpt lat="43.80052" lon="3.33764">
        <ele>611</ele>
        <time>2017-05-16T13:39:47Z</time>
      </trkpt>
      <trkpt lat="43.80052" lon="3.3376">
        <ele>611</ele>
        <time>2017-05-16T13:39:52Z</time>
      </trkpt>
      <trkpt lat="43.80048" lon="3.33749">
        <ele>611</ele>
        <time>2017-05-16T13:40:02Z</time>
      </trkpt>
      <trkpt lat="43.80045" lon="3.33745">
        <ele>611</ele>
        <time>2017-05-16T13:40:07Z</time>
      </trkpt>
      <trkpt lat="43.80048" lon="3.33736">
        <ele>611</ele>
        <time>2017-05-16T13:40:17Z</time>
      </trkpt>
      <trkpt lat="43.8005" lon="3.33731">
        <ele>611</ele>
        <time>2017-05-16T13:40:22Z</time>
      </trkpt>
      <trkpt lat="43.80051" lon="3.33724">
        <ele>611</ele>
        <time>2017-05-16T13:40:32Z</time>
      </trkpt>
      <trkpt lat="43.80049" lon="3.33723">
        <ele>611</ele>
        <time>2017-05-16T13:40:37Z</time>
      </trkpt>
      <trkpt lat="43.80045" lon="3.33721">
        <ele>611</ele>
        <time>2017-05-16T13:40:52Z</time>
      </trkpt>
      <trkpt lat="43.80045" lon="3.33721">
        <ele>611</ele>
        <time>2017-05-16T13:40:57Z</time>
      </trkpt>
      <trkpt lat="43.80048" lon="3.33714">
        <ele>611</ele>
        <time>2017-05-16T13:41:07Z</time>
      </trkpt>
      <trkpt lat="43.80051" lon="3.33713">
        <ele>611</ele>
        <time>2017-05-16T13:41:12Z</time>
      </trkpt>
      <trkpt lat="43.8005" lon="3.33703">
        <ele>583</ele>
        <time>2017-05-16T13:41:22Z</time>
      </trkpt>
      <trkpt lat="43.80055" lon="3.33704">
        <ele>583</ele>
        <time>2017-05-16T13:41:27Z</time>
      </trkpt>
      <trkpt lat="43.80062" lon="3.33701">
        <ele>583</ele>
        <time>2017-05-16T13:41:37Z</time>
      </trkpt>
      <trkpt lat="43.8006" lon="3.33695">
        <ele>583</ele>
        <time>2017-05-16T13:41:42Z</time>
      </trkpt>
      <trkpt lat="43.8007" lon="3.33696">
        <ele>583</ele>
        <time>2017-05-16T13:41:52Z</time>
      </trkpt>
      <trkpt lat="43.80069" lon="3.33697">
        <ele>583</ele>
        <time>2017-05-16T13:41:57Z</time>
      </trkpt>
      <trkpt lat="43.80074" lon="3.33687">
        <ele>583</ele>
        <time>2017-05-16T13:42:12Z</time>
      </trkpt>
      <trkpt lat="43.80072" lon="3.33686">
        <ele>583</ele>
        <time>2017-05-16T13:42:17Z</time>
      </trkpt>
      <trkpt lat="43.80059" lon="3.3368">
        <ele>583</ele>
        <time>2017-05-16T13:42:27Z</time>
      </trkpt>
      <trkpt lat="43.80061" lon="3.33677">
        <ele>583</ele>
        <time>2017-05-16T13:42:32Z</time>
      </trkpt>
      <trkpt lat="43.80072" lon="3.33673">
        <ele>583</ele>
        <time>2017-05-16T13:42:42Z</time>
      </trkpt>
      <trkpt lat="43.80077" lon="3.33674">
        <ele>583</ele>
        <time>2017-05-16T13:42:47Z</time>
      </trkpt>
      <trkpt lat="43.80084" lon="3.33671">
        <ele>583</ele>
        <time>2017-05-16T13:42:57Z</time>
      </trkpt>
      <trkpt lat="43.80088" lon="3.3367">
        <ele>583</ele>
        <time>2017-05-16T13:43:02Z</time>
      </trkpt>
      <trkpt lat="43.80096" lon="3.33668">
        <ele>583</ele>
        <time>2017-05-16T13:43:12Z</time>
      </trkpt>
      <trkpt lat="43.80094" lon="3.33662">
        <ele>583</ele>
        <time>2017-05-16T13:43:17Z</time>
      </trkpt>
      <trkpt lat="43.801" lon="3.3365">
        <ele>583</ele>
        <time>2017-05-16T13:43:32Z</time>
      </trkpt>
      <trkpt lat="43.80102" lon="3.33647">
        <ele>583</ele>
        <time>2017-05-16T13:43:37Z</time>
      </trkpt>
      <trkpt lat="43.80107" lon="3.33646">
        <ele>583</ele>
        <time>2017-05-16T13:43:47Z</time>
      </trkpt>
      <trkpt lat="43.80109" lon="3.33646">
        <ele>583</ele>
        <time>2017-05-16T13:43:52Z</time>
      </trkpt>
      <trkpt lat="43.80109" lon="3.33648">
        <ele>583</ele>
        <time>2017-05-16T13:44:02Z</time>
      </trkpt>
      <trkpt lat="43.80108" lon="3.33646">
        <ele>583</ele>
        <time>2017-05-16T13:44:07Z</time>
      </trkpt>
      <trkpt lat="43.80106" lon="3.33643">
        <ele>583</ele>
        <time>2017-05-16T13:44:17Z</time>
      </trkpt>
      <trkpt lat="43.80102" lon="3.3364">
        <ele>583</ele>
        <time>2017-05-16T13:44:22Z</time>
      </trkpt>
      <trkpt lat="43.80106" lon="3.33635">
        <ele>583</ele>
        <time>2017-05-16T13:44:32Z</time>
      </trkpt>
      <trkpt lat="43.80107" lon="3.33634">
        <ele>583</ele>
        <time>2017-05-16T13:44:37Z</time>
      </trkpt>
      <trkpt lat="43.80113" lon="3.33635">
        <ele>583</ele>
        <time>2017-05-16T13:44:47Z</time>
      </trkpt>
      <trkpt lat="43.8011" lon="3.33633">
        <ele>583</ele>
        <time>2017-05-16T13:44:52Z</time>
      </trkpt>
      <trkpt lat="43.80105" lon="3.33628">
        <ele>583</ele>
        <time>2017-05-16T13:45:07Z</time>
      </trkpt>
      <trkpt lat="43.80109" lon="3.33628">
        <ele>583</ele>
        <time>2017-05-16T13:45:12Z</time>
      </trkpt>
      <trkpt lat="43.80112" lon="3.33626">
        <ele>583</ele>
        <time>2017-05-16T13:45:22Z</time>
      </trkpt>
      <trkpt lat="43.80118" lon="3.33623">
        <ele>563</ele>
        <time>2017-05-16T13:45:27Z</time>
      </trkpt>
      <trkpt lat="43.80131" lon="3.33621">
        <ele>542</ele>
        <time>2017-05-16T13:45:37Z</time>
      </trkpt>
      <trkpt lat="43.80132" lon="3.33616">
        <ele>542</ele>
        <time>2017-05-16T13:45:42Z</time>
      </trkpt>
      <trkpt lat="43.80138" lon="3.33609">
        <ele>542</ele>
        <time>2017-05-16T13:45:52Z</time>
      </trkpt>
      <trkpt lat="43.8014" lon="3.33607">
        <ele>542</ele>
        <time>2017-05-16T13:45:57Z</time>
      </trkpt>
      <trkpt lat="43.8015" lon="3.33601">
        <ele>542</ele>
        <time>2017-05-16T13:46:07Z</time>
      </trkpt>
      <trkpt lat="43.80153" lon="3.33601">
        <ele>542</ele>
        <time>2017-05-16T13:46:12Z</time>
      </trkpt>
      <trkpt lat="43.80158" lon="3.33596">
        <ele>542</ele>
        <time>2017-05-16T13:46:22Z</time>
      </trkpt>
      <trkpt lat="43.80164" lon="3.33596">
        <ele>542</ele>
        <time>2017-05-16T13:46:27Z</time>
      </trkpt>
      <trkpt lat="43.80172" lon="3.33597">
        <ele>542</ele>
        <time>2017-05-16T13:46:37Z</time>
      </trkpt>
      <trkpt lat="43.80176" lon="3.33602">
        <ele>542</ele>
        <time>2017-05-16T13:46:42Z</time>
      </trkpt>
      <trkpt lat="43.80185" lon="3.33606">
        <ele>542</ele>
        <time>2017-05-16T13:46:57Z</time>
      </trkpt>
      <trkpt lat="43.80185" lon="3.33601">
        <ele>542</ele>
        <time>2017-05-16T13:47:02Z</time>
      </trkpt>
      <trkpt lat="43.80182" lon="3.33594">
        <ele>542</ele>
        <time>2017-05-16T13:47:12Z</time>
      </trkpt>
      <trkpt lat="43.80181" lon="3.3359">
        <ele>542</ele>
        <time>2017-05-16T13:47:17Z</time>
      </trkpt>
      <trkpt lat="43.80176" lon="3.33583">
        <ele>542</ele>
        <time>2017-05-16T13:47:27Z</time>
      </trkpt>
      <trkpt lat="43.80176" lon="3.33579">
        <ele>542</ele>
        <time>2017-05-16T13:47:32Z</time>
      </trkpt>
      <trkpt lat="43.80182" lon="3.33579">
        <ele>542</ele>
        <time>2017-05-16T13:47:42Z</time>
      </trkpt>
      <trkpt lat="43.80185" lon="3.33578">
        <ele>542</ele>
        <time>2017-05-16T13:47:47Z</time>
      </trkpt>
      <trkpt lat="43.80186" lon="3.33574">
        <ele>542</ele>
        <time>2017-05-16T13:47:57Z</time>
      </trkpt>
      <trkpt lat="43.80184" lon="3.33571">
        <ele>542</ele>
        <time>2017-05-16T13:48:02Z</time>
      </trkpt>
      <trkpt lat="43.80182" lon="3.33562">
        <ele>542</ele>
        <time>2017-05-16T13:48:12Z</time>
      </trkpt>
      <trkpt lat="43.80181" lon="3.33559">
        <ele>542</ele>
        <time>2017-05-16T13:48:17Z</time>
      </trkpt>
      <trkpt lat="43.80184" lon="3.33554">
        <ele>542</ele>
        <time>2017-05-16T13:48:32Z</time>
      </trkpt>
      <trkpt lat="43.80185" lon="3.33552">
        <ele>542</ele>
        <time>2017-05-16T13:48:37Z</time>
      </trkpt>
      <trkpt lat="43.80184" lon="3.33544">
        <ele>542</ele>
        <time>2017-05-16T13:48:47Z</time>
      </trkpt>
      <trkpt lat="43.80185" lon="3.33543">
        <ele>542</ele>
        <time>2017-05-16T13:48:52Z</time>
      </trkpt>
      <trkpt lat="43.80185" lon="3.33537">
        <ele>519</ele>
        <time>2017-05-16T13:49:02Z</time>
      </trkpt>
      <trkpt lat="43.80182" lon="3.3353">
        <ele>519</ele>
        <time>2017-05-16T13:49:07Z</time>
      </trkpt>
      <trkpt lat="43.80177" lon="3.33521">
        <ele>519</ele>
        <time>2017-05-16T13:49:17Z</time>
      </trkpt>
      <trkpt lat="43.80176" lon="3.33517">
        <ele>519</ele>
        <time>2017-05-16T13:49:22Z</time>
      </trkpt>
      <trkpt lat="43.80178" lon="3.33513">
        <ele>519</ele>
        <time>2017-05-16T13:49:37Z</time>
      </trkpt>
      <trkpt lat="43.80177" lon="3.33507">
        <ele>519</ele>
        <time>2017-05-16T13:49:42Z</time>
      </trkpt>
      <trkpt lat="43.80175" lon="3.33502">
        <ele>519</ele>
        <time>2017-05-16T13:49:52Z</time>
      </trkpt>
      <trkpt lat="43.80174" lon="3.335">
        <ele>519</ele>
        <time>2017-05-16T13:49:57Z</time>
      </trkpt>
      <trkpt lat="43.80176" lon="3.33496">
        <ele>519</ele>
        <time>2017-05-16T13:50:07Z</time>
      </trkpt>
      <trkpt lat="43.80179" lon="3.33486">
        <ele>519</ele>
        <time>2017-05-16T13:50:22Z</time>
      </trkpt>
      <trkpt lat="43.80173" lon="3.33482">
        <ele>519</ele>
        <time>2017-05-16T13:50:27Z</time>
      </trkpt>
      <trkpt lat="43.80171" lon="3.33474">
        <ele>519</ele>
        <time>2017-05-16T13:50:37Z</time>
      </trkpt>
      <trkpt lat="43.80173" lon="3.33469">
        <ele>519</ele>
        <time>2017-05-16T13:50:42Z</time>
      </trkpt>
      <trkpt lat="43.80171" lon="3.3345">
        <ele>504</ele>
        <time>2017-05-16T13:50:57Z</time>
      </trkpt>
      <trkpt lat="43.80171" lon="3.33443">
        <ele>504</ele>
        <time>2017-05-16T13:51:02Z</time>
      </trkpt>
      <trkpt lat="43.80173" lon="3.33433">
        <ele>504</ele>
        <time>2017-05-16T13:51:12Z</time>
      </trkpt>
      <trkpt lat="43.80172" lon="3.33427">
        <ele>504</ele>
        <time>2017-05-16T13:51:17Z</time>
      </trkpt>
      <trkpt lat="43.80174" lon="3.33412">
        <ele>504</ele>
        <time>2017-05-16T13:51:27Z</time>
      </trkpt>
      <trkpt lat="43.80174" lon="3.33406">
        <ele>504</ele>
        <time>2017-05-16T13:51:32Z</time>
      </trkpt>
      <trkpt lat="43.80174" lon="3.33402">
        <ele>504</ele>
        <time>2017-05-16T13:51:42Z</time>
      </trkpt>
      <trkpt lat="43.80177" lon="3.33393">
        <ele>504</ele>
        <time>2017-05-16T13:51:47Z</time>
      </trkpt>
      <trkpt lat="43.80179" lon="3.33376">
        <ele>504</ele>
        <time>2017-05-16T13:51:57Z</time>
      </trkpt>
      <trkpt lat="43.80181" lon="3.33369">
        <ele>495</ele>
        <time>2017-05-16T13:52:02Z</time>
      </trkpt>
      <trkpt lat="43.80182" lon="3.33357">
        <ele>495</ele>
        <time>2017-05-16T13:52:12Z</time>
      </trkpt>
      <trkpt lat="43.80188" lon="3.33355">
        <ele>495</ele>
        <time>2017-05-16T13:52:17Z</time>
      </trkpt>
      <trkpt lat="43.80188" lon="3.3334">
        <ele>495</ele>
        <time>2017-05-16T13:52:27Z</time>
      </trkpt>
      <trkpt lat="43.80191" lon="3.33333">
        <ele>495</ele>
        <time>2017-05-16T13:52:32Z</time>
      </trkpt>
      <trkpt lat="43.80185" lon="3.3332">
        <ele>495</ele>
        <time>2017-05-16T13:52:42Z</time>
      </trkpt>
      <trkpt lat="43.80179" lon="3.33313">
        <ele>495</ele>
        <time>2017-05-16T13:52:47Z</time>
      </trkpt>
      <trkpt lat="43.80187" lon="3.33301">
        <ele>495</ele>
        <time>2017-05-16T13:53:02Z</time>
      </trkpt>
      <trkpt lat="43.80188" lon="3.33295">
        <ele>495</ele>
        <time>2017-05-16T13:53:07Z</time>
      </trkpt>
      <trkpt lat="43.80191" lon="3.33285">
        <ele>492</ele>
        <time>2017-05-16T13:53:17Z</time>
      </trkpt>
      <trkpt lat="43.8019" lon="3.33284">
        <ele>492</ele>
        <time>2017-05-16T13:53:22Z</time>
      </trkpt>
      <trkpt lat="43.80189" lon="3.33275">
        <ele>492</ele>
        <time>2017-05-16T13:53:32Z</time>
      </trkpt>
      <trkpt lat="43.80194" lon="3.33273">
        <ele>492</ele>
        <time>2017-05-16T13:53:37Z</time>
      </trkpt>
      <trkpt lat="43.80198" lon="3.33266">
        <ele>492</ele>
        <time>2017-05-16T13:53:47Z</time>
      </trkpt>
      <trkpt lat="43.80202" lon="3.3326">
        <ele>492</ele>
        <time>2017-05-16T13:53:52Z</time>
      </trkpt>
      <trkpt lat="43.80203" lon="3.33248">
        <ele>492</ele>
        <time>2017-05-16T13:54:02Z</time>
      </trkpt>
      <trkpt lat="43.80201" lon="3.33239">
        <ele>492</ele>
        <time>2017-05-16T13:54:07Z</time>
      </trkpt>
      <trkpt lat="43.80204" lon="3.33231">
        <ele>492</ele>
        <time>2017-05-16T13:54:17Z</time>
      </trkpt>
      <trkpt lat="43.80206" lon="3.33225">
        <ele>492</ele>
        <time>2017-05-16T13:54:22Z</time>
      </trkpt>
      <trkpt lat="43.80211" lon="3.33228">
        <ele>459</ele>
        <time>2017-05-16T13:54:32Z</time>
      </trkpt>
      <trkpt lat="43.8021" lon="3.33234">
        <ele>459</ele>
        <time>2017-05-16T13:54:37Z</time>
      </trkpt>
      <trkpt lat="43.80215" lon="3.33253">
        <ele>459</ele>
        <time>2017-05-16T13:54:52Z</time>
      </trkpt>
      <trkpt lat="43.8022" lon="3.33256">
        <ele>459</ele>
        <time>2017-05-16T13:54:57Z</time>
      </trkpt>
      <trkpt lat="43.80224" lon="3.33248">
        <ele>459</ele>
        <time>2017-05-16T13:55:07Z</time>
      </trkpt>
      <trkpt lat="43.80226" lon="3.33241">
        <ele>459</ele>
        <time>2017-05-16T13:55:12Z</time>
      </trkpt>
      <trkpt lat="43.80229" lon="3.33232">
        <ele>459</ele>
        <time>2017-05-16T13:55:22Z</time>
      </trkpt>
      <trkpt lat="43.80229" lon="3.33227">
        <ele>459</ele>
        <time>2017-05-16T13:55:27Z</time>
      </trkpt>
      <trkpt lat="43.80228" lon="3.33226">
        <ele>459</ele>
        <time>2017-05-16T13:55:42Z</time>
      </trkpt>
      <trkpt lat="43.8023" lon="3.3322">
        <ele>459</ele>
        <time>2017-05-16T13:56:07Z</time>
      </trkpt>
      <trkpt lat="43.80229" lon="3.33206">
        <ele>443</ele>
        <time>2017-05-16T13:56:17Z</time>
      </trkpt>
      <trkpt lat="43.80229" lon="3.33197">
        <ele>443</ele>
        <time>2017-05-16T13:56:22Z</time>
      </trkpt>
      <trkpt lat="43.80231" lon="3.33184">
        <ele>443</ele>
        <time>2017-05-16T13:56:32Z</time>
      </trkpt>
      <trkpt lat="43.8023" lon="3.33177">
        <ele>443</ele>
        <time>2017-05-16T13:56:37Z</time>
      </trkpt>
      <trkpt lat="43.80233" lon="3.33164">
        <ele>443</ele>
        <time>2017-05-16T13:56:47Z</time>
      </trkpt>
      <trkpt lat="43.80232" lon="3.33155">
        <ele>443</ele>
        <time>2017-05-16T13:56:52Z</time>
      </trkpt>
      <trkpt lat="43.80227" lon="3.33134">
        <ele>443</ele>
        <time>2017-05-16T13:57:07Z</time>
      </trkpt>
      <trkpt lat="43.80229" lon="3.33126">
        <ele>443</ele>
        <time>2017-05-16T13:57:12Z</time>
      </trkpt>
      <trkpt lat="43.8023" lon="3.33114">
        <ele>429</ele>
        <time>2017-05-16T13:57:22Z</time>
      </trkpt>
      <trkpt lat="43.80231" lon="3.33107">
        <ele>429</ele>
        <time>2017-05-16T13:57:27Z</time>
      </trkpt>
      <trkpt lat="43.80231" lon="3.33098">
        <ele>429</ele>
        <time>2017-05-16T13:57:37Z</time>
      </trkpt>
      <trkpt lat="43.80227" lon="3.33092">
        <ele>429</ele>
        <time>2017-05-16T13:57:42Z</time>
      </trkpt>
      <trkpt lat="43.80227" lon="3.33078">
        <ele>429</ele>
        <time>2017-05-16T13:57:52Z</time>
      </trkpt>
      <trkpt lat="43.80227" lon="3.33072">
        <ele>429</ele>
        <time>2017-05-16T13:57:57Z</time>
      </trkpt>
      <trkpt lat="43.80232" lon="3.33058">
        <ele>429</ele>
        <time>2017-05-16T13:58:07Z</time>
      </trkpt>
      <trkpt lat="43.80232" lon="3.33051">
        <ele>429</ele>
        <time>2017-05-16T13:58:12Z</time>
      </trkpt>
      <trkpt lat="43.80233" lon="3.33037">
        <ele>415</ele>
        <time>2017-05-16T13:58:22Z</time>
      </trkpt>
      <trkpt lat="43.80237" lon="3.3303">
        <ele>415</ele>
        <time>2017-05-16T13:58:27Z</time>
      </trkpt>
      <trkpt lat="43.80236" lon="3.33015">
        <ele>415</ele>
        <time>2017-05-16T13:58:42Z</time>
      </trkpt>
      <trkpt lat="43.80234" lon="3.33007">
        <ele>415</ele>
        <time>2017-05-16T13:58:47Z</time>
      </trkpt>
      <trkpt lat="43.80235" lon="3.32996">
        <ele>415</ele>
        <time>2017-05-16T13:58:57Z</time>
      </trkpt>
      <trkpt lat="43.80234" lon="3.32991">
        <ele>415</ele>
        <time>2017-05-16T13:59:02Z</time>
      </trkpt>
      <trkpt lat="43.80236" lon="3.32978">
        <ele>415</ele>
        <time>2017-05-16T13:59:12Z</time>
      </trkpt>
      <trkpt lat="43.80238" lon="3.32971">
        <ele>415</ele>
        <time>2017-05-16T13:59:17Z</time>
      </trkpt>
      <trkpt lat="43.80242" lon="3.32958">
        <ele>415</ele>
        <time>2017-05-16T13:59:27Z</time>
      </trkpt>
      <trkpt lat="43.80242" lon="3.32954">
        <ele>406</ele>
        <time>2017-05-16T13:59:32Z</time>
      </trkpt>
      <trkpt lat="43.80247" lon="3.32946">
        <ele>406</ele>
        <time>2017-05-16T13:59:42Z</time>
      </trkpt>
      <trkpt lat="43.80248" lon="3.32942">
        <ele>406</ele>
        <time>2017-05-16T13:59:47Z</time>
      </trkpt>
      <trkpt lat="43.80249" lon="3.32928">
        <ele>406</ele>
        <time>2017-05-16T13:59:57Z</time>
      </trkpt>
      <trkpt lat="43.80251" lon="3.3292">
        <ele>406</ele>
        <time>2017-05-16T14:00:02Z</time>
      </trkpt>
      <trkpt lat="43.80253" lon="3.32908">
        <ele>406</ele>
        <time>2017-05-16T14:00:12Z</time>
      </trkpt>
      <trkpt lat="43.80256" lon="3.32901">
        <ele>406</ele>
        <time>2017-05-16T14:00:17Z</time>
      </trkpt>
      <trkpt lat="43.80259" lon="3.32889">
        <ele>406</ele>
        <time>2017-05-16T14:00:27Z</time>
      </trkpt>
      <trkpt lat="43.80262" lon="3.32881">
        <ele>406</ele>
        <time>2017-05-16T14:00:32Z</time>
      </trkpt>
      <trkpt lat="43.80264" lon="3.32865">
        <ele>404</ele>
        <time>2017-05-16T14:00:42Z</time>
      </trkpt>
      <trkpt lat="43.80267" lon="3.3286">
        <ele>404</ele>
        <time>2017-05-16T14:00:47Z</time>
      </trkpt>
      <trkpt lat="43.80268" lon="3.32843">
        <ele>404</ele>
        <time>2017-05-16T14:01:02Z</time>
      </trkpt>
      <trkpt lat="43.80267" lon="3.32837">
        <ele>404</ele>
        <time>2017-05-16T14:01:07Z</time>
      </trkpt>
      <trkpt lat="43.80266" lon="3.32825">
        <ele>404</ele>
        <time>2017-05-16T14:01:17Z</time>
      </trkpt>
      <trkpt lat="43.80266" lon="3.3282">
        <ele>404</ele>
        <time>2017-05-16T14:01:22Z</time>
      </trkpt>
      <trkpt lat="43.80271" lon="3.32809">
        <ele>404</ele>
        <time>2017-05-16T14:01:32Z</time>
      </trkpt>
      <trkpt lat="43.80273" lon="3.32804">
        <ele>404</ele>
        <time>2017-05-16T14:01:37Z</time>
      </trkpt>
      <trkpt lat="43.80277" lon="3.32795">
        <ele>404</ele>
        <time>2017-05-16T14:01:47Z</time>
      </trkpt>
      <trkpt lat="43.80281" lon="3.32791">
        <ele>405</ele>
        <time>2017-05-16T14:01:52Z</time>
      </trkpt>
      <trkpt lat="43.80287" lon="3.32783">
        <ele>405</ele>
        <time>2017-05-16T14:02:02Z</time>
      </trkpt>
      <trkpt lat="43.8029" lon="3.32779">
        <ele>405</ele>
        <time>2017-05-16T14:02:07Z</time>
      </trkpt>
      <trkpt lat="43.80295" lon="3.32763">
        <ele>380</ele>
        <time>2017-05-16T14:02:22Z</time>
      </trkpt>
      <trkpt lat="43.80298" lon="3.32757">
        <ele>380</ele>
        <time>2017-05-16T14:02:27Z</time>
      </trkpt>
      <trkpt lat="43.80302" lon="3.32748">
        <ele>380</ele>
        <time>2017-05-16T14:02:37Z</time>
      </trkpt>
      <trkpt lat="43.80303" lon="3.32742">
        <ele>380</ele>
        <time>2017-05-16T14:02:42Z</time>
      </trkpt>
      <trkpt lat="43.80304" lon="3.32728">
        <ele>380</ele>
        <time>2017-05-16T14:02:52Z</time>
      </trkpt>
      <trkpt lat="43.80305" lon="3.32722">
        <ele>380</ele>
        <time>2017-05-16T14:02:57Z</time>
      </trkpt>
      <trkpt lat="43.80309" lon="3.32708">
        <ele>380</ele>
        <time>2017-05-16T14:03:07Z</time>
      </trkpt>
      <trkpt lat="43.80312" lon="3.32702">
        <ele>363</ele>
        <time>2017-05-16T14:03:12Z</time>
      </trkpt>
      <trkpt lat="43.80314" lon="3.32698">
        <ele>363</ele>
        <time>2017-05-16T14:03:22Z</time>
      </trkpt>
      <trkpt lat="43.80315" lon="3.32693">
        <ele>363</ele>
        <time>2017-05-16T14:03:27Z</time>
      </trkpt>
      <trkpt lat="43.80316" lon="3.327">
        <ele>363</ele>
        <time>2017-05-16T14:03:42Z</time>
      </trkpt>
      <trkpt lat="43.80314" lon="3.32706">
        <ele>363</ele>
        <time>2017-05-16T14:03:47Z</time>
      </trkpt>
      <trkpt lat="43.80312" lon="3.32722">
        <ele>380</ele>
        <time>2017-05-16T14:03:57Z</time>
      </trkpt>
      <trkpt lat="43.80312" lon="3.32732">
        <ele>380</ele>
        <time>2017-05-16T14:04:02Z</time>
      </trkpt>
      <trkpt lat="43.80311" lon="3.32753">
        <ele>380</ele>
        <time>2017-05-16T14:04:12Z</time>
      </trkpt>
      <trkpt lat="43.80315" lon="3.32757">
        <ele>380</ele>
        <time>2017-05-16T14:04:17Z</time>
      </trkpt>
      <trkpt lat="43.80326" lon="3.32748">
        <ele>380</ele>
        <time>2017-05-16T14:04:27Z</time>
      </trkpt>
      <trkpt lat="43.80329" lon="3.32742">
        <ele>380</ele>
        <time>2017-05-16T14:04:32Z</time>
      </trkpt>
      <trkpt lat="43.80333" lon="3.32726">
        <ele>380</ele>
        <time>2017-05-16T14:04:42Z</time>
      </trkpt>
      <trkpt lat="43.80334" lon="3.32717">
        <ele>380</ele>
        <time>2017-05-16T14:04:47Z</time>
      </trkpt>
      <trkpt lat="43.80346" lon="3.32695">
        <ele>363</ele>
        <time>2017-05-16T14:05:02Z</time>
      </trkpt>
      <trkpt lat="43.80347" lon="3.32685">
        <ele>363</ele>
        <time>2017-05-16T14:05:07Z</time>
      </trkpt>
      <trkpt lat="43.80339" lon="3.32674">
        <ele>363</ele>
        <time>2017-05-16T14:05:17Z</time>
      </trkpt>
      <trkpt lat="43.80336" lon="3.32668">
        <ele>363</ele>
        <time>2017-05-16T14:05:22Z</time>
      </trkpt>
      <trkpt lat="43.80336" lon="3.32654">
        <ele>363</ele>
        <time>2017-05-16T14:05:32Z</time>
      </trkpt>
      <trkpt lat="43.80337" lon="3.32647">
        <ele>363</ele>
        <time>2017-05-16T14:05:37Z</time>
      </trkpt>
      <trkpt lat="43.80336" lon="3.32627">
        <ele>363</ele>
        <time>2017-05-16T14:05:47Z</time>
      </trkpt>
      <trkpt lat="43.80336" lon="3.32618">
        <ele>352</ele>
        <time>2017-05-16T14:05:52Z</time>
      </trkpt>
      <trkpt lat="43.80334" lon="3.32603">
        <ele>352</ele>
        <time>2017-05-16T14:06:02Z</time>
      </trkpt>
      <trkpt lat="43.80336" lon="3.32598">
        <ele>352</ele>
        <time>2017-05-16T14:06:07Z</time>
      </trkpt>
      <trkpt lat="43.80342" lon="3.32583">
        <ele>352</ele>
        <time>2017-05-16T14:06:17Z</time>
      </trkpt>
      <trkpt lat="43.80345" lon="3.32574">
        <ele>352</ele>
        <time>2017-05-16T14:06:22Z</time>
      </trkpt>
      <trkpt lat="43.80355" lon="3.3257">
        <ele>352</ele>
        <time>2017-05-16T14:06:32Z</time>
      </trkpt>
      <trkpt lat="43.80362" lon="3.32574">
        <ele>352</ele>
        <time>2017-05-16T14:06:37Z</time>
      </trkpt>
      <trkpt lat="43.8037" lon="3.32529">
        <ele>338</ele>
        <time>2017-05-16T14:06:52Z</time>
      </trkpt>
      <trkpt lat="43.80367" lon="3.32522">
        <ele>338</ele>
        <time>2017-05-16T14:06:57Z</time>
      </trkpt>
      <trkpt lat="43.80373" lon="3.32514">
        <ele>338</ele>
        <time>2017-05-16T14:07:07Z</time>
      </trkpt>
      <trkpt lat="43.80376" lon="3.32518">
        <ele>330</ele>
        <time>2017-05-16T14:07:27Z</time>
      </trkpt>
      <trkpt lat="43.80386" lon="3.32523">
        <ele>330</ele>
        <time>2017-05-16T14:07:37Z</time>
      </trkpt>
      <trkpt lat="43.80392" lon="3.32526">
        <ele>330</ele>
        <time>2017-05-16T14:07:42Z</time>
      </trkpt>
      <trkpt lat="43.80404" lon="3.32528">
        <ele>330</ele>
        <time>2017-05-16T14:07:52Z</time>
      </trkpt>
      <trkpt lat="43.80409" lon="3.32529">
        <ele>330</ele>
        <time>2017-05-16T14:07:57Z</time>
      </trkpt>
      <trkpt lat="43.80428" lon="3.32542">
        <ele>350</ele>
        <time>2017-05-16T14:08:12Z</time>
      </trkpt>
      <trkpt lat="43.80432" lon="3.32545">
        <ele>350</ele>
        <time>2017-05-16T14:08:17Z</time>
      </trkpt>
      <trkpt lat="43.80446" lon="3.32554">
        <ele>350</ele>
        <time>2017-05-16T14:08:27Z</time>
      </trkpt>
      <trkpt lat="43.80451" lon="3.32559">
        <ele>350</ele>
        <time>2017-05-16T14:08:32Z</time>
      </trkpt>
      <trkpt lat="43.80464" lon="3.32568">
        <ele>338</ele>
        <time>2017-05-16T14:08:42Z</time>
      </trkpt>
      <trkpt lat="43.80468" lon="3.32572">
        <ele>338</ele>
        <time>2017-05-16T14:08:47Z</time>
      </trkpt>
      <trkpt lat="43.80479" lon="3.32581">
        <ele>338</ele>
        <time>2017-05-16T14:08:57Z</time>
      </trkpt>
      <trkpt lat="43.80484" lon="3.32586">
        <ele>338</ele>
        <time>2017-05-16T14:09:02Z</time>
      </trkpt>
      <trkpt lat="43.80495" lon="3.32595">
        <ele>338</ele>
        <time>2017-05-16T14:09:12Z</time>
      </trkpt>
      <trkpt lat="43.80502" lon="3.32601">
        <ele>338</ele>
        <time>2017-05-16T14:09:17Z</time>
      </trkpt>
      <trkpt lat="43.80518" lon="3.32613">
        <ele>338</ele>
        <time>2017-05-16T14:09:32Z</time>
      </trkpt>
      <trkpt lat="43.80522" lon="3.32617">
        <ele>338</ele>
        <time>2017-05-16T14:09:37Z</time>
      </trkpt>
      <trkpt lat="43.80535" lon="3.32609">
        <ele>338</ele>
        <time>2017-05-16T14:09:47Z</time>
      </trkpt>
      <trkpt lat="43.80536" lon="3.32602">
        <ele>338</ele>
        <time>2017-05-16T14:09:52Z</time>
      </trkpt>
      <trkpt lat="43.80526" lon="3.32591">
        <ele>338</ele>
        <time>2017-05-16T14:10:02Z</time>
      </trkpt>
      <trkpt lat="43.80521" lon="3.32586">
        <ele>338</ele>
        <time>2017-05-16T14:10:07Z</time>
      </trkpt>
      <trkpt lat="43.80511" lon="3.3258">
        <ele>338</ele>
        <time>2017-05-16T14:10:17Z</time>
      </trkpt>
      <trkpt lat="43.80507" lon="3.32575">
        <ele>338</ele>
        <time>2017-05-16T14:10:22Z</time>
      </trkpt>
      <trkpt lat="43.80496" lon="3.32563">
        <ele>338</ele>
        <time>2017-05-16T14:10:32Z</time>
      </trkpt>
      <trkpt lat="43.80492" lon="3.3256">
        <ele>338</ele>
        <time>2017-05-16T14:10:37Z</time>
      </trkpt>
      <trkpt lat="43.80479" lon="3.32546">
        <ele>338</ele>
        <time>2017-05-16T14:10:52Z</time>
      </trkpt>
      <trkpt lat="43.80476" lon="3.32541">
        <ele>326</ele>
        <time>2017-05-16T14:10:57Z</time>
      </trkpt>
      <trkpt lat="43.80467" lon="3.32532">
        <ele>326</ele>
        <time>2017-05-16T14:11:07Z</time>
      </trkpt>
      <trkpt lat="43.8046" lon="3.32528">
        <ele>326</ele>
        <time>2017-05-16T14:11:12Z</time>
      </trkpt>
      <trkpt lat="43.80448" lon="3.32514">
        <ele>330</ele>
        <time>2017-05-16T14:11:22Z</time>
      </trkpt>
      <trkpt lat="43.80443" lon="3.32506">
        <ele>330</ele>
        <time>2017-05-16T14:11:27Z</time>
      </trkpt>
      <trkpt lat="43.80436" lon="3.32492">
        <ele>330</ele>
        <time>2017-05-16T14:11:37Z</time>
      </trkpt>
      <trkpt lat="43.80431" lon="3.32486">
        <ele>330</ele>
        <time>2017-05-16T14:11:42Z</time>
      </trkpt>
      <trkpt lat="43.80419" lon="3.32474">
        <ele>330</ele>
        <time>2017-05-16T14:11:52Z</time>
      </trkpt>
      <trkpt lat="43.80413" lon="3.32469">
        <ele>330</ele>
        <time>2017-05-16T14:11:57Z</time>
      </trkpt>
      <trkpt lat="43.80396" lon="3.32462">
        <ele>330</ele>
        <time>2017-05-16T14:12:12Z</time>
      </trkpt>
      <trkpt lat="43.80389" lon="3.32461">
        <ele>330</ele>
        <time>2017-05-16T14:12:17Z</time>
      </trkpt>
      <trkpt lat="43.80373" lon="3.32459">
        <ele>338</ele>
        <time>2017-05-16T14:12:27Z</time>
      </trkpt>
      <trkpt lat="43.80367" lon="3.32456">
        <ele>321</ele>
        <time>2017-05-16T14:12:32Z</time>
      </trkpt>
      <trkpt lat="43.80357" lon="3.3245">
        <ele>321</ele>
        <time>2017-05-16T14:12:42Z</time>
      </trkpt>
      <trkpt lat="43.80353" lon="3.32445">
        <ele>321</ele>
        <time>2017-05-16T14:12:47Z</time>
      </trkpt>
      <trkpt lat="43.80342" lon="3.32444">
        <ele>321</ele>
        <time>2017-05-16T14:12:57Z</time>
      </trkpt>
      <trkpt lat="43.80338" lon="3.32439">
        <ele>321</ele>
        <time>2017-05-16T14:13:02Z</time>
      </trkpt>
      <trkpt lat="43.80336" lon="3.32426">
        <ele>321</ele>
        <time>2017-05-16T14:13:12Z</time>
      </trkpt>
      <trkpt lat="43.80334" lon="3.32417">
        <ele>321</ele>
        <time>2017-05-16T14:13:17Z</time>
      </trkpt>
      <trkpt lat="43.80321" lon="3.32395">
        <ele>321</ele>
        <time>2017-05-16T14:13:32Z</time>
      </trkpt>
      <trkpt lat="43.80317" lon="3.3239">
        <ele>321</ele>
        <time>2017-05-16T14:13:37Z</time>
      </trkpt>
      <trkpt lat="43.80307" lon="3.32383">
        <ele>321</ele>
        <time>2017-05-16T14:13:47Z</time>
      </trkpt>
      <trkpt lat="43.80302" lon="3.32381">
        <ele>321</ele>
        <time>2017-05-16T14:13:52Z</time>
      </trkpt>
      <trkpt lat="43.8029" lon="3.32372">
        <ele>309</ele>
        <time>2017-05-16T14:14:02Z</time>
      </trkpt>
      <trkpt lat="43.80287" lon="3.32364">
        <ele>309</ele>
        <time>2017-05-16T14:14:07Z</time>
      </trkpt>
      <trkpt lat="43.80279" lon="3.32353">
        <ele>309</ele>
        <time>2017-05-16T14:14:17Z</time>
      </trkpt>
      <trkpt lat="43.80274" lon="3.32348">
        <ele>309</ele>
        <time>2017-05-16T14:14:22Z</time>
      </trkpt>
      <trkpt lat="43.80261" lon="3.32349">
        <ele>309</ele>
        <time>2017-05-16T14:14:32Z</time>
      </trkpt>
      <trkpt lat="43.80253" lon="3.3235">
        <ele>309</ele>
        <time>2017-05-16T14:14:37Z</time>
      </trkpt>
      <trkpt lat="43.80233" lon="3.32348">
        <ele>309</ele>
        <time>2017-05-16T14:14:52Z</time>
      </trkpt>
      <trkpt lat="43.80234" lon="3.3234">
        <ele>309</ele>
        <time>2017-05-16T14:14:57Z</time>
      </trkpt>
      <trkpt lat="43.80228" lon="3.32325">
        <ele>309</ele>
        <time>2017-05-16T14:15:07Z</time>
      </trkpt>
      <trkpt lat="43.80222" lon="3.3232">
        <ele>309</ele>
        <time>2017-05-16T14:15:12Z</time>
      </trkpt>
      <trkpt lat="43.80214" lon="3.3231">
        <ele>309</ele>
        <time>2017-05-16T14:15:22Z</time>
      </trkpt>
      <trkpt lat="43.80209" lon="3.32308">
        <ele>309</ele>
        <time>2017-05-16T14:15:27Z</time>
      </trkpt>
      <trkpt lat="43.80196" lon="3.323">
        <ele>302</ele>
        <time>2017-05-16T14:15:37Z</time>
      </trkpt>
      <trkpt lat="43.80191" lon="3.32297">
        <ele>302</ele>
        <time>2017-05-16T14:15:42Z</time>
      </trkpt>
      <trkpt lat="43.80181" lon="3.32284">
        <ele>308</ele>
        <time>2017-05-16T14:15:52Z</time>
      </trkpt>
      <trkpt lat="43.80178" lon="3.32277">
        <ele>308</ele>
        <time>2017-05-16T14:15:57Z</time>
      </trkpt>
      <trkpt lat="43.8016" lon="3.32268">
        <ele>308</ele>
        <time>2017-05-16T14:16:12Z</time>
      </trkpt>
      <trkpt lat="43.80156" lon="3.32268">
        <ele>308</ele>
        <time>2017-05-16T14:16:17Z</time>
      </trkpt>
      <trkpt lat="43.80149" lon="3.32273">
        <ele>308</ele>
        <time>2017-05-16T14:16:27Z</time>
      </trkpt>
      <trkpt lat="43.80144" lon="3.32281">
        <ele>308</ele>
        <time>2017-05-16T14:16:32Z</time>
      </trkpt>
      <trkpt lat="43.80129" lon="3.32296">
        <ele>302</ele>
        <time>2017-05-16T14:16:42Z</time>
      </trkpt>
      <trkpt lat="43.80124" lon="3.32303">
        <ele>302</ele>
        <time>2017-05-16T14:16:47Z</time>
      </trkpt>
      <trkpt lat="43.80113" lon="3.32311">
        <ele>302</ele>
        <time>2017-05-16T14:16:57Z</time>
      </trkpt>
      <trkpt lat="43.8011" lon="3.32314">
        <ele>302</ele>
        <time>2017-05-16T14:17:02Z</time>
      </trkpt>
      <trkpt lat="43.80102" lon="3.32323">
        <ele>302</ele>
        <time>2017-05-16T14:17:12Z</time>
      </trkpt>
      <trkpt lat="43.80097" lon="3.32321">
        <ele>302</ele>
        <time>2017-05-16T14:17:17Z</time>
      </trkpt>
      <trkpt lat="43.80078" lon="3.32325">
        <ele>302</ele>
        <time>2017-05-16T14:17:32Z</time>
      </trkpt>
      <trkpt lat="43.80071" lon="3.32325">
        <ele>302</ele>
        <time>2017-05-16T14:17:37Z</time>
      </trkpt>
      <trkpt lat="43.8006" lon="3.32317">
        <ele>302</ele>
        <time>2017-05-16T14:17:47Z</time>
      </trkpt>
      <trkpt lat="43.80057" lon="3.32315">
        <ele>302</ele>
        <time>2017-05-16T14:17:52Z</time>
      </trkpt>
      <trkpt lat="43.80041" lon="3.32307">
        <ele>296</ele>
        <time>2017-05-16T14:18:02Z</time>
      </trkpt>
      <trkpt lat="43.80037" lon="3.32302">
        <ele>296</ele>
        <time>2017-05-16T14:18:07Z</time>
      </trkpt>
      <trkpt lat="43.80027" lon="3.32297">
        <ele>296</ele>
        <time>2017-05-16T14:18:17Z</time>
      </trkpt>
      <trkpt lat="43.80023" lon="3.32299">
        <ele>296</ele>
        <time>2017-05-16T14:18:22Z</time>
      </trkpt>
      <trkpt lat="43.80023" lon="3.323">
        <ele>296</ele>
        <time>2017-05-16T14:18:27Z</time>
      </trkpt>
    </trkseg>
  </trk>
</gpx>